Time,TemperatureF,DewpointF,PressureIn,WindDirection,WindDirectionDegrees,WindSpeedMPH,WindSpeedGustMPH,Humidity,HourlyPrecipIn,Conditions,Clouds,dailyrainin,SoftwareType,DateUTC
2013-01-11 00:00:00,55.7,48.6,32.29,SSW,211,2.0,3.0,77,0.00,,SKC,0.00,VWS V14.01,2013-01-11 05:00:00,
2013-01-11 00:01:00,55.7,48.6,32.29,West,264,3.0,6.0,77,0.00,,SKC,0.00,VWS V14.01,2013-01-11 05:01:00,
2013-01-11 00:02:00,55.8,48.7,32.29,SE,134,0.0,2.0,77,0.00,,SKC,0.00,VWS V14.01,2013-01-11 05:02:00,
2013-01-11 00:03:00,55.8,48.7,32.29,SSE,165,0.0,1.0,77,0.00,,SKC,0.00,VWS V14.01,2013-01-11 05:03:00,
2013-01-11 00:04:00,55.9,48.8,32.29,South,178,4.0,4.0,77,0.00,,SKC,0.00,VWS V14.01,2013-01-11 05:04:00,
2013-01-11 00:05:00,55.8,48.7,32.29,South,177,0.0,4.0,77,0.00,,SKC,0.00,VWS V14.01,2013-01-11 05:05:00,
2013-01-11 00:06:00,55.8,48.7,32.29,SE,130,2.0,7.0,77,0.00,,SKC,0.00,VWS V14.01,2013-01-11 05:06:00,
2013-01-11 00:07:00,55.9,48.8,32.29,SE,130,2.0,4.0,77,0.00,,SKC,0.00,VWS V14.01,2013-01-11 05:07:00,
2013-01-11 00:08:00,55.8,48.7,32.29,SE,131,4.0,4.0,77,0.00,,SKC,0.00,VWS V14.01,2013-01-11 05:08:00,
2013-01-11 00:09:00,55.9,48.8,32.29,ESE,109,1.0,4.0,77,0.00,,SKC,0.00,VWS V14.01,2013-01-11 05:09:00,
2013-01-11 00:10:00,55.9,48.8,32.29,ESE,109,1.0,1.0,77,0.00,,SKC,0.00,VWS V14.01,2013-01-11 05:10:00,
2013-01-11 00:11:00,55.9,48.8,32.29,ESE,109,1.0,2.0,77,0.00,,SKC,0.00,VWS V14.01,2013-01-11 05:11:00,
2013-01-11 00:12:00,55.8,48.7,32.29,ESE,109,2.0,4.0,77,0.00,,SKC,0.00,VWS V14.01,2013-01-11 05:12:00,
2013-01-11 00:13:00,55.9,48.8,32.29,ESE,109,2.0,2.0,77,0.00,,SKC,0.00,VWS V14.01,2013-01-11 05:13:00,
2013-01-11 00:14:00,55.8,48.7,32.29,ESE,109,2.0,4.0,77,0.00,,SKC,0.00,VWS V14.01,2013-01-11 05:14:00,
2013-01-11 00:15:00,55.8,49.0,32.29,ESE,109,0.0,4.0,78,0.00,,SKC,0.00,VWS V14.01,2013-01-11 05:15:00,
2013-01-11 00:16:00,55.8,49.0,32.29,ESE,109,2.0,5.0,78,0.00,,SKC,0.00,VWS V14.01,2013-01-11 05:16:00,
2013-01-11 00:17:00,55.8,49.0,32.29,East,94,4.0,7.0,78,0.00,,SKC,0.00,VWS V14.01,2013-01-11 05:17:00,
2013-01-11 00:18:00,55.8,49.0,32.29,ESE,109,2.0,2.0,78,0.00,,SKC,0.00,VWS V14.01,2013-01-11 05:18:00,
2013-01-11 00:19:00,55.8,49.0,32.29,South,172,0.0,1.0,78,0.00,,SKC,0.00,VWS V14.01,2013-01-11 05:19:00,
2013-01-11 00:20:00,55.7,49.0,32.29,South,172,0.0,2.0,78,0.00,,SKC,0.00,VWS V14.01,2013-01-11 05:20:00,
2013-01-11 00:21:00,55.7,49.3,32.29,South,172,0.0,1.0,79,0.00,,SKC,0.00,VWS V14.01,2013-01-11 05:21:00,
2013-01-11 00:22:00,55.7,49.3,32.29,South,172,0.0,0.0,79,0.00,,SKC,0.00,VWS V14.01,2013-01-11 05:22:00,
2013-01-11 00:23:00,55.7,49.3,32.29,South,172,0.0,0.0,79,0.00,,SKC,0.00,VWS V14.01,2013-01-11 05:23:00,
2013-01-11 00:24:00,55.6,49.2,32.29,South,172,0.0,0.0,79,0.00,,SKC,0.00,VWS V14.01,2013-01-11 05:24:00,
2013-01-11 00:25:00,55.6,49.2,32.29,South,172,0.0,1.0,79,0.00,,SKC,0.00,VWS V14.01,2013-01-11 05:25:00,
2013-01-11 00:26:00,55.5,49.1,32.29,South,172,0.0,0.0,79,0.00,,SKC,0.00,VWS V14.01,2013-01-11 05:26:00,
2013-01-11 00:27:00,55.5,49.1,32.29,South,172,0.0,1.0,79,0.00,,SKC,0.00,VWS V14.01,2013-01-11 05:27:00,
2013-01-11 00:28:00,55.5,49.1,32.29,South,172,0.0,0.0,79,0.00,,SKC,0.00,VWS V14.01,2013-01-11 05:28:00,
2013-01-11 00:29:00,55.4,49.0,32.29,South,172,0.0,0.0,79,0.00,,SKC,0.00,VWS V14.01,2013-01-11 05:29:00,
2013-01-11 00:30:00,55.3,48.9,32.29,SSE,168,0.0,1.0,79,0.00,,SKC,0.00,VWS V14.01,2013-01-11 05:30:00,
2013-01-11 00:31:00,55.3,49.2,32.29,SSE,168,0.0,0.0,80,0.00,,SKC,0.00,VWS V14.01,2013-01-11 05:31:00,
2013-01-11 00:32:00,55.3,49.2,32.29,SSE,167,0.0,0.0,80,0.00,,SKC,0.00,VWS V14.01,2013-01-11 05:32:00,
2013-01-11 00:33:00,55.3,49.2,32.29,SSE,168,0.0,0.0,80,0.00,,SKC,0.00,VWS V14.01,2013-01-11 05:33:00,
2013-01-11 00:34:00,55.2,49.2,32.29,ESE,107,5.0,6.0,80,0.00,,SKC,0.00,VWS V14.01,2013-01-11 05:34:00,
2013-01-11 00:35:00,55.1,49.0,32.29,ESE,105,0.0,5.0,80,0.00,,SKC,0.00,VWS V14.01,2013-01-11 05:35:00,
2013-01-11 00:36:00,55.1,49.4,32.29,ESE,105,0.0,0.0,81,0.00,,SKC,0.00,VWS V14.01,2013-01-11 05:36:00,
2013-01-11 00:37:00,55.0,49.3,32.29,ESE,105,0.0,0.0,81,0.00,,SKC,0.00,VWS V14.01,2013-01-11 05:37:00,
2013-01-11 00:38:00,55.1,49.4,32.29,ESE,105,0.0,0.0,81,0.00,,SKC,0.00,VWS V14.01,2013-01-11 05:38:00,
2013-01-11 00:39:00,55.0,49.3,32.29,ESE,105,0.0,0.0,81,0.00,,SKC,0.00,VWS V14.01,2013-01-11 05:39:00,
2013-01-11 00:40:00,54.9,49.2,32.29,ESE,105,0.0,1.0,81,0.00,,SKC,0.00,VWS V14.01,2013-01-11 05:40:00,
2013-01-11 00:41:00,54.9,49.2,32.29,ESE,105,0.0,0.0,81,0.00,,SKC,0.00,VWS V14.01,2013-01-11 05:41:00,
2013-01-11 00:42:00,54.8,49.4,32.29,ESE,105,0.0,0.0,82,0.00,,SKC,0.00,VWS V14.01,2013-01-11 05:42:00,
2013-01-11 00:43:00,54.9,49.2,32.29,ESE,105,0.0,0.0,81,0.00,,SKC,0.00,VWS V14.01,2013-01-11 05:43:00,
2013-01-11 00:44:00,54.7,49.3,32.29,ESE,105,0.0,0.0,82,0.00,,SKC,0.00,VWS V14.01,2013-01-11 05:44:00,
2013-01-11 00:45:00,54.6,49.2,32.29,ESE,105,1.0,2.0,82,0.00,,SKC,0.00,VWS V14.01,2013-01-11 05:45:00,
2013-01-11 00:46:00,54.6,49.2,32.29,ESE,105,2.0,4.0,82,0.00,,SKC,0.00,VWS V14.01,2013-01-11 05:46:00,
2013-01-11 00:47:00,54.5,49.1,32.29,ESE,119,1.0,5.0,82,0.00,,SKC,0.00,VWS V14.01,2013-01-11 05:47:00,
2013-01-11 00:48:00,54.5,49.1,32.29,ESE,105,2.0,2.0,82,0.00,,SKC,0.00,VWS V14.01,2013-01-11 05:48:00,
2013-01-11 00:49:00,54.5,49.1,32.29,ESE,119,2.0,2.0,82,0.00,,SKC,0.00,VWS V14.01,2013-01-11 05:49:00,
2013-01-11 00:50:00,54.4,49.3,32.29,ESE,119,0.0,2.0,83,0.00,,SKC,0.00,VWS V14.01,2013-01-11 05:50:00,
2013-01-11 00:51:00,54.4,49.3,32.29,ESE,119,0.0,0.0,83,0.00,,SKC,0.00,VWS V14.01,2013-01-11 05:51:00,
2013-01-11 00:52:00,54.4,49.3,32.29,ESE,119,4.0,4.0,83,0.00,,SKC,0.00,VWS V14.01,2013-01-11 05:52:00,
2013-01-11 00:53:00,54.4,49.3,32.29,ESE,119,0.0,0.0,83,0.00,,SKC,0.00,VWS V14.01,2013-01-11 05:53:00,
2013-01-11 00:54:00,54.2,49.2,32.29,ESE,117,0.0,0.0,83,0.00,,SKC,0.00,VWS V14.01,2013-01-11 05:54:00,
2013-01-11 00:55:00,54.2,49.2,32.29,ESE,117,0.0,0.0,83,0.00,,SKC,0.00,VWS V14.01,2013-01-11 05:55:00,
2013-01-11 00:56:00,54.1,49.4,32.29,ESE,109,2.0,5.0,84,0.00,,SKC,0.00,VWS V14.01,2013-01-11 05:56:00,
2013-01-11 00:57:00,54.0,49.3,32.29,East,88,4.0,5.0,84,0.00,,SKC,0.00,VWS V14.01,2013-01-11 05:57:00,
2013-01-11 00:58:00,54.1,49.4,32.29,ESE,108,2.0,2.0,84,0.00,,SKC,0.00,VWS V14.01,2013-01-11 05:58:00,
2013-01-11 00:59:00,53.9,49.2,32.29,SE,145,4.0,11.0,84,0.00,,SKC,0.00,VWS V14.01,2013-01-11 05:59:00,
2013-01-11 01:00:00,53.8,49.1,32.29,NNE,32,0.0,5.0,84,0.00,,SKC,0.00,VWS V14.01,2013-01-11 06:00:00,
2013-01-11 01:01:00,53.8,49.1,32.29,NE,49,2.0,5.0,84,0.00,,SKC,0.00,VWS V14.01,2013-01-11 06:01:00,
2013-01-11 01:02:00,53.7,49.0,32.29,NE,48,2.0,2.0,84,0.00,,SKC,0.00,VWS V14.01,2013-01-11 06:02:00,
2013-01-11 01:03:00,53.8,49.1,32.29,NE,49,2.0,5.0,84,0.00,,SKC,0.00,VWS V14.01,2013-01-11 06:03:00,
2013-01-11 01:04:00,53.7,49.0,32.29,East,100,7.0,8.0,84,0.00,,SKC,0.00,VWS V14.01,2013-01-11 06:04:00,
2013-01-11 01:05:00,53.6,48.9,32.29,East,101,1.0,7.0,84,0.00,,SKC,0.00,VWS V14.01,2013-01-11 06:05:00,
2013-01-11 01:06:00,53.6,48.9,32.29,East,101,0.0,4.0,84,0.00,,SKC,0.00,VWS V14.01,2013-01-11 06:06:00,
2013-01-11 01:07:00,53.6,48.9,32.29,East,101,0.0,1.0,84,0.00,,SKC,0.00,VWS V14.01,2013-01-11 06:07:00,
2013-01-11 01:08:00,53.6,48.9,32.29,East,101,0.0,4.0,84,0.00,,SKC,0.00,VWS V14.01,2013-01-11 06:08:00,
2013-01-11 01:09:00,53.5,49.1,32.29,East,101,0.0,1.0,85,0.00,,SKC,0.00,VWS V14.01,2013-01-11 06:09:00,
2013-01-11 01:10:00,53.4,49.0,32.29,East,101,0.0,2.0,85,0.00,,SKC,0.00,VWS V14.01,2013-01-11 06:10:00,
2013-01-11 01:11:00,53.4,49.0,32.29,East,101,0.0,0.0,85,0.00,,SKC,0.00,VWS V14.01,2013-01-11 06:11:00,
2013-01-11 01:12:00,53.4,49.0,32.29,ESE,109,2.0,2.0,85,0.00,,SKC,0.00,VWS V14.01,2013-01-11 06:12:00,
2013-01-11 01:13:00,53.4,49.0,32.29,East,101,0.0,0.0,85,0.00,,SKC,0.00,VWS V14.01,2013-01-11 06:13:00,
2013-01-11 01:14:00,53.4,49.0,32.29,ESE,109,0.0,0.0,85,0.00,,SKC,0.00,VWS V14.01,2013-01-11 06:14:00,
2013-01-11 01:15:00,53.3,48.9,32.29,ESE,109,0.0,0.0,85,0.00,,SKC,0.00,VWS V14.01,2013-01-11 06:15:00,
2013-01-11 01:16:00,53.3,48.9,32.29,ESE,109,0.0,0.0,85,0.00,,SKC,0.00,VWS V14.01,2013-01-11 06:16:00,
2013-01-11 01:17:00,53.3,48.9,32.29,ESE,107,6.0,6.0,85,0.00,,SKC,0.00,VWS V14.01,2013-01-11 06:17:00,
2013-01-11 01:18:00,53.3,48.9,32.29,ESE,109,0.0,0.0,85,0.00,,SKC,0.00,VWS V14.01,2013-01-11 06:18:00,
2013-01-11 01:19:00,53.3,48.9,32.29,ESE,113,1.0,4.0,85,0.00,,SKC,0.00,VWS V14.01,2013-01-11 06:19:00,
2013-01-11 01:20:00,53.3,48.9,32.29,ESE,113,0.0,2.0,85,0.00,,SKC,0.00,VWS V14.01,2013-01-11 06:20:00,
2013-01-11 01:21:00,53.2,48.8,32.29,ESE,113,0.0,2.0,85,0.00,,SKC,0.00,VWS V14.01,2013-01-11 06:21:00,
2013-01-11 01:22:00,53.2,48.8,32.29,ESE,113,1.0,2.0,85,0.00,,SKC,0.00,VWS V14.01,2013-01-11 06:22:00,
2013-01-11 01:23:00,53.2,48.8,32.29,ESE,113,0.0,2.0,85,0.00,,SKC,0.00,VWS V14.01,2013-01-11 06:23:00,
2013-01-11 01:24:00,53.1,49.0,32.29,ESE,113,0.0,2.0,86,0.00,,SKC,0.00,VWS V14.01,2013-01-11 06:24:00,
2013-01-11 01:25:00,53.1,48.7,32.29,ESE,113,0.0,0.0,85,0.00,,SKC,0.00,VWS V14.01,2013-01-11 06:25:00,
2013-01-11 01:26:00,53.1,49.0,32.29,ESE,113,2.0,2.0,86,0.00,,SKC,0.00,VWS V14.01,2013-01-11 06:26:00,
2013-01-11 01:27:00,53.1,49.0,32.29,ESE,113,0.0,2.0,86,0.00,,SKC,0.00,VWS V14.01,2013-01-11 06:27:00,
2013-01-11 01:28:00,53.1,49.0,32.29,ESE,113,2.0,2.0,86,0.00,,SKC,0.00,VWS V14.01,2013-01-11 06:28:00,
2013-01-11 01:29:00,53.1,49.0,32.29,ESE,113,0.0,4.0,86,0.00,,SKC,0.00,VWS V14.01,2013-01-11 06:29:00,
2013-01-11 01:30:00,53.1,49.0,32.29,East,99,4.0,4.0,86,0.00,,SKC,0.00,VWS V14.01,2013-01-11 06:30:00,
2013-01-11 01:31:00,53.1,49.0,32.29,East,99,0.0,4.0,86,0.00,,SKC,0.00,VWS V14.01,2013-01-11 06:31:00,
2013-01-11 01:32:00,53.1,49.0,32.29,East,99,0.0,0.0,86,0.00,,SKC,0.00,VWS V14.01,2013-01-11 06:32:00,
2013-01-11 01:33:00,53.1,49.0,32.29,East,99,0.0,4.0,86,0.00,,SKC,0.00,VWS V14.01,2013-01-11 06:33:00,
2013-01-11 01:34:00,53.1,49.0,32.29,East,99,1.0,4.0,86,0.00,,SKC,0.00,VWS V14.01,2013-01-11 06:34:00,
2013-01-11 01:35:00,53.1,49.0,32.29,East,99,0.0,1.0,86,0.00,,SKC,0.00,VWS V14.01,2013-01-11 06:35:00,
2013-01-11 01:36:00,53.1,49.0,32.29,East,99,1.0,1.0,86,0.00,,SKC,0.00,VWS V14.01,2013-01-11 06:36:00,
2013-01-11 01:37:00,53.1,49.0,32.29,East,99,0.0,1.0,86,0.00,,SKC,0.00,VWS V14.01,2013-01-11 06:37:00,
2013-01-11 01:38:00,53.1,49.0,32.29,East,99,0.0,1.0,86,0.00,,SKC,0.00,VWS V14.01,2013-01-11 06:38:00,
2013-01-11 01:39:00,53.1,49.0,32.29,East,99,0.0,4.0,86,0.00,,SKC,0.00,VWS V14.01,2013-01-11 06:39:00,
2013-01-11 01:40:00,53.1,49.0,32.29,East,99,0.0,0.0,86,0.00,,SKC,0.00,VWS V14.01,2013-01-11 06:40:00,
2013-01-11 01:41:00,53.1,49.0,32.29,East,99,0.0,0.0,86,0.00,,SKC,0.00,VWS V14.01,2013-01-11 06:41:00,
2013-01-11 01:42:00,53.1,49.0,32.29,East,99,2.0,2.0,86,0.00,,SKC,0.00,VWS V14.01,2013-01-11 06:42:00,
2013-01-11 01:43:00,53.1,49.0,32.29,East,99,0.0,0.0,86,0.00,,SKC,0.00,VWS V14.01,2013-01-11 06:43:00,
2013-01-11 01:44:00,53.1,49.0,32.29,East,99,1.0,1.0,86,0.00,,SKC,0.00,VWS V14.01,2013-01-11 06:44:00,
2013-01-11 01:45:00,53.1,49.0,32.29,SSE,165,4.0,4.0,86,0.00,,SKC,0.00,VWS V14.01,2013-01-11 06:45:00,
2013-01-11 01:46:00,53.0,48.9,32.29,South,171,0.0,4.0,86,0.00,,SKC,0.00,VWS V14.01,2013-01-11 06:46:00,
2013-01-11 01:47:00,53.0,48.9,32.29,SE,140,5.0,5.0,86,0.00,,SKC,0.00,VWS V14.01,2013-01-11 06:47:00,
2013-01-11 01:48:00,53.0,48.9,32.29,South,171,4.0,4.0,86,0.00,,SKC,0.00,VWS V14.01,2013-01-11 06:48:00,
2013-01-11 01:49:00,52.9,48.8,32.29,East,94,2.0,5.0,86,0.00,,SKC,0.00,VWS V14.01,2013-01-11 06:49:00,
2013-01-11 01:50:00,53.0,48.9,32.29,SSW,199,4.0,5.0,86,0.00,,SKC,0.00,VWS V14.01,2013-01-11 06:50:00,
2013-01-11 01:51:00,52.9,48.8,32.29,SSW,200,0.0,4.0,86,0.00,,SKC,0.00,VWS V14.01,2013-01-11 06:51:00,
2013-01-11 01:52:00,52.9,48.8,32.29,SSW,201,2.0,2.0,86,0.00,,SKC,0.00,VWS V14.01,2013-01-11 06:52:00,
2013-01-11 01:53:00,52.9,48.8,32.29,SSW,201,0.0,4.0,86,0.00,,SKC,0.00,VWS V14.01,2013-01-11 06:53:00,
2013-01-11 01:54:00,52.9,48.8,32.29,SSW,201,1.0,3.0,86,0.00,,SKC,0.00,VWS V14.01,2013-01-11 06:54:00,
2013-01-11 01:55:00,52.9,48.8,32.29,SSW,201,0.0,2.0,86,0.00,,SKC,0.00,VWS V14.01,2013-01-11 06:55:00,
2013-01-11 01:56:00,52.9,48.8,32.29,SSW,200,0.0,1.0,86,0.00,,SKC,0.00,VWS V14.01,2013-01-11 06:56:00,
2013-01-11 01:57:00,52.9,48.8,32.29,SSW,201,1.0,1.0,86,0.00,,SKC,0.00,VWS V14.01,2013-01-11 06:57:00,
2013-01-11 01:58:00,52.9,48.8,32.29,SSW,201,0.0,1.0,86,0.00,,SKC,0.00,VWS V14.01,2013-01-11 06:58:00,
2013-01-11 01:59:00,52.8,48.7,32.29,SSE,159,1.0,4.0,86,0.00,,SKC,0.00,VWS V14.01,2013-01-11 06:59:00,
2013-01-11 02:00:00,52.9,48.8,32.29,SSE,159,0.0,1.0,86,0.00,,SKC,0.00,VWS V14.01,2013-01-11 07:00:00,
2013-01-11 02:01:00,52.9,48.8,32.29,SSE,159,4.0,5.0,86,0.00,,SKC,0.00,VWS V14.01,2013-01-11 07:01:00,
2013-01-11 02:02:00,52.9,48.8,32.29,SSE,159,2.0,4.0,86,0.00,,SKC,0.00,VWS V14.01,2013-01-11 07:02:00,
2013-01-11 02:03:00,52.9,48.8,32.29,SSE,159,2.0,4.0,86,0.00,,SKC,0.00,VWS V14.01,2013-01-11 07:03:00,
2013-01-11 02:04:00,52.9,48.8,32.29,ESE,102,4.0,5.0,86,0.00,,SKC,0.00,VWS V14.01,2013-01-11 07:04:00,
2013-01-11 02:05:00,53.0,48.9,32.29,ESE,103,4.0,5.0,86,0.00,,SKC,0.00,VWS V14.01,2013-01-11 07:05:00,
2013-01-11 02:06:00,53.0,48.9,32.29,ESE,102,2.0,4.0,86,0.00,,SKC,0.00,VWS V14.01,2013-01-11 07:06:00,
2013-01-11 02:07:00,53.0,48.9,32.29,ESE,102,0.0,2.0,86,0.00,,SKC,0.00,VWS V14.01,2013-01-11 07:07:00,
2013-01-11 02:08:00,53.0,48.9,32.29,ESE,103,1.0,4.0,86,0.00,,SKC,0.00,VWS V14.01,2013-01-11 07:08:00,
2013-01-11 02:09:00,53.1,49.0,32.29,ESE,103,0.0,0.0,86,0.00,,SKC,0.00,VWS V14.01,2013-01-11 07:09:00,
2013-01-11 02:10:00,53.1,49.0,32.29,ESE,103,0.0,0.0,86,0.00,,SKC,0.00,VWS V14.01,2013-01-11 07:10:00,
2013-01-11 02:11:00,53.1,49.0,32.29,ESE,103,0.0,0.0,86,0.00,,SKC,0.00,VWS V14.01,2013-01-11 07:11:00,
2013-01-11 02:12:00,53.0,48.9,32.29,ESE,102,2.0,2.0,86,0.00,,SKC,0.00,VWS V14.01,2013-01-11 07:12:00,
2013-01-11 02:13:00,53.0,48.9,32.29,ESE,103,0.0,0.0,86,0.00,,SKC,0.00,VWS V14.01,2013-01-11 07:13:00,
2013-01-11 02:14:00,53.1,49.0,32.29,ESE,103,0.0,0.0,86,0.00,,SKC,0.00,VWS V14.01,2013-01-11 07:14:00,
2013-01-11 02:15:00,53.0,48.9,32.29,ESE,103,0.0,0.0,86,0.00,,SKC,0.00,VWS V14.01,2013-01-11 07:15:00,
2013-01-11 02:16:00,53.0,48.9,32.29,ESE,103,0.0,0.0,86,0.00,,SKC,0.00,VWS V14.01,2013-01-11 07:16:00,
2013-01-11 02:17:00,53.0,48.9,32.29,ESE,116,5.0,5.0,86,0.00,,SKC,0.00,VWS V14.01,2013-01-11 07:17:00,
2013-01-11 02:18:00,53.0,48.9,32.29,ESE,103,0.0,0.0,86,0.00,,SKC,0.00,VWS V14.01,2013-01-11 07:18:00,
2013-01-11 02:19:00,53.0,48.9,32.29,ESE,115,2.0,4.0,86,0.00,,SKC,0.00,VWS V14.01,2013-01-11 07:19:00,
2013-01-11 02:20:00,53.0,48.9,32.29,ESE,115,2.0,4.0,86,0.00,,SKC,0.00,VWS V14.01,2013-01-11 07:20:00,
2013-01-11 02:21:00,53.1,49.0,32.29,ESE,117,4.0,4.0,86,0.00,,SKC,0.00,VWS V14.01,2013-01-11 07:21:00,
2013-01-11 02:22:00,53.1,49.0,32.29,ESE,117,1.0,4.0,86,0.00,,SKC,0.00,VWS V14.01,2013-01-11 07:22:00,
2013-01-11 02:23:00,53.1,49.0,32.29,ESE,117,4.0,4.0,86,0.00,,SKC,0.00,VWS V14.01,2013-01-11 07:23:00,
2013-01-11 02:24:00,53.2,49.1,32.29,ESE,117,0.0,0.0,86,0.00,,SKC,0.00,VWS V14.01,2013-01-11 07:24:00,
2013-01-11 02:25:00,53.2,49.1,32.29,ESE,117,2.0,2.0,86,0.00,,SKC,0.00,VWS V14.01,2013-01-11 07:25:00,
2013-01-11 02:26:00,53.2,49.1,32.29,ESE,117,0.0,2.0,86,0.00,,SKC,0.00,VWS V14.01,2013-01-11 07:26:00,
2013-01-11 02:27:00,53.3,49.2,32.29,ESE,117,0.0,0.0,86,0.00,,SKC,0.00,VWS V14.01,2013-01-11 07:27:00,
2013-01-11 02:28:00,53.2,49.1,32.29,ESE,117,0.0,2.0,86,0.00,,SKC,0.00,VWS V14.01,2013-01-11 07:28:00,
2013-01-11 02:29:00,53.4,49.3,32.29,ESE,117,1.0,1.0,86,0.00,,SKC,0.00,VWS V14.01,2013-01-11 07:29:00,
2013-01-11 02:30:00,53.4,49.3,32.29,ESE,117,0.0,2.0,86,0.00,,SKC,0.00,VWS V14.01,2013-01-11 07:30:00,
2013-01-11 02:31:00,53.4,49.3,32.29,ESE,117,0.0,0.0,86,0.00,,SKC,0.00,VWS V14.01,2013-01-11 07:31:00,
2013-01-11 02:32:00,53.4,49.0,32.29,ESE,117,2.0,2.0,85,0.00,,SKC,0.00,VWS V14.01,2013-01-11 07:32:00,
2013-01-11 02:33:00,53.4,49.3,32.29,ESE,117,0.0,0.0,86,0.00,,SKC,0.00,VWS V14.01,2013-01-11 07:33:00,
2013-01-11 02:34:00,53.4,49.3,32.29,ESE,117,0.0,1.0,86,0.00,,SKC,0.00,VWS V14.01,2013-01-11 07:34:00,
2013-01-11 02:35:00,53.4,49.3,32.29,ESE,115,4.0,4.0,86,0.00,,SKC,0.00,VWS V14.01,2013-01-11 07:35:00,
2013-01-11 02:36:00,53.4,49.3,32.29,East,95,4.0,6.0,86,0.00,,SKC,0.00,VWS V14.01,2013-01-11 07:36:00,
2013-01-11 02:37:00,53.3,49.2,32.29,South,181,3.0,4.0,86,0.00,,SKC,0.00,VWS V14.01,2013-01-11 07:37:00,
2013-01-11 02:38:00,53.4,49.3,32.29,East,95,1.0,6.0,86,0.00,,SKC,0.00,VWS V14.01,2013-01-11 07:38:00,
2013-01-11 02:39:00,53.3,49.2,32.29,South,180,0.0,0.0,86,0.00,,SKC,0.00,VWS V14.01,2013-01-11 07:39:00,
2013-01-11 02:40:00,53.2,49.1,32.29,South,178,4.0,4.0,86,0.00,,SKC,0.00,VWS V14.01,2013-01-11 07:40:00,
2013-01-11 02:41:00,53.2,49.1,32.29,South,176,4.0,4.0,86,0.00,,SKC,0.00,VWS V14.01,2013-01-11 07:41:00,
2013-01-11 02:42:00,53.2,49.1,32.29,ESE,107,6.0,6.0,86,0.00,,SKC,0.00,VWS V14.01,2013-01-11 07:42:00,
2013-01-11 02:43:00,53.2,49.1,32.29,South,178,4.0,4.0,86,0.00,,SKC,0.00,VWS V14.01,2013-01-11 07:43:00,
2013-01-11 02:44:00,53.2,49.1,32.29,ESE,104,6.0,6.0,86,0.00,,SKC,0.00,VWS V14.01,2013-01-11 07:44:00,
2013-01-11 02:45:00,53.3,49.5,32.29,ESE,109,1.0,7.0,87,0.00,,SKC,0.00,VWS V14.01,2013-01-11 07:45:00,
2013-01-11 02:46:00,53.3,49.5,32.29,ESE,109,1.0,4.0,87,0.00,,SKC,0.00,VWS V14.01,2013-01-11 07:46:00,
2013-01-11 02:47:00,53.4,49.6,32.29,ESE,109,2.0,2.0,87,0.00,,SKC,0.00,VWS V14.01,2013-01-11 07:47:00,
2013-01-11 02:48:00,53.3,49.5,32.29,ESE,109,2.0,2.0,87,0.00,,SKC,0.00,VWS V14.01,2013-01-11 07:48:00,
2013-01-11 02:49:00,53.6,49.5,32.29,North,5,3.0,3.0,86,0.00,,SKC,0.00,VWS V14.01,2013-01-11 07:49:00,
2013-01-11 02:50:00,53.7,49.6,32.29,North,5,0.0,3.0,86,0.00,,SKC,0.00,VWS V14.01,2013-01-11 07:50:00,
2013-01-11 02:51:00,53.7,49.6,32.29,North,5,1.0,2.0,86,0.00,,SKC,0.00,VWS V14.01,2013-01-11 07:51:00,
2013-01-11 02:52:00,53.7,49.6,32.29,North,360,0.0,1.0,86,0.00,,SKC,0.00,VWS V14.01,2013-01-11 07:52:00,
2013-01-11 02:53:00,53.7,49.6,32.29,North,5,1.0,1.0,86,0.00,,SKC,0.00,VWS V14.01,2013-01-11 07:53:00,
2013-01-11 02:54:00,53.7,49.6,32.29,North,360,3.0,3.0,86,0.00,,SKC,0.00,VWS V14.01,2013-01-11 07:54:00,
2013-01-11 02:55:00,53.8,50.0,32.29,SW,222,3.0,7.0,87,0.00,,SKC,0.00,VWS V14.01,2013-01-11 07:55:00,
2013-01-11 02:56:00,54.0,50.2,32.29,SW,218,2.0,4.0,87,0.00,,SKC,0.00,VWS V14.01,2013-01-11 07:56:00,
2013-01-11 02:57:00,54.2,50.4,32.29,SW,218,2.0,2.0,87,0.00,,SKC,0.00,VWS V14.01,2013-01-11 07:57:00,
2013-01-11 02:58:00,54.0,50.2,32.29,SW,218,4.0,4.0,87,0.00,,SKC,0.00,VWS V14.01,2013-01-11 07:58:00,
2013-01-11 02:59:00,54.5,50.4,32.29,SW,218,1.0,3.0,86,0.00,,SKC,0.00,VWS V14.01,2013-01-11 07:59:00,
2013-01-11 03:00:00,54.7,50.6,32.29,SSW,192,2.0,3.0,86,0.00,,SKC,0.00,VWS V14.01,2013-01-11 08:00:00,
2013-01-11 03:01:00,54.8,50.7,32.29,South,178,4.0,4.0,86,0.00,,SKC,0.00,VWS V14.01,2013-01-11 08:01:00,
2013-01-11 03:02:00,54.9,50.5,32.29,South,180,3.0,5.0,85,0.00,,SKC,0.00,VWS V14.01,2013-01-11 08:02:00,
2013-01-11 03:03:00,54.8,50.7,32.29,SSW,192,2.0,2.0,86,0.00,,SKC,0.00,VWS V14.01,2013-01-11 08:03:00,
2013-01-11 03:04:00,55.0,50.6,32.29,South,176,1.0,4.0,85,0.00,,SKC,0.00,VWS V14.01,2013-01-11 08:04:00,
2013-01-11 03:05:00,55.1,50.7,32.29,South,176,0.0,2.0,85,0.00,,SKC,0.00,VWS V14.01,2013-01-11 08:05:00,
2013-01-11 03:06:00,55.2,50.8,32.29,South,175,1.0,2.0,85,0.00,,SKC,0.00,VWS V14.01,2013-01-11 08:06:00,
2013-01-11 03:07:00,55.3,50.9,32.29,South,175,0.0,1.0,85,0.00,,SKC,0.00,VWS V14.01,2013-01-11 08:07:00,
2013-01-11 03:08:00,55.1,50.7,32.29,South,176,0.0,0.0,85,0.00,,SKC,0.00,VWS V14.01,2013-01-11 08:08:00,
2013-01-11 03:09:00,55.4,51.0,32.29,South,175,0.0,4.0,85,0.00,,SKC,0.00,VWS V14.01,2013-01-11 08:09:00,
2013-01-11 03:10:00,55.4,50.7,32.29,South,175,0.0,1.0,84,0.00,,SKC,0.00,VWS V14.01,2013-01-11 08:10:00,
2013-01-11 03:11:00,55.5,51.1,32.29,SSE,159,2.0,5.0,85,0.00,,SKC,0.00,VWS V14.01,2013-01-11 08:11:00,
2013-01-11 03:12:00,55.5,51.1,32.29,SSE,158,1.0,2.0,85,0.00,,SKC,0.00,VWS V14.01,2013-01-11 08:12:00,
2013-01-11 03:13:00,55.4,50.7,32.29,South,176,2.0,4.0,84,0.00,,SKC,0.00,VWS V14.01,2013-01-11 08:13:00,
2013-01-11 03:14:00,55.5,50.8,32.29,SSE,157,1.0,5.0,84,0.00,,SKC,0.00,VWS V14.01,2013-01-11 08:14:00,
2013-01-11 03:15:00,55.5,50.8,32.29,SSE,157,5.0,5.0,84,0.00,,SKC,0.00,VWS V14.01,2013-01-11 08:15:00,
2013-01-11 03:16:00,55.4,50.7,32.29,SE,126,2.0,6.0,84,0.00,,SKC,0.00,VWS V14.01,2013-01-11 08:16:00,
2013-01-11 03:17:00,55.3,50.6,32.29,SE,125,2.0,5.0,84,0.00,,SKC,0.00,VWS V14.01,2013-01-11 08:17:00,
2013-01-11 03:18:00,55.5,50.8,32.29,SE,126,4.0,6.0,84,0.00,,SKC,0.00,VWS V14.01,2013-01-11 08:18:00,
2013-01-11 03:19:00,55.1,50.4,32.29,SE,131,4.0,4.0,84,0.00,,SKC,0.00,VWS V14.01,2013-01-11 08:19:00,
2013-01-11 03:20:00,54.9,50.2,32.29,SE,131,4.0,4.0,84,0.00,,SKC,0.00,VWS V14.01,2013-01-11 08:20:00,
2013-01-11 03:21:00,54.8,50.1,32.29,SE,130,4.0,5.0,84,0.00,,SKC,0.00,VWS V14.01,2013-01-11 08:21:00,
2013-01-11 03:22:00,54.7,50.0,32.29,SE,130,2.0,4.0,84,0.00,,SKC,0.00,VWS V14.01,2013-01-11 08:22:00,
2013-01-11 03:23:00,54.9,50.2,32.29,SE,131,5.0,5.0,84,0.00,,SKC,0.00,VWS V14.01,2013-01-11 08:23:00,
2013-01-11 03:24:00,54.5,50.1,32.29,SE,130,0.0,0.0,85,0.00,,SKC,0.00,VWS V14.01,2013-01-11 08:24:00,
2013-01-11 03:25:00,54.4,50.0,32.29,SE,130,0.0,0.0,85,0.00,,SKC,0.00,VWS V14.01,2013-01-11 08:25:00,
2013-01-11 03:26:00,54.3,49.9,32.29,SE,130,2.0,2.0,85,0.00,,SKC,0.00,VWS V14.01,2013-01-11 08:26:00,
2013-01-11 03:27:00,54.2,49.8,32.29,SE,130,2.0,4.0,85,0.00,,SKC,0.00,VWS V14.01,2013-01-11 08:27:00,
2013-01-11 03:28:00,54.3,49.9,32.29,SE,130,1.0,1.0,85,0.00,,SKC,0.00,VWS V14.01,2013-01-11 08:28:00,
2013-01-11 03:29:00,54.0,49.9,32.29,SE,130,0.0,2.0,86,0.00,,SKC,0.00,VWS V14.01,2013-01-11 08:29:00,
2013-01-11 03:30:00,53.9,49.8,32.29,SE,130,0.0,1.0,86,0.00,,SKC,0.00,VWS V14.01,2013-01-11 08:30:00,
2013-01-11 03:31:00,53.8,49.7,32.29,SE,130,2.0,2.0,86,0.00,,SKC,0.00,VWS V14.01,2013-01-11 08:31:00,
2013-01-11 03:32:00,53.8,49.7,32.29,SE,130,0.0,2.0,86,0.00,,SKC,0.00,VWS V14.01,2013-01-11 08:32:00,
2013-01-11 03:33:00,53.9,49.8,32.29,SE,130,1.0,1.0,86,0.00,,SKC,0.00,VWS V14.01,2013-01-11 08:33:00,
2013-01-11 03:34:00,53.6,49.5,32.29,SE,130,1.0,1.0,86,0.00,,SKC,0.00,VWS V14.01,2013-01-11 08:34:00,
2013-01-11 03:35:00,53.6,49.5,32.29,SSW,199,3.0,5.0,86,0.00,,SKC,0.00,VWS V14.01,2013-01-11 08:35:00,
2013-01-11 03:36:00,53.5,49.4,32.29,WSW,255,2.0,3.0,86,0.00,,SKC,0.00,VWS V14.01,2013-01-11 08:36:00,
2013-01-11 03:37:00,53.4,49.6,32.29,West,263,0.0,3.0,87,0.00,,SKC,0.00,VWS V14.01,2013-01-11 08:37:00,
2013-01-11 03:38:00,53.5,49.4,32.29,SSW,201,2.0,3.0,86,0.00,,SKC,0.00,VWS V14.01,2013-01-11 08:38:00,
2013-01-11 03:39:00,53.2,49.4,32.29,West,263,0.0,1.0,87,0.00,,SKC,0.00,VWS V14.01,2013-01-11 08:39:00,
2013-01-11 03:40:00,53.2,49.4,32.29,West,263,4.0,4.0,87,0.00,,SKC,0.00,VWS V14.01,2013-01-11 08:40:00,
2013-01-11 03:41:00,53.2,49.4,32.29,West,260,1.0,4.0,87,0.00,,SKC,0.00,VWS V14.01,2013-01-11 08:41:00,
2013-01-11 03:42:00,53.3,49.5,32.29,West,260,0.0,3.0,87,0.00,,SKC,0.00,VWS V14.01,2013-01-11 08:42:00,
2013-01-11 03:43:00,53.2,49.4,32.29,West,261,3.0,4.0,87,0.00,,SKC,0.00,VWS V14.01,2013-01-11 08:43:00,
2013-01-11 03:44:00,53.4,49.9,32.29,West,261,0.0,2.0,88,0.00,,SKC,0.00,VWS V14.01,2013-01-11 08:44:00,
2013-01-11 03:45:00,53.4,49.6,32.29,West,261,0.0,1.0,87,0.00,,SKC,0.00,VWS V14.01,2013-01-11 08:45:00,
2013-01-11 03:46:00,53.5,49.7,32.29,West,261,0.0,1.0,87,0.00,,SKC,0.00,VWS V14.01,2013-01-11 08:46:00,
2013-01-11 03:47:00,53.5,49.7,32.29,West,260,2.0,3.0,87,0.00,,SKC,0.00,VWS V14.01,2013-01-11 08:47:00,
2013-01-11 03:48:00,53.5,49.7,32.29,West,260,0.0,0.0,87,0.00,,SKC,0.00,VWS V14.01,2013-01-11 08:48:00,
2013-01-11 03:49:00,53.3,49.5,32.29,SE,137,4.0,6.0,87,0.00,,SKC,0.00,VWS V14.01,2013-01-11 08:49:00,
2013-01-11 03:50:00,53.3,49.5,32.29,SE,140,1.0,5.0,87,0.00,,SKC,0.00,VWS V14.01,2013-01-11 08:50:00,
2013-01-11 03:51:00,53.2,49.4,32.29,SE,140,1.0,2.0,87,0.00,,SKC,0.00,VWS V14.01,2013-01-11 08:51:00,
2013-01-11 03:52:00,53.1,49.7,32.29,SE,140,4.0,4.0,88,0.00,,SKC,0.00,VWS V14.01,2013-01-11 08:52:00,
2013-01-11 03:53:00,53.2,49.4,32.29,SE,140,0.0,1.0,87,0.00,,SKC,0.00,VWS V14.01,2013-01-11 08:53:00,
2013-01-11 03:54:00,52.9,49.5,32.29,SE,140,2.0,4.0,88,0.00,,SKC,0.00,VWS V14.01,2013-01-11 08:54:00,
2013-01-11 03:55:00,52.9,49.5,32.29,SE,140,0.0,2.0,88,0.00,,SKC,0.00,VWS V14.01,2013-01-11 08:55:00,
2013-01-11 03:56:00,52.8,49.3,32.29,SE,140,0.0,0.0,88,0.00,,SKC,0.00,VWS V14.01,2013-01-11 08:56:00,
2013-01-11 03:57:00,52.8,49.3,32.29,SE,140,0.0,0.0,88,0.00,,SKC,0.00,VWS V14.01,2013-01-11 08:57:00,
2013-01-11 03:58:00,52.8,49.3,32.29,SE,140,0.0,0.0,88,0.00,,SKC,0.00,VWS V14.01,2013-01-11 08:58:00,
2013-01-11 03:59:00,52.7,49.6,32.29,SE,140,1.0,1.0,89,0.00,,SKC,0.00,VWS V14.01,2013-01-11 08:59:00,
2013-01-11 04:00:00,52.6,49.5,32.29,SE,140,0.0,1.0,89,0.00,,SKC,0.00,VWS V14.01,2013-01-11 09:00:00,
2013-01-11 04:01:00,52.6,49.5,32.29,SE,140,4.0,4.0,89,0.00,,SKC,0.00,VWS V14.01,2013-01-11 09:01:00,
2013-01-11 04:02:00,52.6,49.5,32.29,SE,140,0.0,0.0,89,0.00,,SKC,0.00,VWS V14.01,2013-01-11 09:02:00,
2013-01-11 04:03:00,52.6,49.5,32.29,SE,140,0.0,0.0,89,0.00,,SKC,0.00,VWS V14.01,2013-01-11 09:03:00,
2013-01-11 04:04:00,52.5,49.4,32.29,SE,140,0.0,1.0,89,0.00,,SKC,0.00,VWS V14.01,2013-01-11 09:04:00,
2013-01-11 04:05:00,52.5,50.2,32.29,SE,140,0.0,1.0,92,0.00,,SKC,0.00,VWS V14.01,2013-01-11 09:05:00,
2013-01-11 04:06:00,52.5,49.4,32.29,SE,140,0.0,0.0,89,0.00,,SKC,0.00,VWS V14.01,2013-01-11 09:06:00,
2013-01-11 04:07:00,52.5,50.2,32.29,SE,140,0.0,0.0,92,0.00,,SKC,0.00,VWS V14.01,2013-01-11 09:07:00,
2013-01-11 04:08:00,52.4,49.3,32.29,SE,140,1.0,1.0,89,0.00,,SKC,0.00,VWS V14.01,2013-01-11 09:08:00,
2013-01-11 04:09:00,52.4,49.3,32.29,SE,140,0.0,2.0,89,0.00,,SKC,0.00,VWS V14.01,2013-01-11 09:09:00,
2013-01-11 04:10:00,52.4,49.3,32.29,SE,140,0.0,0.0,89,0.00,,SKC,0.00,VWS V14.01,2013-01-11 09:10:00,
2013-01-11 04:11:00,52.4,49.3,32.29,SE,140,0.0,0.0,89,0.00,,SKC,0.00,VWS V14.01,2013-01-11 09:11:00,
2013-01-11 04:12:00,52.4,49.3,32.29,SE,140,0.0,0.0,89,0.00,,SKC,0.00,VWS V14.01,2013-01-11 09:12:00,
2013-01-11 04:13:00,52.3,49.5,32.29,SE,140,0.0,1.0,90,0.00,,SKC,0.00,VWS V14.01,2013-01-11 09:13:00,
2013-01-11 04:14:00,52.3,49.5,32.29,SE,140,0.0,0.0,90,0.00,,SKC,0.00,VWS V14.01,2013-01-11 09:14:00,
2013-01-11 04:15:00,52.3,49.5,32.29,SE,140,0.0,0.0,90,0.00,,SKC,0.00,VWS V14.01,2013-01-11 09:15:00,
2013-01-11 04:16:00,52.2,49.4,32.29,SE,140,0.0,0.0,90,0.00,,SKC,0.00,VWS V14.01,2013-01-11 09:16:00,
2013-01-11 04:17:00,52.3,49.5,32.29,SE,140,0.0,0.0,90,0.00,,SKC,0.00,VWS V14.01,2013-01-11 09:17:00,
2013-01-11 04:18:00,52.2,49.4,32.29,SE,140,0.0,0.0,90,0.00,,SKC,0.00,VWS V14.01,2013-01-11 09:18:00,
2013-01-11 04:19:00,52.2,49.4,32.29,SE,140,0.0,0.0,90,0.00,,SKC,0.00,VWS V14.01,2013-01-11 09:19:00,
2013-01-11 04:20:00,52.1,49.3,32.29,SE,140,0.0,0.0,90,0.01,,SKC,0.01,VWS V14.01,2013-01-11 09:20:00,
2013-01-11 04:21:00,52.1,49.3,32.29,SE,140,2.0,2.0,90,0.01,,SKC,0.01,VWS V14.01,2013-01-11 09:21:00,
2013-01-11 04:22:00,52.1,49.3,32.29,SE,140,0.0,0.0,90,0.01,,SKC,0.01,VWS V14.01,2013-01-11 09:22:00,
2013-01-11 04:23:00,52.0,49.2,32.29,SE,140,0.0,0.0,90,0.01,,SKC,0.01,VWS V14.01,2013-01-11 09:23:00,
2013-01-11 04:24:00,52.0,49.2,32.29,SE,140,0.0,0.0,90,0.01,,SKC,0.01,VWS V14.01,2013-01-11 09:24:00,
2013-01-11 04:25:00,52.0,49.5,32.29,SE,140,0.0,0.0,91,0.01,,SKC,0.01,VWS V14.01,2013-01-11 09:25:00,
2013-01-11 04:26:00,52.0,49.5,32.29,SE,140,1.0,2.0,91,0.01,,SKC,0.01,VWS V14.01,2013-01-11 09:26:00,
2013-01-11 04:27:00,52.0,49.5,32.29,SE,140,2.0,2.0,91,0.01,,SKC,0.01,VWS V14.01,2013-01-11 09:27:00,
2013-01-11 04:28:00,51.9,49.4,32.29,SE,140,2.0,2.0,91,0.01,,SKC,0.01,VWS V14.01,2013-01-11 09:28:00,
2013-01-11 04:29:00,51.9,49.4,32.29,SE,139,5.0,5.0,91,0.01,,SKC,0.01,VWS V14.01,2013-01-11 09:29:00,
2013-01-11 04:30:00,51.9,49.4,32.29,SE,139,4.0,5.0,91,0.01,,SKC,0.01,VWS V14.01,2013-01-11 09:30:00,
2013-01-11 04:31:00,51.9,49.4,32.29,SE,139,0.0,4.0,91,0.01,,SKC,0.01,VWS V14.01,2013-01-11 09:31:00,
2013-01-11 04:32:00,51.9,49.4,32.29,SE,139,2.0,4.0,91,0.01,,SKC,0.01,VWS V14.01,2013-01-11 09:32:00,
2013-01-11 04:33:00,51.9,49.4,32.29,SE,139,0.0,2.0,91,0.01,,SKC,0.01,VWS V14.01,2013-01-11 09:33:00,
2013-01-11 04:34:00,51.9,49.4,32.29,SE,138,0.0,1.0,91,0.01,,SKC,0.01,VWS V14.01,2013-01-11 09:34:00,
2013-01-11 04:35:00,51.9,49.4,32.29,SE,138,2.0,2.0,91,0.01,,SKC,0.01,VWS V14.01,2013-01-11 09:35:00,
2013-01-11 04:36:00,51.9,49.4,32.29,SE,139,1.0,2.0,91,0.01,,SKC,0.01,VWS V14.01,2013-01-11 09:36:00,
2013-01-11 04:37:00,51.9,49.4,32.29,SE,138,2.0,2.0,91,0.01,,SKC,0.01,VWS V14.01,2013-01-11 09:37:00,
2013-01-11 04:38:00,51.9,49.4,32.29,SE,139,0.0,0.0,91,0.01,,SKC,0.01,VWS V14.01,2013-01-11 09:38:00,
2013-01-11 04:39:00,51.9,49.4,32.29,SE,139,0.0,0.0,91,0.01,,SKC,0.01,VWS V14.01,2013-01-11 09:39:00,
2013-01-11 04:40:00,51.9,49.4,32.29,SE,139,0.0,0.0,91,0.01,,SKC,0.01,VWS V14.01,2013-01-11 09:40:00,
2013-01-11 04:41:00,51.9,49.4,32.29,SE,138,0.0,0.0,91,0.01,,SKC,0.01,VWS V14.01,2013-01-11 09:41:00,
2013-01-11 04:42:00,51.9,49.4,32.29,SE,138,0.0,0.0,91,0.01,,SKC,0.01,VWS V14.01,2013-01-11 09:42:00,
2013-01-11 04:43:00,51.9,49.4,32.29,SE,138,0.0,0.0,91,0.01,,SKC,0.01,VWS V14.01,2013-01-11 09:43:00,
2013-01-11 04:44:00,51.9,49.7,32.29,SE,138,0.0,0.0,92,0.01,,SKC,0.01,VWS V14.01,2013-01-11 09:44:00,
2013-01-11 04:45:00,51.9,49.7,32.29,SE,138,0.0,1.0,92,0.01,,SKC,0.01,VWS V14.01,2013-01-11 09:45:00,
2013-01-11 04:46:00,52.0,49.8,32.29,SE,139,0.0,0.0,92,0.01,,SKC,0.01,VWS V14.01,2013-01-11 09:46:00,
2013-01-11 04:47:00,52.0,49.8,32.29,SE,139,0.0,0.0,92,0.01,,SKC,0.01,VWS V14.01,2013-01-11 09:47:00,
2013-01-11 04:48:00,52.0,49.8,32.29,SE,138,0.0,0.0,92,0.01,,SKC,0.01,VWS V14.01,2013-01-11 09:48:00,
2013-01-11 04:49:00,52.0,49.8,32.29,SE,138,0.0,0.0,92,0.01,,SKC,0.01,VWS V14.01,2013-01-11 09:49:00,
2013-01-11 04:50:00,52.1,49.8,32.29,SE,138,0.0,0.0,92,0.01,,SKC,0.01,VWS V14.01,2013-01-11 09:50:00,
2013-01-11 04:51:00,52.1,49.8,32.29,SE,139,0.0,2.0,92,0.01,,SKC,0.01,VWS V14.01,2013-01-11 09:51:00,
2013-01-11 04:52:00,52.0,49.8,32.29,SE,138,2.0,2.0,92,0.01,,SKC,0.01,VWS V14.01,2013-01-11 09:52:00,
2013-01-11 04:53:00,52.0,49.8,32.29,SE,139,0.0,0.0,92,0.01,,SKC,0.01,VWS V14.01,2013-01-11 09:53:00,
2013-01-11 04:54:00,52.0,49.8,32.29,SE,139,0.0,0.0,92,0.01,,SKC,0.01,VWS V14.01,2013-01-11 09:54:00,
2013-01-11 04:55:00,52.0,49.8,32.29,SE,139,1.0,1.0,92,0.01,,SKC,0.01,VWS V14.01,2013-01-11 09:55:00,
2013-01-11 04:56:00,52.0,49.8,32.29,SE,138,0.0,1.0,92,0.01,,SKC,0.01,VWS V14.01,2013-01-11 09:56:00,
2013-01-11 04:57:00,52.0,49.8,32.29,SE,139,0.0,1.0,92,0.01,,SKC,0.01,VWS V14.01,2013-01-11 09:57:00,
2013-01-11 04:58:00,52.0,49.8,32.29,SE,139,1.0,2.0,92,0.01,,SKC,0.01,VWS V14.01,2013-01-11 09:58:00,
2013-01-11 04:59:00,52.0,49.8,32.29,SE,138,0.0,2.0,92,0.01,,SKC,0.01,VWS V14.01,2013-01-11 09:59:00,
2013-01-11 05:00:00,52.0,49.8,32.29,SE,139,0.0,0.0,92,0.01,,SKC,0.01,VWS V14.01,2013-01-11 10:00:00,
2013-01-11 05:01:00,52.0,49.8,32.29,SE,139,0.0,0.0,92,0.01,,SKC,0.01,VWS V14.01,2013-01-11 10:01:00,
2013-01-11 05:02:00,52.0,49.8,32.29,SE,139,0.0,0.0,92,0.01,,SKC,0.01,VWS V14.01,2013-01-11 10:02:00,
2013-01-11 05:03:00,52.1,49.8,32.29,SE,138,0.0,1.0,92,0.01,,SKC,0.01,VWS V14.01,2013-01-11 10:03:00,
2013-01-11 05:04:00,52.1,49.8,32.29,SE,139,0.0,0.0,92,0.01,,SKC,0.01,VWS V14.01,2013-01-11 10:04:00,
2013-01-11 05:05:00,52.2,50.0,32.29,SE,140,0.0,0.0,92,0.01,,SKC,0.01,VWS V14.01,2013-01-11 10:05:00,
2013-01-11 05:06:00,52.3,50.3,32.29,SE,139,0.0,0.0,93,0.01,,SKC,0.01,VWS V14.01,2013-01-11 10:06:00,
2013-01-11 05:07:00,52.2,50.0,32.29,SE,139,0.0,0.0,92,0.01,,SKC,0.01,VWS V14.01,2013-01-11 10:07:00,
2013-01-11 05:08:00,52.3,50.3,32.29,SE,139,0.0,0.0,93,0.01,,SKC,0.01,VWS V14.01,2013-01-11 10:08:00,
2013-01-11 05:09:00,52.3,50.3,32.29,SE,138,0.0,0.0,93,0.01,,SKC,0.01,VWS V14.01,2013-01-11 10:09:00,
2013-01-11 05:10:00,52.3,50.3,32.29,SE,138,1.0,2.0,93,0.01,,SKC,0.01,VWS V14.01,2013-01-11 10:10:00,
2013-01-11 05:11:00,52.4,50.4,32.29,ENE,69,4.0,5.0,93,0.01,,SKC,0.01,VWS V14.01,2013-01-11 10:11:00,
2013-01-11 05:12:00,52.3,50.3,32.29,SE,138,0.0,1.0,93,0.01,,SKC,0.01,VWS V14.01,2013-01-11 10:12:00,
2013-01-11 05:13:00,52.3,50.3,32.29,NE,51,1.0,2.0,93,0.01,,SKC,0.01,VWS V14.01,2013-01-11 10:13:00,
2013-01-11 05:14:00,52.3,50.0,32.29,NE,51,0.0,3.0,92,0.01,,SKC,0.01,VWS V14.01,2013-01-11 10:14:00,
2013-01-11 05:15:00,52.3,50.0,32.29,NE,51,0.0,1.0,92,0.01,,SKC,0.01,VWS V14.01,2013-01-11 10:15:00,
2013-01-11 05:16:00,52.3,50.0,32.29,NE,51,0.0,0.0,92,0.01,,SKC,0.01,VWS V14.01,2013-01-11 10:16:00,
2013-01-11 05:17:00,52.3,50.0,32.29,NE,51,0.0,0.0,92,0.01,,SKC,0.01,VWS V14.01,2013-01-11 10:17:00,
2013-01-11 05:18:00,52.3,50.0,32.29,NE,51,2.0,3.0,92,0.01,,SKC,0.01,VWS V14.01,2013-01-11 10:18:00,
2013-01-11 05:19:00,52.3,50.3,32.29,NE,51,2.0,2.0,93,0.01,,SKC,0.01,VWS V14.01,2013-01-11 10:19:00,
2013-01-11 05:20:00,52.3,50.3,32.29,NE,51,1.0,3.0,93,0.01,,SKC,0.01,VWS V14.01,2013-01-11 10:20:00,
2013-01-11 05:21:00,52.3,50.3,32.29,NE,51,0.0,1.0,93,0.00,,SKC,0.01,VWS V14.01,2013-01-11 10:21:00,
2013-01-11 05:22:00,52.3,50.3,32.29,NE,51,0.0,1.0,93,0.00,,SKC,0.01,VWS V14.01,2013-01-11 10:22:00,
2013-01-11 05:23:00,52.3,50.3,32.29,NE,51,2.0,2.0,93,0.00,,SKC,0.01,VWS V14.01,2013-01-11 10:23:00,
2013-01-11 05:24:00,52.3,50.3,32.29,NE,51,0.0,3.0,93,0.00,,SKC,0.01,VWS V14.01,2013-01-11 10:24:00,
2013-01-11 05:25:00,52.3,50.3,32.29,NE,51,1.0,2.0,93,0.00,,SKC,0.01,VWS V14.01,2013-01-11 10:25:00,
2013-01-11 05:26:00,52.3,50.0,32.29,NE,51,2.0,2.0,92,0.00,,SKC,0.01,VWS V14.01,2013-01-11 10:26:00,
2013-01-11 05:27:00,52.3,50.3,32.29,NE,51,0.0,2.0,93,0.00,,SKC,0.01,VWS V14.01,2013-01-11 10:27:00,
2013-01-11 05:28:00,52.3,50.0,32.29,NE,51,0.0,2.0,92,0.00,,SKC,0.01,VWS V14.01,2013-01-11 10:28:00,
2013-01-11 05:29:00,52.2,50.0,32.29,NE,51,0.0,0.0,92,0.00,,SKC,0.01,VWS V14.01,2013-01-11 10:29:00,
2013-01-11 05:30:00,52.2,50.0,32.29,NE,51,4.0,4.0,92,0.00,,SKC,0.01,VWS V14.01,2013-01-11 10:30:00,
2013-01-11 05:31:00,52.2,50.0,32.29,NE,49,3.0,5.0,92,0.00,,SKC,0.01,VWS V14.01,2013-01-11 10:31:00,
2013-01-11 05:32:00,52.2,50.0,32.29,NE,51,3.0,5.0,92,0.00,,SKC,0.01,VWS V14.01,2013-01-11 10:32:00,
2013-01-11 05:33:00,52.2,50.0,32.29,NE,50,2.0,3.0,92,0.00,,SKC,0.01,VWS V14.01,2013-01-11 10:33:00,
2013-01-11 05:34:00,52.3,50.0,32.29,NE,50,3.0,3.0,92,0.00,,SKC,0.01,VWS V14.01,2013-01-11 10:34:00,
2013-01-11 05:35:00,52.3,50.3,32.29,NE,50,2.0,3.0,93,0.00,,SKC,0.01,VWS V14.01,2013-01-11 10:35:00,
2013-01-11 05:36:00,52.2,50.2,32.29,NE,50,4.0,4.0,93,0.00,,SKC,0.01,VWS V14.01,2013-01-11 10:36:00,
2013-01-11 05:37:00,52.2,50.2,32.29,NE,50,0.0,2.0,93,0.00,,SKC,0.01,VWS V14.01,2013-01-11 10:37:00,
2013-01-11 05:38:00,52.2,50.0,32.29,North,350,3.0,4.0,92,0.00,,SKC,0.01,VWS V14.01,2013-01-11 10:38:00,
2013-01-11 05:39:00,52.2,50.0,32.29,North,350,4.0,4.0,92,0.00,,SKC,0.01,VWS V14.01,2013-01-11 10:39:00,
2013-01-11 05:40:00,52.1,49.8,32.29,North,351,1.0,4.0,92,0.00,,SKC,0.01,VWS V14.01,2013-01-11 10:40:00,
2013-01-11 05:41:00,52.1,49.8,32.29,North,351,3.0,3.0,92,0.00,,SKC,0.01,VWS V14.01,2013-01-11 10:41:00,
2013-01-11 05:42:00,52.1,49.8,32.29,North,350,0.0,1.0,92,0.00,,SKC,0.01,VWS V14.01,2013-01-11 10:42:00,
2013-01-11 05:43:00,52.0,49.8,32.29,NNE,14,2.0,5.0,92,0.00,,SKC,0.01,VWS V14.01,2013-01-11 10:43:00,
2013-01-11 05:44:00,52.0,49.8,32.29,NNE,14,2.0,2.0,92,0.00,,SKC,0.01,VWS V14.01,2013-01-11 10:44:00,
2013-01-11 05:45:00,52.0,49.8,32.29,NNE,14,0.0,2.0,92,0.00,,SKC,0.01,VWS V14.01,2013-01-11 10:45:00,
2013-01-11 05:46:00,52.0,49.8,32.29,NNE,15,0.0,2.0,92,0.00,,SKC,0.01,VWS V14.01,2013-01-11 10:46:00,
2013-01-11 05:47:00,52.0,49.8,32.29,NNE,15,1.0,1.0,92,0.00,,SKC,0.01,VWS V14.01,2013-01-11 10:47:00,
2013-01-11 05:48:00,52.0,49.8,32.29,North,11,2.0,3.0,92,0.00,,SKC,0.01,VWS V14.01,2013-01-11 10:48:00,
2013-01-11 05:49:00,52.0,49.8,32.29,North,11,1.0,3.0,92,0.00,,SKC,0.01,VWS V14.01,2013-01-11 10:49:00,
2013-01-11 05:50:00,52.0,49.8,32.29,North,11,2.0,2.0,92,0.00,,SKC,0.01,VWS V14.01,2013-01-11 10:50:00,
2013-01-11 05:51:00,52.0,49.8,32.29,NNE,13,6.0,7.0,92,0.00,,SKC,0.01,VWS V14.01,2013-01-11 10:51:00,
2013-01-11 05:52:00,52.0,49.8,32.29,North,11,3.0,3.0,92,0.00,,SKC,0.01,VWS V14.01,2013-01-11 10:52:00,
2013-01-11 05:53:00,52.2,50.0,32.29,SW,232,6.0,6.0,92,0.00,,SKC,0.01,VWS V14.01,2013-01-11 10:53:00,
2013-01-11 05:54:00,52.2,50.0,32.29,SW,232,1.0,6.0,92,0.00,,SKC,0.01,VWS V14.01,2013-01-11 10:54:00,
2013-01-11 05:55:00,52.2,50.0,32.29,SW,232,0.0,2.0,92,0.00,,SKC,0.01,VWS V14.01,2013-01-11 10:55:00,
2013-01-11 05:56:00,52.2,50.0,32.29,NNW,348,3.0,4.0,92,0.00,,SKC,0.01,VWS V14.01,2013-01-11 10:56:00,
2013-01-11 05:57:00,52.2,50.0,32.29,SW,232,0.0,0.0,92,0.00,,SKC,0.01,VWS V14.01,2013-01-11 10:57:00,
2013-01-11 05:58:00,52.2,49.7,32.29,SE,130,5.0,5.0,91,0.00,,SKC,0.01,VWS V14.01,2013-01-11 10:58:00,
2013-01-11 05:59:00,52.2,49.7,32.29,South,175,6.0,6.0,91,0.00,,SKC,0.01,VWS V14.01,2013-01-11 10:59:00,
2013-01-11 06:00:00,52.3,49.8,32.29,South,173,1.0,7.0,91,0.00,,SKC,0.01,VWS V14.01,2013-01-11 11:00:00,
2013-01-11 06:01:00,52.4,49.8,32.29,SSE,150,2.0,9.0,91,0.00,,SKC,0.01,VWS V14.01,2013-01-11 11:01:00,
2013-01-11 06:02:00,52.3,49.8,32.29,NNE,17,9.0,9.0,91,0.00,,SKC,0.01,VWS V14.01,2013-01-11 11:02:00,
2013-01-11 06:03:00,53.0,50.5,32.29,ESE,113,5.0,8.0,91,0.00,,SKC,0.01,VWS V14.01,2013-01-11 11:03:00,
2013-01-11 06:04:00,53.1,50.5,32.29,ESE,115,5.0,6.0,91,0.00,,SKC,0.01,VWS V14.01,2013-01-11 11:04:00,
2013-01-11 06:05:00,53.1,50.2,32.29,ESE,121,1.0,6.0,90,0.00,,SKC,0.01,VWS V14.01,2013-01-11 11:05:00,
2013-01-11 06:06:00,53.1,50.0,32.29,ESE,121,2.0,4.0,89,0.00,,SKC,0.01,VWS V14.01,2013-01-11 11:06:00,
2013-01-11 06:07:00,53.1,50.2,32.29,ESE,121,2.0,2.0,90,0.00,,SKC,0.01,VWS V14.01,2013-01-11 11:07:00,
2013-01-11 06:08:00,53.1,50.0,32.29,ESE,121,2.0,5.0,89,0.00,,SKC,0.01,VWS V14.01,2013-01-11 11:08:00,
2013-01-11 06:09:00,53.1,50.0,32.29,ESE,122,6.0,6.0,89,0.00,,SKC,0.01,VWS V14.01,2013-01-11 11:09:00,
2013-01-11 06:10:00,53.1,50.0,32.29,ENE,57,4.0,7.0,89,0.00,,SKC,0.01,VWS V14.01,2013-01-11 11:10:00,
2013-01-11 06:11:00,53.2,50.0,32.29,ENE,57,1.0,4.0,89,0.00,,SKC,0.01,VWS V14.01,2013-01-11 11:11:00,
2013-01-11 06:12:00,53.1,50.0,32.29,ENE,57,2.0,4.0,89,0.00,,SKC,0.01,VWS V14.01,2013-01-11 11:12:00,
2013-01-11 06:13:00,53.2,50.0,32.29,East,79,5.0,5.0,89,0.00,,SKC,0.01,VWS V14.01,2013-01-11 11:13:00,
2013-01-11 06:14:00,53.2,50.0,32.29,East,91,2.0,6.0,89,0.00,,SKC,0.01,VWS V14.01,2013-01-11 11:14:00,
2013-01-11 06:15:00,53.2,50.0,32.29,East,91,2.0,4.0,89,0.00,,SKC,0.01,VWS V14.01,2013-01-11 11:15:00,
2013-01-11 06:16:00,53.2,50.0,32.29,ESE,114,12.0,12.0,89,0.00,,SKC,0.01,VWS V14.01,2013-01-11 11:16:00,
2013-01-11 06:17:00,53.2,50.0,32.29,East,91,4.0,4.0,89,0.00,,SKC,0.01,VWS V14.01,2013-01-11 11:17:00,
2013-01-11 06:18:00,53.2,50.0,32.29,NE,47,1.0,4.0,89,0.00,,SKC,0.01,VWS V14.01,2013-01-11 11:18:00,
2013-01-11 06:19:00,53.2,50.0,32.29,NE,46,1.0,3.0,89,0.00,,SKC,0.01,VWS V14.01,2013-01-11 11:19:00,
2013-01-11 06:20:00,53.2,50.0,32.29,NE,47,0.0,1.0,89,0.00,,SKC,0.01,VWS V14.01,2013-01-11 11:20:00,
2013-01-11 06:21:00,53.3,50.2,32.29,NE,46,0.0,3.0,89,0.00,,SKC,0.01,VWS V14.01,2013-01-11 11:21:00,
2013-01-11 06:22:00,53.2,50.0,32.29,NE,47,0.0,0.0,89,0.00,,SKC,0.01,VWS V14.01,2013-01-11 11:22:00,
2013-01-11 06:23:00,53.7,50.8,32.29,NNW,344,0.0,3.0,90,0.00,,SKC,0.01,VWS V14.01,2013-01-11 11:23:00,
2013-01-11 06:24:00,53.9,51.0,32.29,East,84,4.0,4.0,90,0.00,,SKC,0.01,VWS V14.01,2013-01-11 11:24:00,
2013-01-11 06:25:00,54.0,50.8,32.29,East,98,5.0,5.0,89,0.00,,SKC,0.01,VWS V14.01,2013-01-11 11:25:00,
2013-01-11 06:26:00,54.0,50.8,32.29,ESE,102,2.0,6.0,89,0.00,,SKC,0.01,VWS V14.01,2013-01-11 11:26:00,
2013-01-11 06:27:00,54.0,50.8,32.29,East,101,6.0,6.0,89,0.00,,SKC,0.01,VWS V14.01,2013-01-11 11:27:00,
2013-01-11 06:28:00,54.0,50.5,32.29,ESE,121,5.0,9.0,88,0.00,,SKC,0.01,VWS V14.01,2013-01-11 11:28:00,
2013-01-11 06:29:00,54.0,50.5,32.29,ESE,122,5.0,6.0,88,0.00,,SKC,0.01,VWS V14.01,2013-01-11 11:29:00,
2013-01-11 06:30:00,53.9,50.4,32.29,ESE,123,2.0,5.0,88,0.00,,SKC,0.01,VWS V14.01,2013-01-11 11:30:00,
2013-01-11 06:31:00,53.9,50.4,32.29,ESE,123,1.0,5.0,88,0.00,,SKC,0.01,VWS V14.01,2013-01-11 11:31:00,
2013-01-11 06:32:00,53.9,50.4,32.29,ESE,123,4.0,4.0,88,0.00,,SKC,0.01,VWS V14.01,2013-01-11 11:32:00,
2013-01-11 06:33:00,53.7,50.2,32.29,ESE,123,0.0,4.0,88,0.00,,SKC,0.01,VWS V14.01,2013-01-11 11:33:00,
2013-01-11 06:34:00,53.6,50.1,32.29,ESE,123,4.0,4.0,88,0.00,,SKC,0.01,VWS V14.01,2013-01-11 11:34:00,
2013-01-11 06:35:00,53.5,50.0,32.29,ESE,121,1.0,4.0,88,0.00,,SKC,0.01,VWS V14.01,2013-01-11 11:35:00,
2013-01-11 06:36:00,53.4,50.2,32.29,ESE,121,0.0,2.0,89,0.00,,SKC,0.01,VWS V14.01,2013-01-11 11:36:00,
2013-01-11 06:37:00,53.5,50.0,32.29,ESE,121,0.0,2.0,88,0.00,,SKC,0.01,VWS V14.01,2013-01-11 11:37:00,
2013-01-11 06:38:00,53.3,50.2,32.29,ESE,121,0.0,0.0,89,0.00,,SKC,0.01,VWS V14.01,2013-01-11 11:38:00,
2013-01-11 06:39:00,53.2,50.0,32.29,ESE,121,0.0,1.0,89,0.00,,SKC,0.01,VWS V14.01,2013-01-11 11:39:00,
2013-01-11 06:40:00,53.2,50.9,32.29,ESE,121,0.0,0.0,92,0.00,,SKC,0.01,VWS V14.01,2013-01-11 11:40:00,
2013-01-11 06:41:00,53.2,50.0,32.29,ESE,121,0.0,0.0,89,0.00,,SKC,0.01,VWS V14.01,2013-01-11 11:41:00,
2013-01-11 06:42:00,53.2,50.0,32.29,ESE,121,0.0,0.0,89,0.00,,SKC,0.01,VWS V14.01,2013-01-11 11:42:00,
2013-01-11 06:43:00,53.1,50.0,32.29,ESE,121,0.0,2.0,89,0.00,,SKC,0.01,VWS V14.01,2013-01-11 11:43:00,
2013-01-11 06:44:00,53.0,49.8,32.29,ESE,121,0.0,1.0,89,0.00,,SKC,0.01,VWS V14.01,2013-01-11 11:44:00,
2013-01-11 06:45:00,53.0,50.2,32.29,ESE,121,0.0,0.0,90,0.00,,SKC,0.01,VWS V14.01,2013-01-11 11:45:00,
2013-01-11 06:46:00,53.0,50.2,32.29,ESE,121,0.0,0.0,90,0.00,,SKC,0.01,VWS V14.01,2013-01-11 11:46:00,
2013-01-11 06:47:00,53.0,50.2,32.29,ESE,121,0.0,0.0,90,0.00,,SKC,0.01,VWS V14.01,2013-01-11 11:47:00,
2013-01-11 06:48:00,53.0,50.2,32.29,ESE,121,4.0,4.0,90,0.00,,SKC,0.01,VWS V14.01,2013-01-11 11:48:00,
2013-01-11 06:49:00,52.9,50.0,32.29,ESE,121,0.0,4.0,90,0.00,,SKC,0.01,VWS V14.01,2013-01-11 11:49:00,
2013-01-11 06:50:00,52.9,50.0,32.29,ESE,121,4.0,4.0,90,0.00,,SKC,0.01,VWS V14.01,2013-01-11 11:50:00,
2013-01-11 06:51:00,52.9,50.0,32.29,ESE,121,2.0,4.0,90,0.00,,SKC,0.01,VWS V14.01,2013-01-11 11:51:00,
2013-01-11 06:52:00,52.9,50.0,32.29,ESE,121,4.0,4.0,90,0.00,,SKC,0.01,VWS V14.01,2013-01-11 11:52:00,
2013-01-11 06:53:00,52.8,50.2,32.29,ESE,121,0.0,1.0,91,0.00,,SKC,0.01,VWS V14.01,2013-01-11 11:53:00,
2013-01-11 06:54:00,52.8,50.2,32.29,ESE,121,0.0,0.0,91,0.00,,SKC,0.01,VWS V14.01,2013-01-11 11:54:00,
2013-01-11 06:55:00,52.8,50.2,32.29,ESE,121,0.0,0.0,91,0.00,,SKC,0.01,VWS V14.01,2013-01-11 11:55:00,
2013-01-11 06:56:00,52.8,50.2,32.29,ESE,121,0.0,0.0,91,0.00,,SKC,0.01,VWS V14.01,2013-01-11 11:56:00,
2013-01-11 06:57:00,52.8,50.2,32.29,ESE,121,0.0,0.0,91,0.00,,SKC,0.01,VWS V14.01,2013-01-11 11:57:00,
2013-01-11 06:58:00,52.8,50.2,32.29,ESE,121,0.0,0.0,91,0.00,,SKC,0.01,VWS V14.01,2013-01-11 11:58:00,
2013-01-11 06:59:00,52.8,50.2,32.29,ESE,121,0.0,1.0,91,0.00,,SKC,0.01,VWS V14.01,2013-01-11 11:59:00,
2013-01-11 07:00:00,52.7,50.2,32.29,ESE,121,1.0,2.0,91,0.00,,SKC,0.01,VWS V14.01,2013-01-11 12:00:00,
2013-01-11 07:01:00,52.7,50.2,32.29,ESE,121,0.0,1.0,91,0.00,,SKC,0.01,VWS V14.01,2013-01-11 12:01:00,
2013-01-11 07:02:00,52.7,50.2,32.29,ESE,121,0.0,1.0,91,0.00,,SKC,0.01,VWS V14.01,2013-01-11 12:02:00,
2013-01-11 07:03:00,52.6,50.0,32.29,ESE,121,1.0,2.0,91,0.00,,SKC,0.01,VWS V14.01,2013-01-11 12:03:00,
2013-01-11 07:04:00,52.6,50.0,32.29,ESE,121,0.0,1.0,91,0.00,,SKC,0.01,VWS V14.01,2013-01-11 12:04:00,
2013-01-11 07:05:00,52.6,50.0,32.29,ESE,121,2.0,2.0,91,0.00,,SKC,0.01,VWS V14.01,2013-01-11 12:05:00,
2013-01-11 07:06:00,52.6,50.0,32.29,ESE,121,0.0,2.0,91,0.00,,SKC,0.01,VWS V14.01,2013-01-11 12:06:00,
2013-01-11 07:07:00,52.6,50.0,32.29,ESE,121,2.0,2.0,91,0.00,,SKC,0.01,VWS V14.01,2013-01-11 12:07:00,
2013-01-11 07:08:00,52.5,50.0,32.29,ESE,121,0.0,0.0,91,0.00,,SKC,0.01,VWS V14.01,2013-01-11 12:08:00,
2013-01-11 07:09:00,52.5,50.0,32.29,ESE,121,0.0,0.0,91,0.00,,SKC,0.01,VWS V14.01,2013-01-11 12:09:00,
2013-01-11 07:10:00,52.5,50.0,32.29,ESE,121,0.0,0.0,91,0.00,,SKC,0.01,VWS V14.01,2013-01-11 12:10:00,
2013-01-11 07:11:00,52.5,50.0,32.29,ESE,121,0.0,1.0,91,0.00,,SKC,0.01,VWS V14.01,2013-01-11 12:11:00,
2013-01-11 07:12:00,52.5,50.0,32.29,ESE,121,0.0,0.0,91,0.00,,SKC,0.01,VWS V14.01,2013-01-11 12:12:00,
2013-01-11 07:13:00,52.4,49.8,32.29,ESE,121,1.0,1.0,91,0.00,,SKC,0.01,VWS V14.01,2013-01-11 12:13:00,
2013-01-11 07:14:00,52.4,49.8,32.29,ESE,121,0.0,2.0,91,0.00,,SKC,0.01,VWS V14.01,2013-01-11 12:14:00,
2013-01-11 07:15:00,52.4,49.8,32.29,ESE,121,0.0,0.0,91,0.00,,SKC,0.01,VWS V14.01,2013-01-11 12:15:00,
2013-01-11 07:16:00,52.4,49.8,32.29,ESE,121,0.0,0.0,91,0.00,,SKC,0.01,VWS V14.01,2013-01-11 12:16:00,
2013-01-11 07:17:00,52.4,49.8,32.29,ESE,121,0.0,0.0,91,0.00,,SKC,0.01,VWS V14.01,2013-01-11 12:17:00,
2013-01-11 07:18:00,52.3,50.0,32.29,ESE,121,1.0,2.0,92,0.00,,SKC,0.01,VWS V14.01,2013-01-11 12:18:00,
2013-01-11 07:19:00,52.3,50.0,32.29,ESE,121,1.0,1.0,92,0.00,,SKC,0.01,VWS V14.01,2013-01-11 12:19:00,
2013-01-11 07:20:00,52.3,50.0,32.29,ESE,121,0.0,1.0,92,0.00,,SKC,0.01,VWS V14.01,2013-01-11 12:20:00,
2013-01-11 07:21:00,52.3,50.0,32.29,ESE,121,4.0,4.0,92,0.01,,SKC,0.02,VWS V14.01,2013-01-11 12:21:00,
2013-01-11 07:22:00,52.3,50.0,32.29,ESE,121,0.0,0.0,92,0.00,,SKC,0.01,VWS V14.01,2013-01-11 12:22:00,
2013-01-11 07:23:00,52.3,50.0,32.29,ESE,123,0.0,0.0,92,0.01,,SKC,0.02,VWS V14.01,2013-01-11 12:23:00,
2013-01-11 07:24:00,52.3,50.0,32.29,ESE,123,0.0,1.0,92,0.01,,SKC,0.02,VWS V14.01,2013-01-11 12:24:00,
2013-01-11 07:25:00,52.3,50.0,32.29,ESE,123,0.0,0.0,92,0.01,,SKC,0.02,VWS V14.01,2013-01-11 12:25:00,
2013-01-11 07:26:00,52.3,50.0,32.29,ESE,123,0.0,0.0,92,0.01,,SKC,0.02,VWS V14.01,2013-01-11 12:26:00,
2013-01-11 07:27:00,52.3,50.0,32.29,ESE,123,0.0,0.0,92,0.01,,SKC,0.02,VWS V14.01,2013-01-11 12:27:00,
2013-01-11 07:28:00,52.2,50.0,32.29,ESE,123,1.0,1.0,92,0.01,,SKC,0.02,VWS V14.01,2013-01-11 12:28:00,
2013-01-11 07:29:00,52.3,50.0,32.29,ESE,123,0.0,2.0,92,0.01,,SKC,0.02,VWS V14.01,2013-01-11 12:29:00,
2013-01-11 07:30:00,52.2,50.0,32.29,ESE,123,0.0,0.0,92,0.01,,SKC,0.02,VWS V14.01,2013-01-11 12:30:00,
2013-01-11 07:31:00,52.2,50.0,32.29,ESE,123,1.0,2.0,92,0.02,,SKC,0.03,VWS V14.01,2013-01-11 12:31:00,
2013-01-11 07:32:00,52.2,50.0,32.29,ESE,123,0.0,0.0,92,0.01,,SKC,0.02,VWS V14.01,2013-01-11 12:32:00,
2013-01-11 07:33:00,52.1,49.8,32.29,ESE,123,1.0,2.0,92,0.02,,SKC,0.03,VWS V14.01,2013-01-11 12:33:00,
2013-01-11 07:34:00,52.1,49.8,32.29,ESE,123,2.0,2.0,92,0.02,,SKC,0.03,VWS V14.01,2013-01-11 12:34:00,
2013-01-11 07:35:00,52.1,49.8,32.29,ESE,123,0.0,2.0,92,0.02,,SKC,0.03,VWS V14.01,2013-01-11 12:35:00,
2013-01-11 07:36:00,52.1,49.8,32.29,SE,124,0.0,1.0,92,0.02,,SKC,0.03,VWS V14.01,2013-01-11 12:36:00,
2013-01-11 07:37:00,52.1,49.8,32.29,SE,124,0.0,0.0,92,0.02,,SKC,0.03,VWS V14.01,2013-01-11 12:37:00,
2013-01-11 07:38:00,52.1,49.8,32.29,SE,124,1.0,2.0,92,0.02,,SKC,0.03,VWS V14.01,2013-01-11 12:38:00,
2013-01-11 07:39:00,52.1,49.8,32.29,ESE,123,0.0,1.0,92,0.02,,SKC,0.03,VWS V14.01,2013-01-11 12:39:00,
2013-01-11 07:40:00,52.1,49.8,32.29,ESE,123,0.0,1.0,92,0.02,,SKC,0.03,VWS V14.01,2013-01-11 12:40:00,
2013-01-11 07:41:00,52.1,49.8,32.29,ESE,123,0.0,1.0,92,0.02,,SKC,0.03,VWS V14.01,2013-01-11 12:41:00,
2013-01-11 07:42:00,52.1,49.8,32.29,ESE,123,0.0,0.0,92,0.02,,SKC,0.03,VWS V14.01,2013-01-11 12:42:00,
2013-01-11 07:43:00,52.2,50.0,32.29,ESE,123,0.0,0.0,92,0.02,,SKC,0.03,VWS V14.01,2013-01-11 12:43:00,
2013-01-11 07:44:00,52.2,50.0,32.29,SE,124,0.0,0.0,92,0.02,,SKC,0.03,VWS V14.01,2013-01-11 12:44:00,
2013-01-11 07:45:00,52.2,50.0,32.29,SE,124,0.0,0.0,92,0.03,,SKC,0.04,VWS V14.01,2013-01-11 12:45:00,
2013-01-11 07:46:00,52.2,50.0,32.29,ESE,123,0.0,2.0,92,0.03,,SKC,0.04,VWS V14.01,2013-01-11 12:46:00,
2013-01-11 07:47:00,52.2,50.0,32.29,ESE,123,0.0,0.0,92,0.03,,SKC,0.04,VWS V14.01,2013-01-11 12:47:00,
2013-01-11 07:48:00,52.2,50.0,32.29,ESE,123,0.0,1.0,92,0.03,,SKC,0.04,VWS V14.01,2013-01-11 12:48:00,
2013-01-11 07:49:00,52.2,50.0,32.29,ESE,123,0.0,0.0,92,0.03,,SKC,0.04,VWS V14.01,2013-01-11 12:49:00,
2013-01-11 07:50:00,52.2,50.0,32.29,ESE,123,0.0,0.0,92,0.03,,SKC,0.04,VWS V14.01,2013-01-11 12:50:00,
2013-01-11 07:51:00,52.2,50.0,32.29,ESE,123,0.0,0.0,92,0.03,,SKC,0.04,VWS V14.01,2013-01-11 12:51:00,
2013-01-11 07:52:00,52.2,50.0,32.29,ESE,123,0.0,0.0,92,0.03,,SKC,0.04,VWS V14.01,2013-01-11 12:52:00,
2013-01-11 07:53:00,52.2,50.0,32.29,ESE,123,0.0,0.0,92,0.03,,SKC,0.04,VWS V14.01,2013-01-11 12:53:00,
2013-01-11 07:54:00,52.1,49.8,32.29,ESE,123,0.0,0.0,92,0.03,,SKC,0.04,VWS V14.01,2013-01-11 12:54:00,
2013-01-11 07:55:00,52.1,49.8,32.29,ESE,123,0.0,0.0,92,0.03,,SKC,0.04,VWS V14.01,2013-01-11 12:55:00,
2013-01-11 07:56:00,52.1,49.8,32.29,ESE,123,2.0,2.0,92,0.03,,SKC,0.04,VWS V14.01,2013-01-11 12:56:00,
2013-01-11 07:57:00,52.1,49.8,32.29,ESE,123,0.0,0.0,92,0.03,,SKC,0.04,VWS V14.01,2013-01-11 12:57:00,
2013-01-11 07:58:00,52.1,49.8,32.29,ESE,123,0.0,0.0,92,0.03,,SKC,0.04,VWS V14.01,2013-01-11 12:58:00,
2013-01-11 07:59:00,52.1,50.1,32.29,ESE,123,0.0,1.0,93,0.03,,SKC,0.04,VWS V14.01,2013-01-11 12:59:00,
2013-01-11 08:00:00,52.1,50.1,32.29,ESE,123,0.0,0.0,93,0.03,,SKC,0.04,VWS V14.01,2013-01-11 13:00:00,
2013-01-11 08:01:00,52.1,50.1,32.29,ESE,123,1.0,2.0,93,0.03,,SKC,0.04,VWS V14.01,2013-01-11 13:01:00,
2013-01-11 08:02:00,52.1,50.1,32.29,ESE,123,0.0,0.0,93,0.03,,SKC,0.04,VWS V14.01,2013-01-11 13:02:00,
2013-01-11 08:03:00,52.1,50.1,32.29,ESE,123,0.0,0.0,93,0.03,,SKC,0.04,VWS V14.01,2013-01-11 13:03:00,
2013-01-11 08:04:00,52.1,50.1,32.29,ESE,123,0.0,0.0,93,0.03,,SKC,0.04,VWS V14.01,2013-01-11 13:04:00,
2013-01-11 08:05:00,52.1,50.1,32.29,ESE,123,0.0,1.0,93,0.03,,SKC,0.04,VWS V14.01,2013-01-11 13:05:00,
2013-01-11 08:06:00,52.0,50.0,32.29,ESE,123,0.0,1.0,93,0.03,,SKC,0.04,VWS V14.01,2013-01-11 13:06:00,
2013-01-11 08:07:00,52.1,50.1,32.29,ESE,123,0.0,1.0,93,0.03,,SKC,0.04,VWS V14.01,2013-01-11 13:07:00,
2013-01-11 08:08:00,52.0,50.0,32.29,ESE,123,0.0,1.0,93,0.03,,SKC,0.04,VWS V14.01,2013-01-11 13:08:00,
2013-01-11 08:09:00,52.0,50.0,32.29,ESE,123,0.0,0.0,93,0.03,,SKC,0.04,VWS V14.01,2013-01-11 13:09:00,
2013-01-11 08:10:00,52.0,50.0,32.29,ESE,123,0.0,0.0,93,0.03,,SKC,0.04,VWS V14.01,2013-01-11 13:10:00,
2013-01-11 08:11:00,52.0,50.0,32.29,ESE,123,0.0,0.0,93,0.03,,SKC,0.04,VWS V14.01,2013-01-11 13:11:00,
2013-01-11 08:12:00,52.0,50.0,32.29,ESE,123,0.0,0.0,93,0.03,,SKC,0.04,VWS V14.01,2013-01-11 13:12:00,
2013-01-11 08:13:00,52.0,50.0,32.29,ESE,123,0.0,0.0,93,0.03,,SKC,0.04,VWS V14.01,2013-01-11 13:13:00,
2013-01-11 08:14:00,52.0,50.0,32.29,ESE,123,1.0,2.0,93,0.04,,SKC,0.05,VWS V14.01,2013-01-11 13:14:00,
2013-01-11 08:15:00,51.9,49.9,32.29,ESE,123,0.0,2.0,93,0.04,,SKC,0.05,VWS V14.01,2013-01-11 13:15:00,
2013-01-11 08:16:00,51.9,49.9,32.29,ESE,123,0.0,1.0,93,0.04,,SKC,0.05,VWS V14.01,2013-01-11 13:16:00,
2013-01-11 08:17:00,51.9,49.9,32.29,ESE,123,0.0,2.0,93,0.04,,SKC,0.05,VWS V14.01,2013-01-11 13:17:00,
2013-01-11 08:18:00,51.9,49.9,32.29,ESE,123,0.0,0.0,93,0.04,,SKC,0.05,VWS V14.01,2013-01-11 13:18:00,
2013-01-11 08:19:00,51.9,49.9,32.29,ESE,123,0.0,0.0,93,0.04,,SKC,0.05,VWS V14.01,2013-01-11 13:19:00,
2013-01-11 08:20:00,51.9,49.9,32.29,ESE,123,0.0,0.0,93,0.04,,SKC,0.05,VWS V14.01,2013-01-11 13:20:00,
2013-01-11 08:21:00,51.9,49.9,32.29,ESE,123,0.0,0.0,93,0.04,,SKC,0.05,VWS V14.01,2013-01-11 13:21:00,
2013-01-11 08:22:00,51.9,49.9,32.29,ESE,123,0.0,0.0,93,0.04,,SKC,0.05,VWS V14.01,2013-01-11 13:22:00,
2013-01-11 08:23:00,51.9,49.9,32.29,ESE,123,0.0,1.0,93,0.03,,SKC,0.05,VWS V14.01,2013-01-11 13:23:00,
2013-01-11 08:24:00,51.9,49.9,32.29,ESE,123,0.0,0.0,93,0.03,,SKC,0.05,VWS V14.01,2013-01-11 13:24:00,
2013-01-11 08:25:00,51.9,49.9,32.29,ESE,123,0.0,0.0,93,0.03,,SKC,0.05,VWS V14.01,2013-01-11 13:25:00,
2013-01-11 08:26:00,51.9,49.9,32.29,ESE,123,0.0,0.0,93,0.03,,SKC,0.05,VWS V14.01,2013-01-11 13:26:00,
2013-01-11 08:27:00,51.9,49.9,32.29,ESE,123,0.0,0.0,93,0.03,,SKC,0.05,VWS V14.01,2013-01-11 13:27:00,
2013-01-11 08:28:00,51.9,49.9,32.29,ESE,123,0.0,0.0,93,0.03,,SKC,0.05,VWS V14.01,2013-01-11 13:28:00,
2013-01-11 08:29:00,51.9,49.9,32.29,ESE,123,0.0,0.0,93,0.03,,SKC,0.05,VWS V14.01,2013-01-11 13:29:00,
2013-01-11 08:30:00,51.9,49.9,32.29,ESE,123,0.0,0.0,93,0.03,,SKC,0.05,VWS V14.01,2013-01-11 13:30:00,
2013-01-11 08:31:00,51.9,49.9,32.29,ESE,123,0.0,0.0,93,0.03,,SKC,0.05,VWS V14.01,2013-01-11 13:31:00,
2013-01-11 08:32:00,51.9,49.9,32.29,ESE,123,0.0,0.0,93,0.03,,SKC,0.05,VWS V14.01,2013-01-11 13:32:00,
2013-01-11 08:33:00,51.9,49.9,32.29,ESE,123,0.0,0.0,93,0.02,,SKC,0.05,VWS V14.01,2013-01-11 13:33:00,
2013-01-11 08:34:00,51.9,49.9,32.29,ESE,123,0.0,0.0,93,0.03,,SKC,0.06,VWS V14.01,2013-01-11 13:34:00,
2013-01-11 08:35:00,51.9,49.9,32.29,ESE,123,0.0,1.0,93,0.03,,SKC,0.06,VWS V14.01,2013-01-11 13:35:00,
2013-01-11 08:36:00,51.9,49.9,32.29,ESE,123,0.0,2.0,93,0.03,,SKC,0.06,VWS V14.01,2013-01-11 13:36:00,
2013-01-11 08:37:00,51.9,49.9,32.29,ESE,123,1.0,1.0,93,0.03,,SKC,0.06,VWS V14.01,2013-01-11 13:37:00,
2013-01-11 08:38:00,51.9,49.9,32.29,ESE,123,0.0,0.0,93,0.03,,SKC,0.06,VWS V14.01,2013-01-11 13:38:00,
2013-01-11 08:39:00,51.9,49.9,32.29,ESE,123,0.0,1.0,93,0.03,,SKC,0.06,VWS V14.01,2013-01-11 13:39:00,
2013-01-11 08:40:00,51.9,49.9,32.29,ESE,123,0.0,0.0,93,0.03,,SKC,0.06,VWS V14.01,2013-01-11 13:40:00,
2013-01-11 08:41:00,51.9,49.9,32.29,ESE,123,0.0,0.0,93,0.03,,SKC,0.06,VWS V14.01,2013-01-11 13:41:00,
2013-01-11 08:42:00,51.9,49.9,32.29,ESE,123,0.0,0.0,93,0.03,,SKC,0.06,VWS V14.01,2013-01-11 13:42:00,
2013-01-11 08:43:00,51.9,49.9,32.29,ESE,123,0.0,0.0,93,0.03,,SKC,0.06,VWS V14.01,2013-01-11 13:43:00,
2013-01-11 08:44:00,51.9,49.9,32.29,ESE,123,1.0,2.0,93,0.03,,SKC,0.06,VWS V14.01,2013-01-11 13:44:00,
2013-01-11 08:45:00,51.9,49.9,32.29,ESE,123,0.0,1.0,93,0.03,,SKC,0.06,VWS V14.01,2013-01-11 13:45:00,
2013-01-11 08:46:00,51.9,49.9,32.29,ESE,123,0.0,0.0,93,0.03,,SKC,0.07,VWS V14.01,2013-01-11 13:46:00,
2013-01-11 08:47:00,51.9,49.9,32.29,ESE,123,0.0,1.0,93,0.03,,SKC,0.06,VWS V14.01,2013-01-11 13:47:00,
2013-01-11 08:48:00,52.0,50.0,32.29,ESE,123,0.0,0.0,93,0.03,,SKC,0.07,VWS V14.01,2013-01-11 13:48:00,
2013-01-11 08:49:00,52.0,50.0,32.29,ESE,123,1.0,1.0,93,0.03,,SKC,0.07,VWS V14.01,2013-01-11 13:49:00,
2013-01-11 08:50:00,52.0,50.0,32.29,ESE,123,0.0,2.0,93,0.03,,SKC,0.07,VWS V14.01,2013-01-11 13:50:00,
2013-01-11 08:51:00,52.0,50.0,32.29,ESE,123,0.0,0.0,93,0.03,,SKC,0.07,VWS V14.01,2013-01-11 13:51:00,
2013-01-11 08:52:00,52.0,50.0,32.29,ESE,123,0.0,2.0,93,0.03,,SKC,0.07,VWS V14.01,2013-01-11 13:52:00,
2013-01-11 08:53:00,52.0,50.0,32.29,ESE,123,1.0,1.0,93,0.03,,SKC,0.07,VWS V14.01,2013-01-11 13:53:00,
2013-01-11 08:54:00,52.1,50.1,32.29,ESE,123,0.0,1.0,93,0.03,,SKC,0.07,VWS V14.01,2013-01-11 13:54:00,
2013-01-11 08:55:00,52.1,50.1,32.29,ESE,123,0.0,1.0,93,0.03,,SKC,0.07,VWS V14.01,2013-01-11 13:55:00,
2013-01-11 08:56:00,52.1,50.4,32.29,ESE,123,0.0,2.0,94,0.03,,SKC,0.07,VWS V14.01,2013-01-11 13:56:00,
2013-01-11 08:57:00,52.1,50.1,32.29,ESE,123,0.0,1.0,93,0.03,,SKC,0.07,VWS V14.01,2013-01-11 13:57:00,
2013-01-11 08:58:00,52.1,50.4,32.29,ESE,123,0.0,4.0,94,0.03,,SKC,0.07,VWS V14.01,2013-01-11 13:58:00,
2013-01-11 08:59:00,52.1,50.4,32.29,ESE,123,0.0,0.0,94,0.03,,SKC,0.07,VWS V14.01,2013-01-11 13:59:00,
2013-01-11 09:00:00,52.1,50.4,32.29,ESE,123,1.0,2.0,94,0.03,,SKC,0.07,VWS V14.01,2013-01-11 14:00:00,
2013-01-11 09:01:00,52.1,50.4,32.29,ESE,123,0.0,2.0,94,0.03,,SKC,0.07,VWS V14.01,2013-01-11 14:01:00,
2013-01-11 09:02:00,52.1,50.4,32.29,ESE,123,2.0,2.0,94,0.03,,SKC,0.07,VWS V14.01,2013-01-11 14:02:00,
2013-01-11 09:03:00,52.2,50.5,32.29,ESE,122,0.0,0.0,94,0.03,,SKC,0.07,VWS V14.01,2013-01-11 14:03:00,
2013-01-11 09:04:00,52.2,50.5,32.29,ESE,122,1.0,1.0,94,0.03,,SKC,0.07,VWS V14.01,2013-01-11 14:04:00,
2013-01-11 09:05:00,52.2,50.5,32.29,ESE,123,0.0,1.0,94,0.03,,SKC,0.07,VWS V14.01,2013-01-11 14:05:00,
2013-01-11 09:06:00,52.2,50.5,32.29,ESE,123,0.0,0.0,94,0.03,,SKC,0.07,VWS V14.01,2013-01-11 14:06:00,
2013-01-11 09:07:00,52.2,50.5,32.29,ESE,123,0.0,1.0,94,0.03,,SKC,0.07,VWS V14.01,2013-01-11 14:07:00,
2013-01-11 09:08:00,52.2,50.5,32.29,ESE,123,0.0,0.0,94,0.03,,SKC,0.07,VWS V14.01,2013-01-11 14:08:00,
2013-01-11 09:09:00,52.2,50.5,32.29,ESE,123,0.0,0.0,94,0.03,,SKC,0.07,VWS V14.01,2013-01-11 14:09:00,
2013-01-11 09:10:00,52.2,50.5,32.29,ESE,122,0.0,0.0,94,0.03,,SKC,0.07,VWS V14.01,2013-01-11 14:10:00,
2013-01-11 09:11:00,52.2,50.5,32.29,ESE,123,0.0,0.0,94,0.03,,SKC,0.07,VWS V14.01,2013-01-11 14:11:00,
2013-01-11 09:12:00,52.2,50.5,32.29,ESE,122,0.0,0.0,94,0.03,,SKC,0.07,VWS V14.01,2013-01-11 14:12:00,
2013-01-11 09:13:00,52.3,50.6,32.29,ESE,123,0.0,0.0,94,0.03,,SKC,0.07,VWS V14.01,2013-01-11 14:13:00,
2013-01-11 09:14:00,52.3,50.6,32.29,ESE,123,0.0,0.0,94,0.03,,SKC,0.07,VWS V14.01,2013-01-11 14:14:00,
2013-01-11 09:15:00,52.3,50.6,32.29,ESE,123,0.0,0.0,94,0.02,,SKC,0.07,VWS V14.01,2013-01-11 14:15:00,
2013-01-11 09:16:00,52.3,50.6,32.29,ESE,122,0.0,0.0,94,0.02,,SKC,0.07,VWS V14.01,2013-01-11 14:16:00,
2013-01-11 09:17:00,52.3,50.6,32.29,ESE,122,0.0,0.0,94,0.02,,SKC,0.07,VWS V14.01,2013-01-11 14:17:00,
2013-01-11 09:18:00,52.4,50.7,32.29,ESE,123,0.0,0.0,94,0.02,,SKC,0.07,VWS V14.01,2013-01-11 14:18:00,
2013-01-11 09:19:00,52.4,50.7,32.29,ESE,123,0.0,0.0,94,0.02,,SKC,0.07,VWS V14.01,2013-01-11 14:19:00,
2013-01-11 09:20:00,52.4,50.7,32.29,ESE,123,0.0,0.0,94,0.02,,SKC,0.07,VWS V14.01,2013-01-11 14:20:00,
2013-01-11 09:21:00,52.4,50.7,32.29,ESE,123,0.0,0.0,94,0.02,,SKC,0.07,VWS V14.01,2013-01-11 14:21:00,
2013-01-11 09:22:00,52.4,50.7,32.29,ESE,123,0.0,0.0,94,0.02,,SKC,0.07,VWS V14.01,2013-01-11 14:22:00,
2013-01-11 09:23:00,52.5,50.8,32.29,ESE,123,0.0,0.0,94,0.02,,SKC,0.07,VWS V14.01,2013-01-11 14:23:00,
2013-01-11 09:24:00,52.5,50.8,32.29,ESE,123,0.0,0.0,94,0.02,,SKC,0.07,VWS V14.01,2013-01-11 14:24:00,
2013-01-11 09:25:00,52.6,50.9,32.29,ESE,123,0.0,0.0,94,0.02,,SKC,0.07,VWS V14.01,2013-01-11 14:25:00,
2013-01-11 09:26:00,52.6,50.9,32.29,ESE,123,0.0,1.0,94,0.02,,SKC,0.07,VWS V14.01,2013-01-11 14:26:00,
2013-01-11 09:27:00,52.6,50.9,32.29,ESE,123,0.0,0.0,94,0.02,,SKC,0.07,VWS V14.01,2013-01-11 14:27:00,
2013-01-11 09:28:00,52.7,51.0,32.29,ESE,122,2.0,4.0,94,0.02,,SKC,0.07,VWS V14.01,2013-01-11 14:28:00,
2013-01-11 09:29:00,52.7,51.0,32.29,ESE,122,0.0,2.0,94,0.02,,SKC,0.07,VWS V14.01,2013-01-11 14:29:00,
2013-01-11 09:30:00,52.7,51.0,32.29,ESE,123,0.0,0.0,94,0.02,,SKC,0.07,VWS V14.01,2013-01-11 14:30:00,
2013-01-11 09:31:00,52.8,51.1,32.29,ESE,122,0.0,0.0,94,0.02,,SKC,0.07,VWS V14.01,2013-01-11 14:31:00,
2013-01-11 09:32:00,52.7,51.0,32.29,ESE,123,0.0,0.0,94,0.02,,SKC,0.07,VWS V14.01,2013-01-11 14:32:00,
2013-01-11 09:33:00,52.8,51.1,32.29,SE,125,0.0,2.0,94,0.02,,SKC,0.07,VWS V14.01,2013-01-11 14:33:00,
2013-01-11 09:34:00,52.9,51.2,32.29,SE,125,0.0,0.0,94,0.02,,SKC,0.07,VWS V14.01,2013-01-11 14:34:00,
2013-01-11 09:35:00,52.9,51.2,32.29,SE,125,0.0,0.0,94,0.01,,SKC,0.07,VWS V14.01,2013-01-11 14:35:00,
2013-01-11 09:36:00,53.0,51.3,32.29,SE,124,2.0,2.0,94,0.01,,SKC,0.07,VWS V14.01,2013-01-11 14:36:00,
2013-01-11 09:37:00,52.9,51.2,32.29,SE,125,0.0,0.0,94,0.01,,SKC,0.07,VWS V14.01,2013-01-11 14:37:00,
2013-01-11 09:38:00,53.1,51.4,32.29,NW,316,3.0,5.0,94,0.01,,SKC,0.07,VWS V14.01,2013-01-11 14:38:00,
2013-01-11 09:39:00,53.3,51.6,32.29,WSW,250,2.0,5.0,94,0.01,,SKC,0.07,VWS V14.01,2013-01-11 14:39:00,
2013-01-11 09:40:00,53.5,51.8,32.29,WSW,250,2.0,4.0,94,0.01,,SKC,0.07,VWS V14.01,2013-01-11 14:40:00,
2013-01-11 09:41:00,53.6,51.9,32.29,WSW,250,2.0,2.0,94,0.01,,SKC,0.07,VWS V14.01,2013-01-11 14:41:00,
2013-01-11 09:42:00,53.4,51.7,32.29,WSW,250,3.0,4.0,94,0.01,,SKC,0.07,VWS V14.01,2013-01-11 14:42:00,
2013-01-11 09:43:00,53.8,52.1,32.29,WNW,299,2.0,3.0,94,0.01,,SKC,0.07,VWS V14.01,2013-01-11 14:43:00,
2013-01-11 09:44:00,53.9,52.2,32.29,WNW,299,1.0,3.0,94,0.01,,SKC,0.07,VWS V14.01,2013-01-11 14:44:00,
2013-01-11 09:45:00,53.9,52.2,32.29,WNW,299,0.0,1.0,94,0.01,,SKC,0.07,VWS V14.01,2013-01-11 14:45:00,
2013-01-11 09:46:00,54.0,52.3,32.29,WNW,299,1.0,1.0,94,0.01,,SKC,0.07,VWS V14.01,2013-01-11 14:46:00,
2013-01-11 09:47:00,53.9,52.2,32.29,WNW,299,0.0,1.0,94,0.01,,SKC,0.07,VWS V14.01,2013-01-11 14:47:00,
2013-01-11 09:48:00,54.0,52.3,32.29,WNW,299,0.0,0.0,94,0.00,,SKC,0.07,VWS V14.01,2013-01-11 14:48:00,
2013-01-11 09:49:00,54.1,52.4,32.29,WNW,299,0.0,0.0,94,0.00,,SKC,0.07,VWS V14.01,2013-01-11 14:49:00,
2013-01-11 09:50:00,54.2,52.5,32.29,WNW,299,0.0,2.0,94,0.00,,SKC,0.07,VWS V14.01,2013-01-11 14:50:00,
2013-01-11 09:51:00,54.2,52.5,32.29,WNW,299,0.0,1.0,94,0.00,,SKC,0.07,VWS V14.01,2013-01-11 14:51:00,
2013-01-11 09:52:00,54.1,52.4,32.29,WNW,299,0.0,2.0,94,0.00,,SKC,0.07,VWS V14.01,2013-01-11 14:52:00,
2013-01-11 09:53:00,54.3,52.6,32.29,WNW,299,0.0,1.0,94,0.00,,SKC,0.07,VWS V14.01,2013-01-11 14:53:00,
2013-01-11 09:54:00,54.4,52.7,32.29,WNW,299,0.0,1.0,94,0.00,,SKC,0.07,VWS V14.01,2013-01-11 14:54:00,
2013-01-11 09:55:00,54.4,52.7,32.29,WNW,299,2.0,3.0,94,0.00,,SKC,0.07,VWS V14.01,2013-01-11 14:55:00,
2013-01-11 09:56:00,54.5,52.8,32.29,WNW,299,0.0,2.0,94,0.00,,SKC,0.07,VWS V14.01,2013-01-11 14:56:00,
2013-01-11 09:57:00,54.4,52.7,32.29,WNW,299,3.0,3.0,94,0.00,,SKC,0.07,VWS V14.01,2013-01-11 14:57:00,
2013-01-11 09:58:00,54.6,52.9,32.29,WNW,299,0.0,0.0,94,0.00,,SKC,0.07,VWS V14.01,2013-01-11 14:58:00,
2013-01-11 09:59:00,54.6,52.9,32.29,WNW,299,0.0,0.0,94,0.00,,SKC,0.07,VWS V14.01,2013-01-11 14:59:00,
2013-01-11 10:00:00,54.6,52.9,32.29,WNW,299,0.0,1.0,94,0.00,,SKC,0.07,VWS V14.01,2013-01-11 15:00:00,
2013-01-11 10:01:00,54.7,53.0,32.29,WNW,299,0.0,0.0,94,0.00,,SKC,0.07,VWS V14.01,2013-01-11 15:01:00,
2013-01-11 10:02:00,54.6,52.9,32.29,WNW,299,0.0,1.0,94,0.00,,SKC,0.07,VWS V14.01,2013-01-11 15:02:00,
2013-01-11 10:03:00,54.8,53.1,32.29,WNW,299,0.0,0.0,94,0.00,,SKC,0.07,VWS V14.01,2013-01-11 15:03:00,
2013-01-11 10:04:00,54.9,53.2,32.29,WNW,299,0.0,0.0,94,0.00,,SKC,0.07,VWS V14.01,2013-01-11 15:04:00,
2013-01-11 10:05:00,54.9,53.2,32.29,WNW,299,0.0,1.0,94,0.00,,SKC,0.07,VWS V14.01,2013-01-11 15:05:00,
2013-01-11 10:06:00,55.0,53.3,32.29,NNE,22,6.0,6.0,94,0.00,,SKC,0.07,VWS V14.01,2013-01-11 15:06:00,
2013-01-11 10:07:00,54.9,53.2,32.29,WNW,299,0.0,1.0,94,0.00,,SKC,0.07,VWS V14.01,2013-01-11 15:07:00,
2013-01-11 10:08:00,55.2,53.5,32.29,North,350,1.0,5.0,94,0.00,,SKC,0.07,VWS V14.01,2013-01-11 15:08:00,
2013-01-11 10:09:00,55.3,53.6,32.29,North,350,2.0,2.0,94,0.00,,SKC,0.07,VWS V14.01,2013-01-11 15:09:00,
2013-01-11 10:10:00,55.4,53.7,32.29,North,350,0.0,3.0,94,0.00,,SKC,0.07,VWS V14.01,2013-01-11 15:10:00,
2013-01-11 10:11:00,55.5,53.8,32.29,North,350,1.0,1.0,94,0.00,,SKC,0.07,VWS V14.01,2013-01-11 15:11:00,
2013-01-11 10:12:00,55.4,53.7,32.29,North,350,1.0,3.0,94,0.00,,SKC,0.07,VWS V14.01,2013-01-11 15:12:00,
2013-01-11 10:13:00,55.6,53.6,32.29,North,350,0.0,2.0,93,0.00,,SKC,0.07,VWS V14.01,2013-01-11 15:13:00,
2013-01-11 10:14:00,55.7,53.7,32.29,NNW,338,3.0,4.0,93,0.00,,SKC,0.07,VWS V14.01,2013-01-11 15:14:00,
2013-01-11 10:15:00,55.8,53.8,32.29,NNW,338,0.0,3.0,93,0.00,,SKC,0.07,VWS V14.01,2013-01-11 15:15:00,
2013-01-11 10:16:00,55.9,53.9,32.29,NNW,339,0.0,3.0,93,0.00,,SKC,0.07,VWS V14.01,2013-01-11 15:16:00,
2013-01-11 10:17:00,55.8,53.8,32.29,NNW,338,1.0,3.0,93,0.00,,SKC,0.07,VWS V14.01,2013-01-11 15:17:00,
2013-01-11 10:18:00,56.2,53.9,32.29,NNW,338,2.0,4.0,92,0.00,,SKC,0.07,VWS V14.01,2013-01-11 15:18:00,
2013-01-11 10:19:00,56.3,53.7,32.29,NNW,338,0.0,2.0,91,0.00,,SKC,0.07,VWS V14.01,2013-01-11 15:19:00,
2013-01-11 10:20:00,56.3,53.7,32.29,NNW,338,0.0,1.0,91,0.00,,SKC,0.07,VWS V14.01,2013-01-11 15:20:00,
2013-01-11 10:21:00,56.4,53.8,32.29,NNW,338,1.0,1.0,91,0.00,,SKC,0.07,VWS V14.01,2013-01-11 15:21:00,
2013-01-11 10:22:00,56.3,53.7,32.29,NNW,338,0.0,1.0,91,0.00,,SKC,0.07,VWS V14.01,2013-01-11 15:22:00,
2013-01-11 10:23:00,56.4,53.8,32.29,NNW,338,3.0,3.0,91,0.00,,SKC,0.07,VWS V14.01,2013-01-11 15:23:00,
2013-01-11 10:24:00,56.4,53.8,32.29,South,189,4.0,5.0,91,0.00,,SKC,0.07,VWS V14.01,2013-01-11 15:24:00,
2013-01-11 10:25:00,56.6,53.7,32.29,South,187,3.0,8.0,90,0.00,,SKC,0.07,VWS V14.01,2013-01-11 15:25:00,
2013-01-11 10:26:00,56.7,53.8,32.29,WNW,288,3.0,5.0,90,0.00,,SKC,0.07,VWS V14.01,2013-01-11 15:26:00,
2013-01-11 10:27:00,56.5,53.9,32.29,SSW,212,4.0,8.0,91,0.00,,SKC,0.07,VWS V14.01,2013-01-11 15:27:00,
2013-01-11 10:28:00,57.0,53.8,32.29,NNW,339,5.0,5.0,89,0.00,,SKC,0.07,VWS V14.01,2013-01-11 15:28:00,
2013-01-11 10:29:00,57.0,53.8,32.29,NNW,348,3.0,5.0,89,0.00,,SKC,0.07,VWS V14.01,2013-01-11 15:29:00,
2013-01-11 10:30:00,57.0,53.8,32.29,North,355,2.0,4.0,89,0.00,,SKC,0.07,VWS V14.01,2013-01-11 15:30:00,
2013-01-11 10:31:00,57.0,53.8,32.29,North,355,0.0,2.0,89,0.00,,SKC,0.07,VWS V14.01,2013-01-11 15:31:00,
2013-01-11 10:32:00,57.0,53.8,32.29,North,355,0.0,4.0,89,0.00,,SKC,0.07,VWS V14.01,2013-01-11 15:32:00,
2013-01-11 10:33:00,57.1,53.9,32.29,North,350,1.0,5.0,89,0.00,,SKC,0.07,VWS V14.01,2013-01-11 15:33:00,
2013-01-11 10:34:00,57.1,53.6,32.29,North,351,1.0,4.0,88,0.00,,SKC,0.07,VWS V14.01,2013-01-11 15:34:00,
2013-01-11 10:35:00,57.1,53.6,32.29,North,351,0.0,2.0,88,0.00,,SKC,0.07,VWS V14.01,2013-01-11 15:35:00,
2013-01-11 10:36:00,57.2,53.7,32.29,North,351,2.0,2.0,88,0.00,,SKC,0.07,VWS V14.01,2013-01-11 15:36:00,
2013-01-11 10:37:00,57.1,53.6,32.29,North,351,0.0,2.0,88,0.00,,SKC,0.07,VWS V14.01,2013-01-11 15:37:00,
2013-01-11 10:38:00,57.2,53.7,32.29,NE,44,0.0,3.0,88,0.00,,SKC,0.07,VWS V14.01,2013-01-11 15:38:00,
2013-01-11 10:39:00,57.2,54.0,32.29,NE,44,0.0,1.0,89,0.00,,SKC,0.07,VWS V14.01,2013-01-11 15:39:00,
2013-01-11 10:40:00,57.2,54.0,32.29,NE,44,0.0,0.0,89,0.00,,SKC,0.07,VWS V14.01,2013-01-11 15:40:00,
2013-01-11 10:41:00,57.2,54.0,32.29,NE,44,1.0,1.0,89,0.00,,SKC,0.07,VWS V14.01,2013-01-11 15:41:00,
2013-01-11 10:42:00,57.2,54.0,32.29,NE,44,0.0,0.0,89,0.00,,SKC,0.07,VWS V14.01,2013-01-11 15:42:00,
2013-01-11 10:43:00,57.1,53.9,32.29,NE,44,3.0,4.0,89,0.00,,SKC,0.07,VWS V14.01,2013-01-11 15:43:00,
2013-01-11 10:44:00,57.1,53.9,32.29,NE,44,2.0,3.0,89,0.00,,SKC,0.07,VWS V14.01,2013-01-11 15:44:00,
2013-01-11 10:45:00,57.0,53.8,32.29,NE,44,4.0,6.0,89,0.00,,SKC,0.07,VWS V14.01,2013-01-11 15:45:00,
2013-01-11 10:46:00,57.0,53.8,32.29,NE,44,1.0,5.0,89,0.00,,SKC,0.07,VWS V14.01,2013-01-11 15:46:00,
2013-01-11 10:47:00,57.0,53.8,32.29,NE,44,4.0,4.0,89,0.00,,SKC,0.07,VWS V14.01,2013-01-11 15:47:00,
2013-01-11 10:48:00,57.0,53.8,32.29,NE,44,0.0,0.0,89,0.00,,SKC,0.07,VWS V14.01,2013-01-11 15:48:00,
2013-01-11 10:49:00,57.0,53.8,32.29,NE,44,0.0,1.0,89,0.00,,SKC,0.07,VWS V14.01,2013-01-11 15:49:00,
2013-01-11 10:50:00,57.0,53.8,32.29,NE,44,1.0,1.0,89,0.00,,SKC,0.07,VWS V14.01,2013-01-11 15:50:00,
2013-01-11 10:51:00,57.0,54.1,32.29,NE,44,1.0,3.0,90,0.00,,SKC,0.07,VWS V14.01,2013-01-11 15:51:00,
2013-01-11 10:52:00,57.0,53.8,32.29,NE,44,0.0,0.0,89,0.00,,SKC,0.07,VWS V14.01,2013-01-11 15:52:00,
2013-01-11 10:53:00,57.0,54.1,32.29,NE,44,2.0,3.0,90,0.00,,SKC,0.07,VWS V14.01,2013-01-11 15:53:00,
2013-01-11 10:54:00,57.1,54.2,32.29,NE,44,0.0,2.0,90,0.00,,SKC,0.07,VWS V14.01,2013-01-11 15:54:00,
2013-01-11 10:55:00,57.1,54.2,32.29,NE,44,3.0,3.0,90,0.00,,SKC,0.07,VWS V14.01,2013-01-11 15:55:00,
2013-01-11 10:56:00,57.2,54.3,32.29,NE,44,1.0,3.0,90,0.00,,SKC,0.07,VWS V14.01,2013-01-11 15:56:00,
2013-01-11 10:57:00,57.1,54.2,32.29,NE,44,2.0,2.0,90,0.00,,SKC,0.07,VWS V14.01,2013-01-11 15:57:00,
2013-01-11 10:58:00,57.5,54.3,32.29,NE,44,3.0,4.0,89,0.00,,SKC,0.07,VWS V14.01,2013-01-11 15:58:00,
2013-01-11 10:59:00,57.6,54.4,32.29,NNW,348,4.0,6.0,89,0.00,,SKC,0.07,VWS V14.01,2013-01-11 15:59:00,
2013-01-11 11:00:00,57.9,54.7,32.29,North,10,4.0,6.0,89,0.00,,SKC,0.07,VWS V14.01,2013-01-11 16:00:00,
2013-01-11 11:01:00,57.7,54.5,32.29,North,10,6.0,6.0,89,0.00,,SKC,0.07,VWS V14.01,2013-01-11 16:01:00,
2013-01-11 11:02:00,58.4,54.9,32.29,North,360,6.0,7.0,88,0.00,,SKC,0.07,VWS V14.01,2013-01-11 16:02:00,
2013-01-11 11:03:00,58.6,55.1,32.29,NNE,15,2.0,7.0,88,0.00,,SKC,0.07,VWS V14.01,2013-01-11 16:03:00,
2013-01-11 11:04:00,58.8,54.9,32.29,North,9,5.0,5.0,87,0.00,,SKC,0.07,VWS V14.01,2013-01-11 16:04:00,
2013-01-11 11:05:00,58.9,55.0,32.29,North,10,7.0,7.0,87,0.00,,SKC,0.07,VWS V14.01,2013-01-11 16:05:00,
2013-01-11 11:06:00,58.8,55.0,32.29,North,9,5.0,5.0,87,0.00,,SKC,0.07,VWS V14.01,2013-01-11 16:06:00,
2013-01-11 11:07:00,59.0,55.8,32.29,North,5,1.0,3.0,89,0.00,,SKC,0.07,VWS V14.01,2013-01-11 16:07:00,
2013-01-11 11:08:00,59.0,55.1,32.29,NNE,22,2.0,3.0,87,0.00,,SKC,0.07,VWS V14.01,2013-01-11 16:08:00,
2013-01-11 11:09:00,59.0,55.1,32.29,NNE,25,2.0,5.0,87,0.00,,SKC,0.07,VWS V14.01,2013-01-11 16:09:00,
2013-01-11 11:10:00,59.0,55.1,32.29,NNE,24,0.0,3.0,87,0.00,,SKC,0.07,VWS V14.01,2013-01-11 16:10:00,
2013-01-11 11:11:00,59.0,55.1,32.29,NNE,24,0.0,3.0,87,0.00,,SKC,0.07,VWS V14.01,2013-01-11 16:11:00,
2013-01-11 11:12:00,59.0,55.1,32.29,NNE,24,4.0,4.0,87,0.00,,SKC,0.07,VWS V14.01,2013-01-11 16:12:00,
2013-01-11 11:13:00,59.0,55.1,32.29,North,360,6.0,6.0,87,0.00,,SKC,0.07,VWS V14.01,2013-01-11 16:13:00,
2013-01-11 11:14:00,59.0,55.1,32.29,North,355,5.0,7.0,87,0.00,,SKC,0.07,VWS V14.01,2013-01-11 16:14:00,
2013-01-11 11:15:00,59.0,54.8,32.29,North,355,0.0,5.0,86,0.00,,SKC,0.07,VWS V14.01,2013-01-11 16:15:00,
2013-01-11 11:16:00,59.0,54.8,32.29,North,355,0.0,5.0,86,0.00,,SKC,0.07,VWS V14.01,2013-01-11 16:16:00,
2013-01-11 11:17:00,59.0,54.5,32.29,North,355,2.0,3.0,85,0.00,,SKC,0.07,VWS V14.01,2013-01-11 16:17:00,
2013-01-11 11:18:00,59.0,54.5,32.29,North,355,0.0,3.0,85,0.00,,SKC,0.07,VWS V14.01,2013-01-11 16:18:00,
2013-01-11 11:19:00,59.0,54.5,32.29,North,355,1.0,1.0,85,0.00,,SKC,0.07,VWS V14.01,2013-01-11 16:19:00,
2013-01-11 11:20:00,59.0,54.5,32.29,North,355,1.0,3.0,85,0.00,,SKC,0.07,VWS V14.01,2013-01-11 16:20:00,
2013-01-11 11:21:00,59.0,54.5,32.29,North,355,0.0,3.0,85,0.00,,SKC,0.07,VWS V14.01,2013-01-11 16:21:00,
2013-01-11 11:22:00,59.0,54.5,32.29,North,355,0.0,1.0,85,0.00,,SKC,0.07,VWS V14.01,2013-01-11 16:22:00,
2013-01-11 11:23:00,59.0,54.8,32.29,North,355,2.0,3.0,86,0.00,,SKC,0.07,VWS V14.01,2013-01-11 16:23:00,
2013-01-11 11:24:00,59.0,54.5,32.29,North,355,4.0,4.0,85,0.00,,SKC,0.07,VWS V14.01,2013-01-11 16:24:00,
2013-01-11 11:25:00,59.0,54.8,32.29,NW,323,1.0,6.0,86,0.00,,SKC,0.07,VWS V14.01,2013-01-11 16:25:00,
2013-01-11 11:26:00,59.0,54.5,32.29,WNW,296,5.0,6.0,85,0.00,,SKC,0.07,VWS V14.01,2013-01-11 16:26:00,
2013-01-11 11:27:00,59.0,54.8,32.29,NNW,342,1.0,6.0,86,0.00,,SKC,0.07,VWS V14.01,2013-01-11 16:27:00,
2013-01-11 11:28:00,59.0,54.8,32.29,NNW,342,0.0,2.0,86,0.00,,SKC,0.07,VWS V14.01,2013-01-11 16:28:00,
2013-01-11 11:29:00,59.0,54.8,32.29,NNW,344,6.0,6.0,86,0.00,,SKC,0.07,VWS V14.01,2013-01-11 16:29:00,
2013-01-11 11:30:00,59.0,54.8,32.29,NNW,343,1.0,6.0,86,0.00,,SKC,0.07,VWS V14.01,2013-01-11 16:30:00,
2013-01-11 11:31:00,59.0,54.8,32.29,NNW,344,4.0,6.0,86,0.00,,SKC,0.07,VWS V14.01,2013-01-11 16:31:00,
2013-01-11 11:32:00,58.8,54.6,32.29,NNW,342,1.0,2.0,86,0.00,,SKC,0.07,VWS V14.01,2013-01-11 16:32:00,
2013-01-11 11:33:00,58.7,54.5,32.29,North,11,4.0,5.0,86,0.00,,SKC,0.07,VWS V14.01,2013-01-11 16:33:00,
2013-01-11 11:34:00,58.6,54.8,32.29,North,10,2.0,6.0,87,0.00,,SKC,0.07,VWS V14.01,2013-01-11 16:34:00,
2013-01-11 11:35:00,58.4,54.5,32.29,North,10,0.0,3.0,87,0.00,,SKC,0.07,VWS V14.01,2013-01-11 16:35:00,
2013-01-11 11:36:00,58.5,54.7,32.29,North,10,2.0,2.0,87,0.00,,SKC,0.07,VWS V14.01,2013-01-11 16:36:00,
2013-01-11 11:37:00,58.4,54.9,32.29,North,10,0.0,2.0,88,0.01,,SKC,0.08,VWS V14.01,2013-01-11 16:37:00,
2013-01-11 11:38:00,58.2,54.7,32.29,North,10,3.0,4.0,88,0.01,,SKC,0.08,VWS V14.01,2013-01-11 16:38:00,
2013-01-11 11:39:00,58.1,54.6,32.29,North,10,3.0,4.0,88,0.01,,SKC,0.08,VWS V14.01,2013-01-11 16:39:00,
2013-01-11 11:40:00,58.1,54.6,32.29,North,10,1.0,4.0,88,0.01,,SKC,0.08,VWS V14.01,2013-01-11 16:40:00,
2013-01-11 11:41:00,58.1,54.6,32.29,North,10,2.0,4.0,88,0.01,,SKC,0.08,VWS V14.01,2013-01-11 16:41:00,
2013-01-11 11:42:00,58.0,54.5,32.29,North,10,1.0,5.0,88,0.01,,SKC,0.08,VWS V14.01,2013-01-11 16:42:00,
2013-01-11 11:43:00,57.9,54.4,32.29,North,10,1.0,2.0,88,0.01,,SKC,0.08,VWS V14.01,2013-01-11 16:43:00,
2013-01-11 11:44:00,57.8,54.6,32.29,North,10,3.0,3.0,89,0.01,,SKC,0.08,VWS V14.01,2013-01-11 16:44:00,
2013-01-11 11:45:00,57.8,54.6,32.29,North,10,3.0,3.0,89,0.01,,SKC,0.08,VWS V14.01,2013-01-11 16:45:00,
2013-01-11 11:46:00,57.8,54.6,32.29,North,10,2.0,3.0,89,0.01,,SKC,0.08,VWS V14.01,2013-01-11 16:46:00,
2013-01-11 11:47:00,57.7,54.5,32.29,North,10,3.0,4.0,89,0.01,,SKC,0.08,VWS V14.01,2013-01-11 16:47:00,
2013-01-11 11:48:00,57.7,54.5,32.29,North,10,0.0,3.0,89,0.01,,SKC,0.08,VWS V14.01,2013-01-11 16:48:00,
2013-01-11 11:49:00,57.6,54.4,32.29,North,10,3.0,3.0,89,0.02,,SKC,0.09,VWS V14.01,2013-01-11 16:49:00,
2013-01-11 11:50:00,57.6,54.4,32.29,North,10,4.0,4.0,89,0.02,,SKC,0.09,VWS V14.01,2013-01-11 16:50:00,
2013-01-11 11:51:00,57.6,54.4,32.29,North,10,1.0,4.0,89,0.02,,SKC,0.09,VWS V14.01,2013-01-11 16:51:00,
2013-01-11 11:52:00,57.5,54.3,32.29,North,10,0.0,1.0,89,0.02,,SKC,0.09,VWS V14.01,2013-01-11 16:52:00,
2013-01-11 11:53:00,57.5,54.6,32.29,North,10,0.0,0.0,90,0.02,,SKC,0.09,VWS V14.01,2013-01-11 16:53:00,
2013-01-11 11:54:00,57.5,54.6,32.29,North,10,1.0,1.0,90,0.02,,SKC,0.09,VWS V14.01,2013-01-11 16:54:00,
2013-01-11 11:55:00,57.5,54.6,32.29,North,10,0.0,2.0,90,0.02,,SKC,0.09,VWS V14.01,2013-01-11 16:55:00,
2013-01-11 11:56:00,57.5,54.6,32.29,North,10,1.0,2.0,90,0.02,,SKC,0.09,VWS V14.01,2013-01-11 16:56:00,
2013-01-11 11:57:00,57.4,54.5,32.29,North,10,3.0,4.0,90,0.02,,SKC,0.09,VWS V14.01,2013-01-11 16:57:00,
2013-01-11 11:58:00,57.4,54.5,32.29,North,10,0.0,3.0,90,0.02,,SKC,0.09,VWS V14.01,2013-01-11 16:58:00,
2013-01-11 11:59:00,57.4,54.5,32.29,North,10,0.0,1.0,90,0.02,,SKC,0.09,VWS V14.01,2013-01-11 16:59:00,
2013-01-11 12:00:00,57.4,54.5,32.29,North,10,0.0,1.0,90,0.02,,SKC,0.09,VWS V14.01,2013-01-11 17:00:00,
2013-01-11 12:01:00,57.4,54.5,32.29,North,10,0.0,0.0,90,0.02,,SKC,0.09,VWS V14.01,2013-01-11 17:01:00,
2013-01-11 12:02:00,57.4,54.5,32.29,North,10,0.0,1.0,90,0.02,,SKC,0.09,VWS V14.01,2013-01-11 17:02:00,
2013-01-11 12:03:00,57.4,54.5,32.29,North,10,0.0,0.0,90,0.02,,SKC,0.09,VWS V14.01,2013-01-11 17:03:00,
2013-01-11 12:04:00,57.4,54.5,32.29,North,10,0.0,0.0,90,0.02,,SKC,0.09,VWS V14.01,2013-01-11 17:04:00,
2013-01-11 12:05:00,57.4,54.5,32.29,North,10,0.0,0.0,90,0.02,,SKC,0.09,VWS V14.01,2013-01-11 17:05:00,
2013-01-11 12:06:00,57.4,54.5,32.29,North,10,0.0,0.0,90,0.02,,SKC,0.09,VWS V14.01,2013-01-11 17:06:00,
2013-01-11 12:07:00,57.4,54.5,32.29,North,10,0.0,1.0,90,0.02,,SKC,0.09,VWS V14.01,2013-01-11 17:07:00,
2013-01-11 12:08:00,57.4,54.8,32.29,North,10,0.0,0.0,91,0.02,,SKC,0.09,VWS V14.01,2013-01-11 17:08:00,
2013-01-11 12:09:00,57.4,54.8,32.29,North,10,0.0,0.0,91,0.02,,SKC,0.09,VWS V14.01,2013-01-11 17:09:00,
2013-01-11 12:10:00,57.5,54.9,32.29,North,10,0.0,2.0,91,0.02,,SKC,0.09,VWS V14.01,2013-01-11 17:10:00,
2013-01-11 12:11:00,57.5,54.9,32.29,North,10,1.0,1.0,91,0.02,,SKC,0.09,VWS V14.01,2013-01-11 17:11:00,
2013-01-11 12:12:00,57.4,54.8,32.29,North,10,2.0,2.0,91,0.03,,SKC,0.10,VWS V14.01,2013-01-11 17:12:00,
2013-01-11 12:13:00,57.4,54.8,32.29,North,10,0.0,2.0,91,0.03,,SKC,0.10,VWS V14.01,2013-01-11 17:13:00,
2013-01-11 12:14:00,57.4,54.8,32.29,North,10,0.0,0.0,91,0.03,,SKC,0.10,VWS V14.01,2013-01-11 17:14:00,
2013-01-11 12:15:00,57.4,54.8,32.29,North,10,3.0,3.0,91,0.03,,SKC,0.10,VWS V14.01,2013-01-11 17:15:00,
2013-01-11 12:16:00,57.4,54.8,32.29,North,10,0.0,0.0,91,0.03,,SKC,0.10,VWS V14.01,2013-01-11 17:16:00,
2013-01-11 12:17:00,57.4,54.8,32.29,North,10,1.0,2.0,91,0.03,,SKC,0.10,VWS V14.01,2013-01-11 17:17:00,
2013-01-11 12:18:00,57.5,54.9,32.29,North,10,5.0,5.0,91,0.03,,SKC,0.10,VWS V14.01,2013-01-11 17:18:00,
2013-01-11 12:19:00,57.5,54.9,32.29,North,10,2.0,5.0,91,0.03,,SKC,0.10,VWS V14.01,2013-01-11 17:19:00,
2013-01-11 12:20:00,57.5,54.9,32.29,North,10,5.0,6.0,91,0.03,,SKC,0.10,VWS V14.01,2013-01-11 17:20:00,
2013-01-11 12:21:00,57.5,54.9,32.29,North,10,3.0,3.0,91,0.03,,SKC,0.10,VWS V14.01,2013-01-11 17:21:00,
2013-01-11 12:22:00,57.5,54.9,32.29,North,10,1.0,4.0,91,0.03,,SKC,0.10,VWS V14.01,2013-01-11 17:22:00,
2013-01-11 12:23:00,57.5,54.9,32.29,North,10,3.0,4.0,91,0.03,,SKC,0.10,VWS V14.01,2013-01-11 17:23:00,
2013-01-11 12:24:00,57.5,54.9,32.29,North,10,5.0,6.0,91,0.03,,SKC,0.10,VWS V14.01,2013-01-11 17:24:00,
2013-01-11 12:25:00,57.5,54.9,32.29,North,10,2.0,5.0,91,0.03,,SKC,0.10,VWS V14.01,2013-01-11 17:25:00,
2013-01-11 12:26:00,57.5,54.9,32.29,North,10,5.0,5.0,91,0.03,,SKC,0.10,VWS V14.01,2013-01-11 17:26:00,
2013-01-11 12:27:00,57.5,54.6,32.29,North,10,3.0,3.0,90,0.03,,SKC,0.10,VWS V14.01,2013-01-11 17:27:00,
2013-01-11 12:28:00,57.5,54.6,32.29,North,10,3.0,4.0,90,0.03,,SKC,0.10,VWS V14.01,2013-01-11 17:28:00,
2013-01-11 12:29:00,57.5,54.6,32.29,North,10,2.0,3.0,90,0.03,,SKC,0.10,VWS V14.01,2013-01-11 17:29:00,
2013-01-11 12:30:00,57.5,54.6,32.29,North,10,2.0,3.0,90,0.03,,SKC,0.10,VWS V14.01,2013-01-11 17:30:00,
2013-01-11 12:31:00,57.5,54.6,32.29,North,10,3.0,3.0,90,0.03,,SKC,0.10,VWS V14.01,2013-01-11 17:31:00,
2013-01-11 12:32:00,57.5,54.6,32.29,North,10,1.0,1.0,90,0.03,,SKC,0.10,VWS V14.01,2013-01-11 17:32:00,
2013-01-11 12:33:00,57.6,54.7,32.29,North,10,1.0,1.0,90,0.03,,SKC,0.10,VWS V14.01,2013-01-11 17:33:00,
2013-01-11 12:34:00,57.6,54.7,32.29,North,10,1.0,2.0,90,0.03,,SKC,0.10,VWS V14.01,2013-01-11 17:34:00,
2013-01-11 12:35:00,57.6,54.7,32.29,North,10,5.0,5.0,90,0.03,,SKC,0.10,VWS V14.01,2013-01-11 17:35:00,
2013-01-11 12:36:00,57.6,54.7,32.29,North,10,1.0,1.0,90,0.03,,SKC,0.10,VWS V14.01,2013-01-11 17:36:00,
2013-01-11 12:37:00,57.6,54.7,32.29,North,10,5.0,5.0,90,0.03,,SKC,0.10,VWS V14.01,2013-01-11 17:37:00,
2013-01-11 12:38:00,57.6,54.7,32.29,North,10,1.0,5.0,90,0.02,,SKC,0.10,VWS V14.01,2013-01-11 17:38:00,
2013-01-11 12:39:00,57.6,54.7,32.29,North,10,3.0,3.0,90,0.02,,SKC,0.10,VWS V14.01,2013-01-11 17:39:00,
2013-01-11 12:40:00,57.6,54.7,32.29,North,10,1.0,3.0,90,0.02,,SKC,0.10,VWS V14.01,2013-01-11 17:40:00,
2013-01-11 12:41:00,57.6,54.7,32.29,North,10,3.0,3.0,90,0.02,,SKC,0.10,VWS V14.01,2013-01-11 17:41:00,
2013-01-11 12:42:00,57.6,54.7,32.29,North,10,1.0,2.0,90,0.03,,SKC,0.11,VWS V14.01,2013-01-11 17:42:00,
2013-01-11 12:43:00,57.6,54.7,32.29,North,10,0.0,1.0,90,0.03,,SKC,0.11,VWS V14.01,2013-01-11 17:43:00,
2013-01-11 12:44:00,57.6,54.7,32.29,North,10,1.0,2.0,90,0.03,,SKC,0.11,VWS V14.01,2013-01-11 17:44:00,
2013-01-11 12:45:00,57.6,54.7,32.29,North,10,2.0,4.0,90,0.03,,SKC,0.11,VWS V14.01,2013-01-11 17:45:00,
2013-01-11 12:46:00,57.6,54.7,32.29,North,10,2.0,3.0,90,0.03,,SKC,0.11,VWS V14.01,2013-01-11 17:46:00,
2013-01-11 12:47:00,57.6,54.7,32.29,North,10,3.0,5.0,90,0.03,,SKC,0.11,VWS V14.01,2013-01-11 17:47:00,
2013-01-11 12:48:00,57.6,54.7,32.29,North,10,4.0,5.0,90,0.03,,SKC,0.11,VWS V14.01,2013-01-11 17:48:00,
2013-01-11 12:49:00,57.6,54.7,32.29,North,9,4.0,4.0,90,0.03,,SKC,0.11,VWS V14.01,2013-01-11 17:49:00,
2013-01-11 12:50:00,57.6,54.7,32.29,North,9,1.0,4.0,90,0.02,,SKC,0.11,VWS V14.01,2013-01-11 17:50:00,
2013-01-11 12:51:00,57.6,54.7,32.29,North,9,2.0,4.0,90,0.02,,SKC,0.11,VWS V14.01,2013-01-11 17:51:00,
2013-01-11 12:52:00,57.6,54.7,32.29,North,9,0.0,0.0,90,0.02,,SKC,0.11,VWS V14.01,2013-01-11 17:52:00,
2013-01-11 12:53:00,57.6,54.7,32.29,North,9,2.0,2.0,90,0.02,,SKC,0.11,VWS V14.01,2013-01-11 17:53:00,
2013-01-11 12:54:00,57.6,54.7,32.29,North,9,2.0,3.0,90,0.02,,SKC,0.11,VWS V14.01,2013-01-11 17:54:00,
2013-01-11 12:55:00,57.6,54.7,32.29,North,9,1.0,3.0,90,0.02,,SKC,0.11,VWS V14.01,2013-01-11 17:55:00,
2013-01-11 12:56:00,57.6,54.7,32.29,North,9,2.0,3.0,90,0.02,,SKC,0.11,VWS V14.01,2013-01-11 17:56:00,
2013-01-11 12:57:00,57.6,54.7,32.29,North,9,3.0,3.0,90,0.02,,SKC,0.11,VWS V14.01,2013-01-11 17:57:00,
2013-01-11 12:58:00,57.6,54.7,32.29,North,9,3.0,3.0,90,0.02,,SKC,0.11,VWS V14.01,2013-01-11 17:58:00,
2013-01-11 12:59:00,57.6,54.7,32.29,North,10,2.0,4.0,90,0.02,,SKC,0.11,VWS V14.01,2013-01-11 17:59:00,
2013-01-11 13:00:00,57.6,54.7,32.29,North,10,0.0,3.0,90,0.02,,SKC,0.11,VWS V14.01,2013-01-11 18:00:00,
2013-01-11 13:01:00,57.6,54.7,32.29,North,10,2.0,3.0,90,0.02,,SKC,0.11,VWS V14.01,2013-01-11 18:01:00,
2013-01-11 13:02:00,57.6,54.7,32.29,North,10,0.0,0.0,90,0.02,,SKC,0.11,VWS V14.01,2013-01-11 18:02:00,
2013-01-11 13:03:00,57.7,54.8,32.29,North,10,0.0,1.0,90,0.02,,SKC,0.11,VWS V14.01,2013-01-11 18:03:00,
2013-01-11 13:04:00,57.7,54.8,32.29,North,10,1.0,2.0,90,0.02,,SKC,0.11,VWS V14.01,2013-01-11 18:04:00,
2013-01-11 13:05:00,57.7,54.8,32.29,North,10,0.0,3.0,90,0.02,,SKC,0.11,VWS V14.01,2013-01-11 18:05:00,
2013-01-11 13:06:00,57.7,54.8,32.29,North,10,0.0,1.0,90,0.02,,SKC,0.11,VWS V14.01,2013-01-11 18:06:00,
2013-01-11 13:07:00,57.8,55.2,32.29,North,10,3.0,4.0,91,0.02,,SKC,0.11,VWS V14.01,2013-01-11 18:07:00,
2013-01-11 13:08:00,57.8,54.9,32.29,North,10,0.0,4.0,90,0.02,,SKC,0.11,VWS V14.01,2013-01-11 18:08:00,
2013-01-11 13:09:00,57.8,54.9,32.29,North,10,0.0,2.0,90,0.02,,SKC,0.11,VWS V14.01,2013-01-11 18:09:00,
2013-01-11 13:10:00,57.8,55.2,32.29,North,10,1.0,1.0,91,0.02,,SKC,0.11,VWS V14.01,2013-01-11 18:10:00,
2013-01-11 13:11:00,57.8,54.9,32.29,North,10,0.0,1.0,90,0.02,,SKC,0.11,VWS V14.01,2013-01-11 18:11:00,
2013-01-11 13:12:00,57.8,54.9,32.29,North,10,0.0,2.0,90,0.02,,SKC,0.11,VWS V14.01,2013-01-11 18:12:00,
2013-01-11 13:13:00,57.8,54.9,32.29,North,9,4.0,4.0,90,0.01,,SKC,0.11,VWS V14.01,2013-01-11 18:13:00,
2013-01-11 13:14:00,57.8,54.9,32.29,North,9,2.0,5.0,90,0.01,,SKC,0.11,VWS V14.01,2013-01-11 18:14:00,
2013-01-11 13:15:00,57.9,55.0,32.29,North,9,1.0,5.0,90,0.01,,SKC,0.11,VWS V14.01,2013-01-11 18:15:00,
2013-01-11 13:16:00,57.8,54.9,32.29,North,10,4.0,4.0,90,0.01,,SKC,0.11,VWS V14.01,2013-01-11 18:16:00,
2013-01-11 13:17:00,57.9,55.0,17.69,North,9,0.0,1.0,90,0.01,,SKC,0.11,VWS V14.01,2013-01-11 18:17:00,
2013-01-11 13:18:00,58.0,55.1,17.69,North,9,0.0,1.0,90,0.01,,SKC,0.11,VWS V14.01,2013-01-11 18:18:00,
2013-01-11 13:19:00,58.0,55.1,17.69,North,10,0.0,0.0,90,0.01,,SKC,0.11,VWS V14.01,2013-01-11 18:19:00,
2013-01-11 13:20:00,58.0,55.1,17.69,North,9,0.0,1.0,90,0.01,,SKC,0.11,VWS V14.01,2013-01-11 18:20:00,
2013-01-11 13:21:00,58.0,55.1,17.69,North,9,0.0,0.0,90,0.01,,SKC,0.11,VWS V14.01,2013-01-11 18:21:00,
2013-01-11 13:22:00,58.0,55.1,17.69,WNW,283,2.0,4.0,90,0.02,,SKC,0.12,VWS V14.01,2013-01-11 18:22:00,
2013-01-11 13:23:00,58.0,55.1,17.69,WNW,283,0.0,2.0,90,0.02,,SKC,0.12,VWS V14.01,2013-01-11 18:23:00,
2013-01-11 13:24:00,58.0,55.1,17.69,WNW,288,2.0,3.0,90,0.02,,SKC,0.12,VWS V14.01,2013-01-11 18:24:00,
2013-01-11 13:25:00,58.0,55.1,17.69,WNW,287,2.0,2.0,90,0.02,,SKC,0.12,VWS V14.01,2013-01-11 18:25:00,
2013-01-11 13:26:00,58.0,55.1,17.69,WNW,288,1.0,2.0,90,0.02,,SKC,0.12,VWS V14.01,2013-01-11 18:26:00,
2013-01-11 13:27:00,58.1,55.2,17.69,WNW,288,2.0,2.0,90,0.02,,SKC,0.12,VWS V14.01,2013-01-11 18:27:00,
2013-01-11 13:28:00,58.1,55.2,17.69,WNW,288,0.0,3.0,90,0.02,,SKC,0.12,VWS V14.01,2013-01-11 18:28:00,
2013-01-11 13:29:00,58.1,55.2,17.69,WNW,287,0.0,0.0,90,0.02,,SKC,0.12,VWS V14.01,2013-01-11 18:29:00,
2013-01-11 13:30:00,58.2,55.3,17.69,WNW,287,1.0,1.0,90,0.02,,SKC,0.12,VWS V14.01,2013-01-11 18:30:00,
2013-01-11 13:31:00,58.1,55.2,17.69,WNW,288,0.0,0.0,90,0.02,,SKC,0.12,VWS V14.01,2013-01-11 18:31:00,
2013-01-11 13:32:00,58.3,55.4,17.69,North,5,4.0,7.0,90,0.02,,SKC,0.12,VWS V14.01,2013-01-11 18:32:00,
2013-01-11 13:33:00,58.3,56.0,17.69,NNE,18,4.0,4.0,92,0.02,,SKC,0.12,VWS V14.01,2013-01-11 18:33:00,
2013-01-11 13:34:00,58.3,56.0,17.69,North,350,4.0,5.0,92,0.02,,SKC,0.12,VWS V14.01,2013-01-11 18:34:00,
2013-01-11 13:35:00,58.3,55.4,17.69,North,350,0.0,4.0,90,0.02,,SKC,0.12,VWS V14.01,2013-01-11 18:35:00,
2013-01-11 13:36:00,58.3,56.0,17.69,North,349,4.0,4.0,92,0.02,,SKC,0.12,VWS V14.01,2013-01-11 18:36:00,
2013-01-11 13:37:00,58.4,55.5,17.69,North,349,0.0,2.0,90,0.02,,SKC,0.12,VWS V14.01,2013-01-11 18:37:00,
2013-01-11 13:38:00,58.5,55.6,17.69,North,349,2.0,3.0,90,0.02,,SKC,0.12,VWS V14.01,2013-01-11 18:38:00,
2013-01-11 13:39:00,58.5,55.6,17.69,North,11,3.0,6.0,90,0.02,,SKC,0.12,VWS V14.01,2013-01-11 18:39:00,
2013-01-11 13:40:00,58.6,55.4,17.69,NE,37,4.0,4.0,89,0.02,,SKC,0.12,VWS V14.01,2013-01-11 18:40:00,
2013-01-11 13:41:00,58.5,55.6,17.69,North,11,3.0,3.0,90,0.02,,SKC,0.12,VWS V14.01,2013-01-11 18:41:00,
2013-01-11 13:42:00,58.6,55.4,17.69,NE,37,3.0,3.0,89,0.01,,SKC,0.12,VWS V14.01,2013-01-11 18:42:00,
2013-01-11 13:43:00,58.7,55.5,17.69,NE,34,2.0,4.0,89,0.01,,SKC,0.12,VWS V14.01,2013-01-11 18:43:00,
2013-01-11 13:44:00,58.7,55.5,17.69,NNE,32,4.0,5.0,89,0.01,,SKC,0.12,VWS V14.01,2013-01-11 18:44:00,
2013-01-11 13:45:00,58.7,55.5,17.69,NNE,32,2.0,4.0,89,0.01,,SKC,0.12,VWS V14.01,2013-01-11 18:45:00,
2013-01-11 13:46:00,58.7,55.5,17.69,NNE,32,3.0,4.0,89,0.01,,SKC,0.12,VWS V14.01,2013-01-11 18:46:00,
2013-01-11 13:47:00,58.7,55.5,17.69,NE,50,2.0,6.0,89,0.01,,SKC,0.12,VWS V14.01,2013-01-11 18:47:00,
2013-01-11 13:48:00,58.7,55.5,17.69,NE,50,3.0,6.0,89,0.01,,SKC,0.12,VWS V14.01,2013-01-11 18:48:00,
2013-01-11 13:49:00,58.8,55.6,17.69,NE,44,1.0,5.0,89,0.01,,SKC,0.12,VWS V14.01,2013-01-11 18:49:00,
2013-01-11 13:50:00,58.8,55.6,17.69,NE,44,2.0,2.0,89,0.01,,SKC,0.12,VWS V14.01,2013-01-11 18:50:00,
2013-01-11 13:51:00,58.8,55.6,17.69,NE,44,1.0,5.0,89,0.01,,SKC,0.12,VWS V14.01,2013-01-11 18:51:00,
2013-01-11 13:52:00,58.8,55.6,17.69,NE,44,0.0,0.0,89,0.01,,SKC,0.12,VWS V14.01,2013-01-11 18:52:00,
2013-01-11 13:53:00,58.8,55.6,17.69,NE,44,2.0,3.0,89,0.01,,SKC,0.12,VWS V14.01,2013-01-11 18:53:00,
2013-01-11 13:54:00,58.8,55.6,17.69,NE,44,1.0,3.0,89,0.01,,SKC,0.12,VWS V14.01,2013-01-11 18:54:00,
2013-01-11 13:55:00,58.7,55.5,17.69,NE,44,0.0,2.0,89,0.01,,SKC,0.12,VWS V14.01,2013-01-11 18:55:00,
2013-01-11 13:56:00,58.8,55.6,17.69,NE,44,1.0,3.0,89,0.01,,SKC,0.12,VWS V14.01,2013-01-11 18:56:00,
2013-01-11 13:57:00,58.7,55.5,17.69,NE,44,2.0,2.0,89,0.01,,SKC,0.12,VWS V14.01,2013-01-11 18:57:00,
2013-01-11 13:58:00,58.7,55.5,17.69,NE,44,2.0,3.0,89,0.01,,SKC,0.12,VWS V14.01,2013-01-11 18:58:00,
2013-01-11 13:59:00,58.7,55.5,17.69,NE,44,0.0,2.0,89,0.01,,SKC,0.12,VWS V14.01,2013-01-11 18:59:00,
2013-01-11 14:00:00,58.7,55.5,17.69,NE,44,0.0,0.0,89,0.01,,SKC,0.12,VWS V14.01,2013-01-11 19:00:00,
2013-01-11 14:01:00,58.7,55.5,17.69,NE,44,0.0,0.0,89,0.01,,SKC,0.12,VWS V14.01,2013-01-11 19:01:00,
2013-01-11 14:02:00,58.6,55.4,17.69,NE,44,2.0,3.0,89,0.01,,SKC,0.12,VWS V14.01,2013-01-11 19:02:00,
2013-01-11 14:03:00,58.6,55.4,17.69,NE,44,1.0,2.0,89,0.01,,SKC,0.12,VWS V14.01,2013-01-11 19:03:00,
2013-01-11 14:04:00,58.6,55.4,17.69,NE,44,3.0,3.0,89,0.01,,SKC,0.12,VWS V14.01,2013-01-11 19:04:00,
2013-01-11 14:05:00,58.6,55.4,17.69,NE,42,5.0,5.0,89,0.01,,SKC,0.12,VWS V14.01,2013-01-11 19:05:00,
2013-01-11 14:06:00,58.6,55.4,17.69,NE,44,3.0,3.0,89,0.01,,SKC,0.12,VWS V14.01,2013-01-11 19:06:00,
2013-01-11 14:07:00,58.6,55.4,17.69,NE,40,4.0,5.0,89,0.01,,SKC,0.12,VWS V14.01,2013-01-11 19:07:00,
2013-01-11 14:08:00,58.6,55.4,17.69,NNE,23,6.0,6.0,89,0.01,,SKC,0.12,VWS V14.01,2013-01-11 19:08:00,
2013-01-11 14:09:00,58.6,55.4,17.69,NNE,21,2.0,6.0,89,0.01,,SKC,0.12,VWS V14.01,2013-01-11 19:09:00,
2013-01-11 14:10:00,58.7,55.5,17.69,ENE,69,6.0,6.0,89,0.01,,SKC,0.12,VWS V14.01,2013-01-11 19:10:00,
2013-01-11 14:11:00,58.6,55.4,17.69,NNE,21,2.0,6.0,89,0.01,,SKC,0.12,VWS V14.01,2013-01-11 19:11:00,
2013-01-11 14:12:00,58.7,55.5,17.69,North,360,3.0,3.0,89,0.01,,SKC,0.12,VWS V14.01,2013-01-11 19:12:00,
2013-01-11 14:13:00,58.8,55.6,17.69,North,5,4.0,6.0,89,0.01,,SKC,0.12,VWS V14.01,2013-01-11 19:13:00,
2013-01-11 14:14:00,58.8,55.6,17.69,North,5,3.0,4.0,89,0.01,,SKC,0.12,VWS V14.01,2013-01-11 19:14:00,
2013-01-11 14:15:00,58.8,55.6,17.69,North,5,4.0,6.0,89,0.01,,SKC,0.12,VWS V14.01,2013-01-11 19:15:00,
2013-01-11 14:16:00,58.8,55.6,17.69,North,5,3.0,4.0,89,0.01,,SKC,0.12,VWS V14.01,2013-01-11 19:16:00,
2013-01-11 14:17:00,58.9,55.7,21.46,North,355,2.0,6.0,89,0.01,,SKC,0.12,VWS V14.01,2013-01-11 19:17:00,
2013-01-11 14:18:00,58.9,55.7,21.46,ENE,57,0.0,4.0,89,0.01,,SKC,0.12,VWS V14.01,2013-01-11 19:18:00,
2013-01-11 14:19:00,59.0,55.8,21.46,ENE,57,0.0,0.0,89,0.01,,SKC,0.12,VWS V14.01,2013-01-11 19:19:00,
2013-01-11 14:20:00,59.0,55.8,21.46,ENE,57,2.0,2.0,89,0.01,,SKC,0.12,VWS V14.01,2013-01-11 19:20:00,
2013-01-11 14:21:00,59.0,55.8,21.46,ENE,57,0.0,0.0,89,0.01,,SKC,0.12,VWS V14.01,2013-01-11 19:21:00,
2013-01-11 14:22:00,58.9,55.7,21.46,SW,217,5.0,5.0,89,0.00,,SKC,0.12,VWS V14.01,2013-01-11 19:22:00,
2013-01-11 14:23:00,58.8,55.6,21.46,SW,228,1.0,5.0,89,0.00,,SKC,0.12,VWS V14.01,2013-01-11 19:23:00,
2013-01-11 14:24:00,58.8,55.6,21.46,SW,228,0.0,2.0,89,0.00,,SKC,0.12,VWS V14.01,2013-01-11 19:24:00,
2013-01-11 14:25:00,58.8,55.6,21.46,SW,227,0.0,2.0,89,0.00,,SKC,0.12,VWS V14.01,2013-01-11 19:25:00,
2013-01-11 14:26:00,58.8,55.6,21.46,SW,228,0.0,2.0,89,0.00,,SKC,0.12,VWS V14.01,2013-01-11 19:26:00,
2013-01-11 14:27:00,58.9,55.7,21.46,West,270,3.0,4.0,89,0.00,,SKC,0.12,VWS V14.01,2013-01-11 19:27:00,
2013-01-11 14:28:00,58.9,55.7,21.46,ENE,59,3.0,3.0,89,0.00,,SKC,0.12,VWS V14.01,2013-01-11 19:28:00,
2013-01-11 14:29:00,58.9,55.7,21.46,ENE,59,3.0,4.0,89,0.01,,SKC,0.13,VWS V14.01,2013-01-11 19:29:00,
2013-01-11 14:30:00,58.9,55.4,21.46,ENE,59,1.0,4.0,88,0.01,,SKC,0.13,VWS V14.01,2013-01-11 19:30:00,
2013-01-11 14:31:00,58.9,55.7,21.46,ENE,59,3.0,4.0,89,0.01,,SKC,0.13,VWS V14.01,2013-01-11 19:31:00,
2013-01-11 14:32:00,59.0,55.5,21.46,ENE,59,1.0,3.0,88,0.01,,SKC,0.13,VWS V14.01,2013-01-11 19:32:00,
2013-01-11 14:33:00,59.0,55.8,21.46,SSW,202,3.0,4.0,89,0.01,,SKC,0.13,VWS V14.01,2013-01-11 19:33:00,
2013-01-11 14:34:00,59.0,55.8,21.46,SSE,162,4.0,5.0,89,0.01,,SKC,0.13,VWS V14.01,2013-01-11 19:34:00,
2013-01-11 14:35:00,59.0,55.8,21.46,SSE,158,1.0,5.0,89,0.01,,SKC,0.13,VWS V14.01,2013-01-11 19:35:00,
2013-01-11 14:36:00,59.0,55.8,21.46,South,173,5.0,5.0,89,0.01,,SKC,0.13,VWS V14.01,2013-01-11 19:36:00,
2013-01-11 14:37:00,59.0,55.5,21.46,SSE,157,2.0,4.0,88,0.01,,SKC,0.13,VWS V14.01,2013-01-11 19:37:00,
2013-01-11 14:38:00,59.0,55.5,21.46,SSE,148,2.0,6.0,88,0.01,,SKC,0.13,VWS V14.01,2013-01-11 19:38:00,
2013-01-11 14:39:00,59.0,55.5,21.46,SW,221,1.0,2.0,88,0.01,,SKC,0.13,VWS V14.01,2013-01-11 19:39:00,
2013-01-11 14:40:00,59.0,55.5,21.46,SW,221,1.0,2.0,88,0.01,,SKC,0.13,VWS V14.01,2013-01-11 19:40:00,
2013-01-11 14:41:00,59.0,55.5,21.46,SW,221,0.0,2.0,88,0.01,,SKC,0.13,VWS V14.01,2013-01-11 19:41:00,
2013-01-11 14:42:00,59.0,55.5,21.46,ENE,61,3.0,4.0,88,0.01,,SKC,0.13,VWS V14.01,2013-01-11 19:42:00,
2013-01-11 14:43:00,59.0,55.5,21.46,ENE,61,0.0,3.0,88,0.01,,SKC,0.13,VWS V14.01,2013-01-11 19:43:00,
2013-01-11 14:44:00,59.0,55.5,21.46,East,80,2.0,4.0,88,0.01,,SKC,0.13,VWS V14.01,2013-01-11 19:44:00,
2013-01-11 14:45:00,59.0,55.5,21.46,East,80,1.0,2.0,88,0.01,,SKC,0.13,VWS V14.01,2013-01-11 19:45:00,
2013-01-11 14:46:00,59.0,55.5,21.46,East,80,2.0,4.0,88,0.01,,SKC,0.13,VWS V14.01,2013-01-11 19:46:00,
2013-01-11 14:47:00,59.0,55.5,21.46,East,88,2.0,4.0,88,0.01,,SKC,0.13,VWS V14.01,2013-01-11 19:47:00,
2013-01-11 14:48:00,59.0,55.5,21.46,East,89,1.0,2.0,88,0.01,,SKC,0.13,VWS V14.01,2013-01-11 19:48:00,
2013-01-11 14:49:00,59.1,55.9,21.46,East,82,1.0,4.0,89,0.01,,SKC,0.13,VWS V14.01,2013-01-11 19:49:00,
2013-01-11 14:50:00,59.2,56.0,21.46,ENE,78,0.0,4.0,89,0.01,,SKC,0.13,VWS V14.01,2013-01-11 19:50:00,
2013-01-11 14:51:00,59.1,55.9,21.46,East,82,1.0,4.0,89,0.01,,SKC,0.13,VWS V14.01,2013-01-11 19:51:00,
2013-01-11 14:52:00,59.4,55.8,21.46,ENE,74,0.0,4.0,88,0.01,,SKC,0.13,VWS V14.01,2013-01-11 19:52:00,
2013-01-11 14:53:00,59.4,55.8,21.46,ENE,74,0.0,3.0,88,0.01,,SKC,0.13,VWS V14.01,2013-01-11 19:53:00,
2013-01-11 14:54:00,59.5,56.0,21.46,ENE,74,0.0,0.0,88,0.01,,SKC,0.13,VWS V14.01,2013-01-11 19:54:00,
2013-01-11 14:55:00,59.6,56.0,21.46,ENE,73,2.0,4.0,88,0.01,,SKC,0.13,VWS V14.01,2013-01-11 19:55:00,
2013-01-11 14:56:00,59.5,56.0,21.46,ENE,74,0.0,0.0,88,0.01,,SKC,0.13,VWS V14.01,2013-01-11 19:56:00,
2013-01-11 14:57:00,59.7,56.2,21.46,NNW,344,4.0,8.0,88,0.01,,SKC,0.13,VWS V14.01,2013-01-11 19:57:00,
2013-01-11 14:58:00,59.8,56.2,21.46,NNW,344,2.0,4.0,88,0.01,,SKC,0.13,VWS V14.01,2013-01-11 19:58:00,
2013-01-11 14:59:00,59.8,56.2,21.46,NNW,344,2.0,3.0,88,0.01,,SKC,0.13,VWS V14.01,2013-01-11 19:59:00,
2013-01-11 15:00:00,59.8,56.2,21.46,NNW,345,0.0,3.0,88,0.01,,SKC,0.13,VWS V14.01,2013-01-11 20:00:00,
2013-01-11 15:01:00,59.8,56.2,21.46,NNW,344,3.0,3.0,88,0.01,,SKC,0.13,VWS V14.01,2013-01-11 20:01:00,
2013-01-11 15:02:00,59.9,56.3,21.46,NNW,345,1.0,2.0,88,0.01,,SKC,0.13,VWS V14.01,2013-01-11 20:02:00,
2013-01-11 15:03:00,59.9,56.0,21.46,NNW,345,1.0,1.0,87,0.01,,SKC,0.13,VWS V14.01,2013-01-11 20:03:00,
2013-01-11 15:04:00,60.0,56.4,21.46,NNW,345,0.0,1.0,88,0.01,,SKC,0.13,VWS V14.01,2013-01-11 20:04:00,
2013-01-11 15:05:00,60.0,56.1,21.46,ENE,59,4.0,5.0,87,0.01,,SKC,0.13,VWS V14.01,2013-01-11 20:05:00,
2013-01-11 15:06:00,60.0,56.4,21.46,NNW,345,0.0,1.0,88,0.01,,SKC,0.13,VWS V14.01,2013-01-11 20:06:00,
2013-01-11 15:07:00,60.0,56.1,21.46,North,360,7.0,8.0,87,0.01,,SKC,0.13,VWS V14.01,2013-01-11 20:07:00,
2013-01-11 15:08:00,60.0,55.8,21.46,NNE,28,2.0,7.0,86,0.01,,SKC,0.13,VWS V14.01,2013-01-11 20:08:00,
2013-01-11 15:09:00,60.0,55.8,21.46,NNE,24,1.0,3.0,86,0.01,,SKC,0.13,VWS V14.01,2013-01-11 20:09:00,
2013-01-11 15:10:00,60.1,56.2,21.46,NNE,24,3.0,4.0,87,0.01,,SKC,0.13,VWS V14.01,2013-01-11 20:10:00,
2013-01-11 15:11:00,60.0,55.8,21.46,NNE,24,1.0,3.0,86,0.01,,SKC,0.13,VWS V14.01,2013-01-11 20:11:00,
2013-01-11 15:12:00,60.1,55.9,21.46,NNE,19,4.0,7.0,86,0.01,,SKC,0.13,VWS V14.01,2013-01-11 20:12:00,
2013-01-11 15:13:00,60.1,55.9,21.46,NE,48,4.0,6.0,86,0.01,,SKC,0.13,VWS V14.01,2013-01-11 20:13:00,
2013-01-11 15:14:00,60.1,55.9,21.46,NE,49,2.0,4.0,86,0.01,,SKC,0.13,VWS V14.01,2013-01-11 20:14:00,
2013-01-11 15:15:00,60.0,56.1,21.46,NE,49,0.0,2.0,87,0.01,,SKC,0.13,VWS V14.01,2013-01-11 20:15:00,
2013-01-11 15:16:00,60.1,55.9,21.46,NE,49,2.0,4.0,86,0.01,,SKC,0.13,VWS V14.01,2013-01-11 20:16:00,
2013-01-11 15:17:00,60.0,55.8,21.46,NE,49,0.0,2.0,86,0.01,,SKC,0.13,VWS V14.01,2013-01-11 20:17:00,
2013-01-11 15:18:00,60.0,56.1,21.46,NE,48,0.0,0.0,87,0.01,,SKC,0.13,VWS V14.01,2013-01-11 20:18:00,
2013-01-11 15:19:00,60.0,56.1,21.46,NE,48,4.0,4.0,87,0.01,,SKC,0.13,VWS V14.01,2013-01-11 20:19:00,
2013-01-11 15:20:00,60.1,56.2,21.46,NE,47,4.0,5.0,87,0.01,,SKC,0.13,VWS V14.01,2013-01-11 20:20:00,
2013-01-11 15:21:00,60.1,56.2,21.46,NE,49,4.0,4.0,87,0.01,,SKC,0.13,VWS V14.01,2013-01-11 20:21:00,
2013-01-11 15:22:00,60.0,55.8,21.46,ENE,61,4.0,5.0,86,0.01,,SKC,0.13,VWS V14.01,2013-01-11 20:22:00,
2013-01-11 15:23:00,60.0,56.1,21.46,ENE,60,2.0,4.0,87,0.01,,SKC,0.13,VWS V14.01,2013-01-11 20:23:00,
2013-01-11 15:24:00,60.1,55.9,21.46,ENE,60,1.0,3.0,86,0.01,,SKC,0.13,VWS V14.01,2013-01-11 20:24:00,
2013-01-11 15:25:00,60.1,55.9,21.46,ENE,60,0.0,1.0,86,0.01,,SKC,0.13,VWS V14.01,2013-01-11 20:25:00,
2013-01-11 15:26:00,60.1,55.9,21.46,ENE,60,1.0,3.0,86,0.01,,SKC,0.13,VWS V14.01,2013-01-11 20:26:00,
2013-01-11 15:27:00,60.1,55.9,21.46,ENE,60,3.0,4.0,86,0.01,,SKC,0.13,VWS V14.01,2013-01-11 20:27:00,
2013-01-11 15:28:00,60.2,56.0,21.46,NE,45,3.0,5.0,86,0.01,,SKC,0.13,VWS V14.01,2013-01-11 20:28:00,
2013-01-11 15:29:00,60.2,56.0,21.46,NE,36,3.0,5.0,86,0.01,,SKC,0.13,VWS V14.01,2013-01-11 20:29:00,
2013-01-11 15:30:00,60.2,56.0,21.46,NE,34,3.0,4.0,86,0.00,,SKC,0.13,VWS V14.01,2013-01-11 20:30:00,
2013-01-11 15:31:00,60.2,56.0,21.46,NE,36,5.0,5.0,86,0.01,,SKC,0.13,VWS V14.01,2013-01-11 20:31:00,
2013-01-11 15:32:00,60.2,56.0,21.46,NE,39,2.0,6.0,86,0.00,,SKC,0.13,VWS V14.01,2013-01-11 20:32:00,
2013-01-11 15:33:00,60.2,56.0,21.46,NE,38,3.0,4.0,86,0.00,,SKC,0.13,VWS V14.01,2013-01-11 20:33:00,
2013-01-11 15:34:00,60.2,56.0,21.46,NW,321,1.0,6.0,86,0.00,,SKC,0.13,VWS V14.01,2013-01-11 20:34:00,
2013-01-11 15:35:00,60.2,56.0,21.46,NE,43,2.0,3.0,86,0.00,,SKC,0.13,VWS V14.01,2013-01-11 20:35:00,
2013-01-11 15:36:00,60.2,56.0,21.46,NW,321,3.0,6.0,86,0.00,,SKC,0.13,VWS V14.01,2013-01-11 20:36:00,
2013-01-11 15:37:00,60.2,56.0,21.46,NE,44,2.0,3.0,86,0.00,,SKC,0.13,VWS V14.01,2013-01-11 20:37:00,
2013-01-11 15:38:00,60.2,56.0,21.46,NE,47,2.0,4.0,86,0.00,,SKC,0.13,VWS V14.01,2013-01-11 20:38:00,
2013-01-11 15:39:00,60.2,56.0,21.46,NE,47,1.0,3.0,86,0.00,,SKC,0.13,VWS V14.01,2013-01-11 20:39:00,
2013-01-11 15:40:00,60.2,56.0,21.46,NE,48,1.0,2.0,86,0.00,,SKC,0.13,VWS V14.01,2013-01-11 20:40:00,
2013-01-11 15:41:00,60.2,56.0,21.46,NE,46,1.0,3.0,86,0.00,,SKC,0.13,VWS V14.01,2013-01-11 20:41:00,
2013-01-11 15:42:00,60.2,56.0,21.46,NE,48,2.0,3.0,86,0.00,,SKC,0.13,VWS V14.01,2013-01-11 20:42:00,
2013-01-11 15:43:00,60.2,56.0,21.46,NE,44,4.0,4.0,86,0.00,,SKC,0.13,VWS V14.01,2013-01-11 20:43:00,
2013-01-11 15:44:00,60.2,56.0,21.46,NE,44,0.0,4.0,86,0.00,,SKC,0.13,VWS V14.01,2013-01-11 20:44:00,
2013-01-11 15:45:00,60.2,56.0,21.46,North,355,3.0,6.0,86,0.00,,SKC,0.13,VWS V14.01,2013-01-11 20:45:00,
2013-01-11 15:46:00,60.2,56.0,21.46,NE,44,1.0,4.0,86,0.00,,SKC,0.13,VWS V14.01,2013-01-11 20:46:00,
2013-01-11 15:47:00,60.2,55.7,21.46,NNW,348,1.0,5.0,85,0.00,,SKC,0.13,VWS V14.01,2013-01-11 20:47:00,
2013-01-11 15:48:00,60.2,55.7,21.46,NNE,17,1.0,4.0,85,0.00,,SKC,0.13,VWS V14.01,2013-01-11 20:48:00,
2013-01-11 15:49:00,60.2,55.7,21.46,NE,36,4.0,5.0,85,0.00,,SKC,0.13,VWS V14.01,2013-01-11 20:49:00,
2013-01-11 15:50:00,60.2,55.7,21.46,NE,36,2.0,4.0,85,0.00,,SKC,0.13,VWS V14.01,2013-01-11 20:50:00,
2013-01-11 15:51:00,60.2,55.7,21.46,NE,37,4.0,5.0,85,0.00,,SKC,0.13,VWS V14.01,2013-01-11 20:51:00,
2013-01-11 15:52:00,60.3,55.8,19.47,North,11,0.0,6.0,85,0.00,,SKC,0.13,VWS V14.01,2013-01-11 20:52:00,
2013-01-11 15:53:00,60.3,55.8,19.47,NNE,19,3.0,6.0,85,0.00,,SKC,0.13,VWS V14.01,2013-01-11 20:53:00,
2013-01-11 15:54:00,60.2,55.7,19.47,NNE,20,0.0,3.0,85,0.00,,SKC,0.13,VWS V14.01,2013-01-11 20:54:00,
2013-01-11 15:55:00,60.2,55.7,19.47,NNE,22,1.0,3.0,85,0.00,,SKC,0.13,VWS V14.01,2013-01-11 20:55:00,
2013-01-11 15:56:00,60.2,55.7,19.47,NNE,19,0.0,3.0,85,0.00,,SKC,0.13,VWS V14.01,2013-01-11 20:56:00,
2013-01-11 15:57:00,60.2,55.7,19.47,ENE,66,2.0,5.0,85,0.00,,SKC,0.13,VWS V14.01,2013-01-11 20:57:00,
2013-01-11 15:58:00,60.2,55.7,19.47,ENE,66,2.0,2.0,85,0.00,,SKC,0.13,VWS V14.01,2013-01-11 20:58:00,
2013-01-11 15:59:00,60.2,55.7,19.47,ENE,65,0.0,2.0,85,0.00,,SKC,0.13,VWS V14.01,2013-01-11 20:59:00,
2013-01-11 16:00:00,60.2,56.0,19.47,ENE,66,3.0,3.0,86,0.00,,SKC,0.13,VWS V14.01,2013-01-11 21:00:00,
2013-01-11 16:01:00,60.2,55.7,19.47,ENE,66,0.0,2.0,85,0.00,,SKC,0.13,VWS V14.01,2013-01-11 21:01:00,
2013-01-11 16:02:00,60.2,56.0,19.47,ENE,69,0.0,3.0,86,0.00,,SKC,0.13,VWS V14.01,2013-01-11 21:02:00,
2013-01-11 16:03:00,60.1,55.9,19.47,ENE,69,2.0,2.0,86,0.00,,SKC,0.13,VWS V14.01,2013-01-11 21:03:00,
2013-01-11 16:04:00,60.1,55.9,19.47,ENE,69,0.0,2.0,86,0.00,,SKC,0.13,VWS V14.01,2013-01-11 21:04:00,
2013-01-11 16:05:00,60.0,55.8,19.47,ENE,69,1.0,1.0,86,0.00,,SKC,0.13,VWS V14.01,2013-01-11 21:05:00,
2013-01-11 16:06:00,60.1,55.9,19.47,ENE,69,0.0,2.0,86,0.00,,SKC,0.13,VWS V14.01,2013-01-11 21:06:00,
2013-01-11 16:07:00,60.0,55.5,19.47,SW,219,1.0,5.0,85,0.00,,SKC,0.13,VWS V14.01,2013-01-11 21:07:00,
2013-01-11 16:08:00,60.1,55.6,19.47,SW,219,0.0,1.0,85,0.00,,SKC,0.13,VWS V14.01,2013-01-11 21:08:00,
2013-01-11 16:09:00,60.1,55.6,19.47,ESE,113,2.0,4.0,85,0.00,,SKC,0.13,VWS V14.01,2013-01-11 21:09:00,
2013-01-11 16:10:00,60.1,55.6,19.47,ESE,113,1.0,2.0,85,0.00,,SKC,0.13,VWS V14.01,2013-01-11 21:10:00,
2013-01-11 16:11:00,60.1,55.6,19.47,ESE,115,2.0,4.0,85,0.00,,SKC,0.13,VWS V14.01,2013-01-11 21:11:00,
2013-01-11 16:12:00,60.1,55.6,19.47,ESE,117,0.0,2.0,85,0.00,,SKC,0.13,VWS V14.01,2013-01-11 21:12:00,
2013-01-11 16:13:00,60.2,55.7,19.47,ESE,117,1.0,1.0,85,0.00,,SKC,0.13,VWS V14.01,2013-01-11 21:13:00,
2013-01-11 16:14:00,60.2,55.7,19.47,ESE,117,2.0,2.0,85,0.00,,SKC,0.13,VWS V14.01,2013-01-11 21:14:00,
2013-01-11 16:15:00,60.2,56.0,19.47,SE,134,0.0,4.0,86,0.00,,SKC,0.13,VWS V14.01,2013-01-11 21:15:00,
2013-01-11 16:16:00,60.2,55.7,19.47,ESE,117,2.0,2.0,85,0.00,,SKC,0.13,VWS V14.01,2013-01-11 21:16:00,
2013-01-11 16:17:00,60.2,55.7,19.47,ESE,123,1.0,2.0,85,0.00,,SKC,0.13,VWS V14.01,2013-01-11 21:17:00,
2013-01-11 16:18:00,60.2,56.0,19.47,SE,128,4.0,5.0,86,0.00,,SKC,0.13,VWS V14.01,2013-01-11 21:18:00,
2013-01-11 16:19:00,60.2,56.0,19.47,ESE,121,2.0,5.0,86,0.00,,SKC,0.13,VWS V14.01,2013-01-11 21:19:00,
2013-01-11 16:20:00,60.2,55.7,19.47,ESE,121,0.0,2.0,85,0.00,,SKC,0.13,VWS V14.01,2013-01-11 21:20:00,
2013-01-11 16:21:00,60.2,56.0,19.47,ESE,123,5.0,5.0,86,0.00,,SKC,0.13,VWS V14.01,2013-01-11 21:21:00,
2013-01-11 16:22:00,60.2,56.0,19.47,SE,127,1.0,2.0,86,0.00,,SKC,0.13,VWS V14.01,2013-01-11 21:22:00,
2013-01-11 16:23:00,60.2,56.0,19.47,SE,127,0.0,2.0,86,0.00,,SKC,0.13,VWS V14.01,2013-01-11 21:23:00,
2013-01-11 16:24:00,60.2,56.0,19.47,SE,127,0.0,2.0,86,0.00,,SKC,0.13,VWS V14.01,2013-01-11 21:24:00,
2013-01-11 16:25:00,60.2,56.0,19.47,SE,127,0.0,1.0,86,0.00,,SKC,0.13,VWS V14.01,2013-01-11 21:25:00,
2013-01-11 16:26:00,60.2,56.0,19.47,SE,127,0.0,2.0,86,0.00,,SKC,0.13,VWS V14.01,2013-01-11 21:26:00,
2013-01-11 16:27:00,60.2,56.0,19.47,NE,51,2.0,5.0,86,0.00,,SKC,0.13,VWS V14.01,2013-01-11 21:27:00,
2013-01-11 16:28:00,60.2,56.0,19.47,NE,51,0.0,3.0,86,0.00,,SKC,0.13,VWS V14.01,2013-01-11 21:28:00,
2013-01-11 16:29:00,60.2,56.0,19.47,NE,51,1.0,2.0,86,0.00,,SKC,0.13,VWS V14.01,2013-01-11 21:29:00,
2013-01-11 16:30:00,60.2,56.0,19.47,West,259,2.0,6.0,86,0.00,,SKC,0.13,VWS V14.01,2013-01-11 21:30:00,
2013-01-11 16:31:00,60.2,56.0,19.47,NE,51,1.0,1.0,86,0.00,,SKC,0.13,VWS V14.01,2013-01-11 21:31:00,
2013-01-11 16:32:00,60.2,56.0,19.47,NE,38,0.0,5.0,86,0.00,,SKC,0.13,VWS V14.01,2013-01-11 21:32:00,
2013-01-11 16:33:00,60.2,55.7,19.47,NE,38,3.0,4.0,85,0.00,,SKC,0.13,VWS V14.01,2013-01-11 21:33:00,
2013-01-11 16:34:00,60.2,55.7,19.47,NE,37,0.0,4.0,85,0.00,,SKC,0.13,VWS V14.01,2013-01-11 21:34:00,
2013-01-11 16:35:00,60.3,56.1,19.47,North,5,3.0,5.0,86,0.00,,SKC,0.13,VWS V14.01,2013-01-11 21:35:00,
2013-01-11 16:36:00,60.2,55.7,19.47,NE,37,2.0,4.0,85,0.00,,SKC,0.13,VWS V14.01,2013-01-11 21:36:00,
2013-01-11 16:37:00,60.3,56.1,19.47,NE,40,3.0,7.0,86,0.00,,SKC,0.13,VWS V14.01,2013-01-11 21:37:00,
2013-01-11 16:38:00,60.3,56.1,19.47,NNE,19,0.0,4.0,86,0.00,,SKC,0.13,VWS V14.01,2013-01-11 21:38:00,
2013-01-11 16:39:00,60.3,56.1,19.47,NNE,19,0.0,1.0,86,0.00,,SKC,0.13,VWS V14.01,2013-01-11 21:39:00,
2013-01-11 16:40:00,60.2,56.0,19.47,NNE,19,2.0,3.0,86,0.00,,SKC,0.13,VWS V14.01,2013-01-11 21:40:00,
2013-01-11 16:41:00,60.3,56.1,19.47,NNE,18,0.0,1.0,86,0.00,,SKC,0.13,VWS V14.01,2013-01-11 21:41:00,
2013-01-11 16:42:00,60.2,55.7,19.47,NNE,18,0.0,3.0,85,0.00,,SKC,0.13,VWS V14.01,2013-01-11 21:42:00,
2013-01-11 16:43:00,60.3,55.8,19.47,North,355,4.0,6.0,85,0.00,,SKC,0.13,VWS V14.01,2013-01-11 21:43:00,
2013-01-11 16:44:00,60.3,55.8,19.47,North,355,0.0,4.0,85,0.00,,SKC,0.13,VWS V14.01,2013-01-11 21:44:00,
2013-01-11 16:45:00,60.3,55.8,19.47,North,355,1.0,3.0,85,0.00,,SKC,0.13,VWS V14.01,2013-01-11 21:45:00,
2013-01-11 16:46:00,60.3,55.8,19.47,North,355,2.0,4.0,85,0.00,,SKC,0.13,VWS V14.01,2013-01-11 21:46:00,
2013-01-11 16:47:00,60.3,55.8,19.47,North,355,2.0,3.0,85,0.00,,SKC,0.13,VWS V14.01,2013-01-11 21:47:00,
2013-01-11 16:48:00,60.3,55.8,19.47,North,351,4.0,5.0,85,0.00,,SKC,0.13,VWS V14.01,2013-01-11 21:48:00,
2013-01-11 16:49:00,60.2,55.7,19.47,NNE,29,4.0,4.0,85,0.00,,SKC,0.13,VWS V14.01,2013-01-11 21:49:00,
2013-01-11 16:50:00,60.2,55.7,19.47,NNE,29,0.0,4.0,85,0.00,,SKC,0.13,VWS V14.01,2013-01-11 21:50:00,
2013-01-11 16:51:00,60.2,55.7,19.47,North,360,3.0,4.0,85,0.00,,SKC,0.13,VWS V14.01,2013-01-11 21:51:00,
2013-01-11 16:52:00,60.2,55.7,19.47,NNE,13,3.0,7.0,85,0.00,,SKC,0.13,VWS V14.01,2013-01-11 21:52:00,
2013-01-11 16:53:00,60.2,55.7,19.47,NNE,24,3.0,5.0,85,0.00,,SKC,0.13,VWS V14.01,2013-01-11 21:53:00,
2013-01-11 16:54:00,60.2,55.7,19.47,SSE,167,2.0,4.0,85,0.00,,SKC,0.13,VWS V14.01,2013-01-11 21:54:00,
2013-01-11 16:55:00,60.2,55.7,19.47,South,175,0.0,4.0,85,0.00,,SKC,0.13,VWS V14.01,2013-01-11 21:55:00,
2013-01-11 16:56:00,60.2,55.7,19.47,SSE,168,4.0,4.0,85,0.00,,SKC,0.13,VWS V14.01,2013-01-11 21:56:00,
2013-01-11 16:57:00,60.2,55.7,19.47,South,175,0.0,4.0,85,0.00,,SKC,0.13,VWS V14.01,2013-01-11 21:57:00,
2013-01-11 16:58:00,60.2,56.0,19.47,ENE,65,5.0,5.0,86,0.00,,SKC,0.13,VWS V14.01,2013-01-11 21:58:00,
2013-01-11 16:59:00,60.2,55.7,19.47,ENE,77,0.0,5.0,85,0.00,,SKC,0.13,VWS V14.01,2013-01-11 21:59:00,
2013-01-11 17:00:00,60.2,55.7,19.47,NE,44,5.0,6.0,85,0.00,,SKC,0.13,VWS V14.01,2013-01-11 22:00:00,
2013-01-11 17:01:00,60.2,56.0,19.47,ENE,65,5.0,5.0,86,0.00,,SKC,0.13,VWS V14.01,2013-01-11 22:01:00,
2013-01-11 17:02:00,60.2,56.0,19.47,North,360,0.0,1.0,86,0.00,,SKC,0.13,VWS V14.01,2013-01-11 22:02:00,
2013-01-11 17:03:00,60.2,56.0,19.47,North,360,3.0,3.0,86,0.00,,SKC,0.13,VWS V14.01,2013-01-11 22:03:00,
2013-01-11 17:04:00,60.2,56.0,19.47,NE,47,5.0,5.0,86,0.00,,SKC,0.13,VWS V14.01,2013-01-11 22:04:00,
2013-01-11 17:05:00,60.1,55.6,19.47,North,360,4.0,5.0,85,0.00,,SKC,0.13,VWS V14.01,2013-01-11 22:05:00,
2013-01-11 17:06:00,60.2,56.0,19.47,NE,46,5.0,5.0,86,0.00,,SKC,0.13,VWS V14.01,2013-01-11 22:06:00,
2013-01-11 17:07:00,60.1,55.6,19.47,ESE,115,5.0,5.0,85,0.00,,SKC,0.13,VWS V14.01,2013-01-11 22:07:00,
2013-01-11 17:08:00,60.1,55.6,19.47,ESE,115,0.0,6.0,85,0.00,,SKC,0.13,VWS V14.01,2013-01-11 22:08:00,
2013-01-11 17:09:00,60.1,55.9,19.47,ESE,115,1.0,1.0,86,0.00,,SKC,0.13,VWS V14.01,2013-01-11 22:09:00,
2013-01-11 17:10:00,60.1,55.6,19.47,ESE,115,2.0,4.0,85,0.00,,SKC,0.13,VWS V14.01,2013-01-11 22:10:00,
2013-01-11 17:11:00,60.1,55.9,19.47,ESE,116,0.0,0.0,86,0.00,,SKC,0.13,VWS V14.01,2013-01-11 22:11:00,
2013-01-11 17:12:00,60.1,55.6,19.47,ESE,115,0.0,2.0,85,0.00,,SKC,0.13,VWS V14.01,2013-01-11 22:12:00,
2013-01-11 17:13:00,60.1,55.6,19.47,East,98,0.0,5.0,85,0.00,,SKC,0.13,VWS V14.01,2013-01-11 22:13:00,
2013-01-11 17:14:00,60.1,55.6,19.47,East,98,1.0,4.0,85,0.00,,SKC,0.13,VWS V14.01,2013-01-11 22:14:00,
2013-01-11 17:15:00,60.1,55.6,19.47,East,98,5.0,5.0,85,0.00,,SKC,0.13,VWS V14.01,2013-01-11 22:15:00,
2013-01-11 17:16:00,60.1,55.6,19.47,East,98,1.0,4.0,85,0.00,,SKC,0.13,VWS V14.01,2013-01-11 22:16:00,
2013-01-11 17:17:00,60.1,55.6,19.47,NE,54,2.0,6.0,85,0.00,,SKC,0.13,VWS V14.01,2013-01-11 22:17:00,
2013-01-11 17:18:00,60.1,55.6,19.47,NE,54,0.0,2.0,85,0.00,,SKC,0.13,VWS V14.01,2013-01-11 22:18:00,
2013-01-11 17:19:00,60.1,55.6,19.47,NE,54,2.0,3.0,85,0.00,,SKC,0.13,VWS V14.01,2013-01-11 22:19:00,
2013-01-11 17:20:00,60.1,55.6,19.47,NE,55,0.0,4.0,85,0.00,,SKC,0.13,VWS V14.01,2013-01-11 22:20:00,
2013-01-11 17:21:00,60.1,55.6,19.47,NE,54,2.0,3.0,85,0.00,,SKC,0.13,VWS V14.01,2013-01-11 22:21:00,
2013-01-11 17:22:00,60.1,55.6,19.47,ESE,102,2.0,5.0,85,0.00,,SKC,0.13,VWS V14.01,2013-01-11 22:22:00,
2013-01-11 17:23:00,60.1,55.6,19.47,NE,52,4.0,4.0,85,0.00,,SKC,0.13,VWS V14.01,2013-01-11 22:23:00,
2013-01-11 17:24:00,60.2,55.7,19.47,NE,50,2.0,5.0,85,0.00,,SKC,0.13,VWS V14.01,2013-01-11 22:24:00,
2013-01-11 17:25:00,60.2,55.7,19.47,NW,323,7.0,9.0,85,0.00,,SKC,0.13,VWS V14.01,2013-01-11 22:25:00,
2013-01-11 17:26:00,60.2,55.7,19.47,NE,51,2.0,5.0,85,0.00,,SKC,0.13,VWS V14.01,2013-01-11 22:26:00,
2013-01-11 17:27:00,60.4,55.9,19.47,ENE,75,1.0,5.0,85,0.00,,SKC,0.13,VWS V14.01,2013-01-11 22:27:00,
2013-01-11 17:28:00,60.4,55.9,19.47,ENE,76,3.0,3.0,85,0.00,,SKC,0.13,VWS V14.01,2013-01-11 22:28:00,
2013-01-11 17:29:00,60.4,55.9,19.47,ESE,102,4.0,4.0,85,0.00,,SKC,0.13,VWS V14.01,2013-01-11 22:29:00,
2013-01-11 17:30:00,60.4,55.9,19.47,ESE,103,4.0,5.0,85,0.00,,SKC,0.13,VWS V14.01,2013-01-11 22:30:00,
2013-01-11 17:31:00,60.4,55.9,19.47,East,86,4.0,4.0,85,0.00,,SKC,0.13,VWS V14.01,2013-01-11 22:31:00,
2013-01-11 17:32:00,60.3,56.1,19.47,East,98,1.0,7.0,86,0.00,,SKC,0.13,VWS V14.01,2013-01-11 22:32:00,
2013-01-11 17:33:00,60.3,56.1,19.47,NE,53,2.0,4.0,86,0.00,,SKC,0.13,VWS V14.01,2013-01-11 22:33:00,
2013-01-11 17:34:00,60.2,56.0,19.47,NE,38,2.0,7.0,86,0.00,,SKC,0.13,VWS V14.01,2013-01-11 22:34:00,
2013-01-11 17:35:00,60.1,55.9,19.47,East,79,2.0,5.0,86,0.00,,SKC,0.13,VWS V14.01,2013-01-11 22:35:00,
2013-01-11 17:36:00,60.2,56.0,19.47,NE,39,3.0,7.0,86,0.00,,SKC,0.13,VWS V14.01,2013-01-11 22:36:00,
2013-01-11 17:37:00,59.9,56.0,19.47,East,79,3.0,3.0,87,0.00,,SKC,0.13,VWS V14.01,2013-01-11 22:37:00,
2013-01-11 17:38:00,59.9,56.0,19.47,East,79,1.0,3.0,87,0.00,,SKC,0.13,VWS V14.01,2013-01-11 22:38:00,
2013-01-11 17:39:00,59.8,55.9,19.47,East,79,2.0,3.0,87,0.00,,SKC,0.13,VWS V14.01,2013-01-11 22:39:00,
2013-01-11 17:40:00,59.7,55.8,19.47,ENE,78,3.0,4.0,87,0.00,,SKC,0.13,VWS V14.01,2013-01-11 22:40:00,
2013-01-11 17:41:00,59.8,55.9,19.47,East,79,2.0,3.0,87,0.00,,SKC,0.13,VWS V14.01,2013-01-11 22:41:00,
2013-01-11 17:42:00,59.5,55.6,19.47,SE,126,4.0,5.0,87,0.00,,SKC,0.13,VWS V14.01,2013-01-11 22:42:00,
2013-01-11 17:43:00,59.4,55.8,19.47,SE,144,2.0,7.0,88,0.00,,SKC,0.13,VWS V14.01,2013-01-11 22:43:00,
2013-01-11 17:44:00,59.3,55.8,19.47,SE,144,0.0,4.0,88,0.00,,SKC,0.13,VWS V14.01,2013-01-11 22:44:00,
2013-01-11 17:45:00,59.3,55.8,19.47,SE,144,4.0,4.0,88,0.00,,SKC,0.13,VWS V14.01,2013-01-11 22:45:00,
2013-01-11 17:46:00,59.3,55.8,19.47,SE,144,0.0,4.0,88,0.00,,SKC,0.13,VWS V14.01,2013-01-11 22:46:00,
2013-01-11 17:47:00,59.2,55.7,19.47,SW,219,1.0,3.0,88,0.00,,SKC,0.13,VWS V14.01,2013-01-11 22:47:00,
2013-01-11 17:48:00,59.1,55.6,19.47,SW,219,3.0,3.0,88,0.00,,SKC,0.13,VWS V14.01,2013-01-11 22:48:00,
2013-01-11 17:49:00,59.0,55.5,19.47,SSE,148,4.0,5.0,88,0.00,,SKC,0.13,VWS V14.01,2013-01-11 22:49:00,
2013-01-11 17:50:00,59.0,55.5,19.47,SSE,148,1.0,4.0,88,0.00,,SKC,0.13,VWS V14.01,2013-01-11 22:50:00,
2013-01-11 17:51:00,59.1,55.5,19.47,SSE,148,4.0,5.0,88,0.00,,SKC,0.13,VWS V14.01,2013-01-11 22:51:00,
2013-01-11 17:52:00,59.0,55.5,19.47,SSE,148,1.0,1.0,88,0.00,,SKC,0.13,VWS V14.01,2013-01-11 22:52:00,
2013-01-11 17:53:00,59.0,55.5,19.47,SSE,148,2.0,2.0,88,0.00,,SKC,0.13,VWS V14.01,2013-01-11 22:53:00,
2013-01-11 17:54:00,59.0,55.5,19.47,SSW,200,2.0,3.0,88,0.00,,SKC,0.13,VWS V14.01,2013-01-11 22:54:00,
2013-01-11 17:55:00,59.0,55.5,19.47,SSW,200,0.0,2.0,88,0.00,,SKC,0.13,VWS V14.01,2013-01-11 22:55:00,
2013-01-11 17:56:00,59.0,55.5,19.47,SSW,200,3.0,3.0,88,0.00,,SKC,0.13,VWS V14.01,2013-01-11 22:56:00,
2013-01-11 17:57:00,59.0,55.5,19.47,SSE,164,1.0,2.0,88,0.00,,SKC,0.13,VWS V14.01,2013-01-11 22:57:00,
2013-01-11 17:58:00,59.0,55.8,19.47,SSE,164,0.0,2.0,89,0.00,,SKC,0.13,VWS V14.01,2013-01-11 22:58:00,
2013-01-11 17:59:00,59.0,55.8,19.47,SSE,164,0.0,4.0,89,0.00,,SKC,0.13,VWS V14.01,2013-01-11 22:59:00,
2013-01-11 18:00:00,59.0,55.8,19.47,SSE,164,0.0,0.0,89,0.00,,SKC,0.13,VWS V14.01,2013-01-11 23:00:00,
2013-01-11 18:01:00,59.0,55.8,19.47,SSE,164,1.0,4.0,89,0.00,,SKC,0.13,VWS V14.01,2013-01-11 23:01:00,
2013-01-11 18:02:00,59.0,55.8,19.47,SSE,164,1.0,4.0,89,0.00,,SKC,0.13,VWS V14.01,2013-01-11 23:02:00,
2013-01-11 18:03:00,59.0,55.8,19.47,SSE,164,1.0,1.0,89,0.00,,SKC,0.13,VWS V14.01,2013-01-11 23:03:00,
2013-01-11 18:04:00,58.9,55.7,19.47,SSE,164,0.0,1.0,89,0.00,,SKC,0.13,VWS V14.01,2013-01-11 23:04:00,
2013-01-11 18:05:00,58.8,55.6,19.47,SSE,164,0.0,0.0,89,0.00,,SKC,0.13,VWS V14.01,2013-01-11 23:05:00,
2013-01-11 18:06:00,58.9,55.7,19.47,SSE,164,0.0,1.0,89,0.00,,SKC,0.13,VWS V14.01,2013-01-11 23:06:00,
2013-01-11 18:07:00,58.6,55.4,19.47,SSE,164,0.0,4.0,89,0.00,,SKC,0.13,VWS V14.01,2013-01-11 23:07:00,
2013-01-11 18:08:00,58.5,55.3,19.47,SSE,164,0.0,1.0,89,0.00,,SKC,0.13,VWS V14.01,2013-01-11 23:08:00,
2013-01-11 18:09:00,58.4,55.2,19.47,SSE,164,0.0,0.0,89,0.00,,SKC,0.13,VWS V14.01,2013-01-11 23:09:00,
2013-01-11 18:10:00,58.3,55.1,19.47,SSE,164,0.0,0.0,89,0.00,,SKC,0.13,VWS V14.01,2013-01-11 23:10:00,
2013-01-11 18:11:00,58.4,55.2,19.47,SSE,164,0.0,0.0,89,0.00,,SKC,0.13,VWS V14.01,2013-01-11 23:11:00,
2013-01-11 18:12:00,58.2,55.0,19.47,SSE,164,2.0,2.0,89,0.00,,SKC,0.13,VWS V14.01,2013-01-11 23:12:00,
2013-01-11 18:13:00,58.1,54.9,19.47,SSE,164,1.0,2.0,89,0.00,,SKC,0.13,VWS V14.01,2013-01-11 23:13:00,
2013-01-11 18:14:00,58.0,54.8,19.47,SSE,164,0.0,1.0,89,0.00,,SKC,0.13,VWS V14.01,2013-01-11 23:14:00,
2013-01-11 18:15:00,57.9,55.0,19.47,SSE,160,0.0,1.0,90,0.00,,SKC,0.13,VWS V14.01,2013-01-11 23:15:00,
2013-01-11 18:16:00,58.0,54.8,19.47,SSE,164,0.0,1.0,89,0.00,,SKC,0.13,VWS V14.01,2013-01-11 23:16:00,
2013-01-11 18:17:00,57.8,54.9,19.47,ENE,64,6.0,6.0,90,0.00,,SKC,0.13,VWS V14.01,2013-01-11 23:17:00,
2013-01-11 18:18:00,57.9,55.0,19.47,NE,49,2.0,6.0,90,0.00,,SKC,0.13,VWS V14.01,2013-01-11 23:18:00,
2013-01-11 18:19:00,58.0,55.1,19.47,NE,51,1.0,2.0,90,0.00,,SKC,0.13,VWS V14.01,2013-01-11 23:19:00,
2013-01-11 18:20:00,58.0,55.1,19.47,NE,46,3.0,4.0,90,0.00,,SKC,0.13,VWS V14.01,2013-01-11 23:20:00,
2013-01-11 18:21:00,58.0,55.1,19.47,NE,50,0.0,2.0,90,0.00,,SKC,0.13,VWS V14.01,2013-01-11 23:21:00,
2013-01-11 18:22:00,58.2,55.3,19.47,East,84,0.0,4.0,90,0.00,,SKC,0.13,VWS V14.01,2013-01-11 23:22:00,
2013-01-11 18:23:00,58.3,55.4,19.47,East,83,1.0,1.0,90,0.00,,SKC,0.13,VWS V14.01,2013-01-11 23:23:00,
2013-01-11 18:24:00,58.4,55.5,19.47,East,86,2.0,4.0,90,0.00,,SKC,0.13,VWS V14.01,2013-01-11 23:24:00,
2013-01-11 18:25:00,58.4,55.5,19.47,East,87,3.0,3.0,90,0.00,,SKC,0.13,VWS V14.01,2013-01-11 23:25:00,
2013-01-11 18:26:00,58.3,55.4,19.47,East,86,4.0,4.0,90,0.00,,SKC,0.13,VWS V14.01,2013-01-11 23:26:00,
2013-01-11 18:27:00,58.7,55.5,19.47,East,87,1.0,4.0,89,0.00,,SKC,0.13,VWS V14.01,2013-01-11 23:27:00,
2013-01-11 18:28:00,58.8,55.6,19.47,East,87,0.0,1.0,89,0.00,,SKC,0.13,VWS V14.01,2013-01-11 23:28:00,
2013-01-11 18:29:00,58.9,55.7,19.47,East,87,1.0,1.0,89,0.00,,SKC,0.13,VWS V14.01,2013-01-11 23:29:00,
2013-01-11 18:30:00,59.0,55.8,19.47,East,87,2.0,3.0,89,0.00,,SKC,0.13,VWS V14.01,2013-01-11 23:30:00,
2013-01-11 18:31:00,58.9,55.7,19.47,East,87,0.0,1.0,89,0.00,,SKC,0.13,VWS V14.01,2013-01-11 23:31:00,
2013-01-11 18:32:00,59.0,55.5,19.47,East,87,2.0,2.0,88,0.00,,SKC,0.13,VWS V14.01,2013-01-11 23:32:00,
2013-01-11 18:33:00,59.0,55.5,19.47,East,87,3.0,4.0,88,0.00,,SKC,0.13,VWS V14.01,2013-01-11 23:33:00,
2013-01-11 18:34:00,59.0,55.5,19.47,East,88,0.0,3.0,88,0.00,,SKC,0.13,VWS V14.01,2013-01-11 23:34:00,
2013-01-11 18:35:00,59.0,55.5,19.47,East,89,3.0,4.0,88,0.00,,SKC,0.13,VWS V14.01,2013-01-11 23:35:00,
2013-01-11 18:36:00,59.0,55.5,19.47,East,88,0.0,3.0,88,0.00,,SKC,0.13,VWS V14.01,2013-01-11 23:36:00,
2013-01-11 18:37:00,59.0,55.5,19.47,East,88,2.0,3.0,88,0.00,,SKC,0.13,VWS V14.01,2013-01-11 23:37:00,
2013-01-11 18:38:00,59.0,55.5,19.47,East,88,0.0,3.0,88,0.00,,SKC,0.13,VWS V14.01,2013-01-11 23:38:00,
2013-01-11 18:39:00,59.0,55.5,19.47,East,89,0.0,0.0,88,0.00,,SKC,0.13,VWS V14.01,2013-01-11 23:39:00,
2013-01-11 18:40:00,59.0,55.5,19.47,East,89,0.0,0.0,88,0.00,,SKC,0.13,VWS V14.01,2013-01-11 23:40:00,
2013-01-11 18:41:00,59.0,55.5,19.47,East,89,0.0,0.0,88,0.00,,SKC,0.13,VWS V14.01,2013-01-11 23:41:00,
2013-01-11 18:42:00,59.0,55.5,19.47,East,90,4.0,4.0,88,0.00,,SKC,0.13,VWS V14.01,2013-01-11 23:42:00,
2013-01-11 18:43:00,59.0,55.5,19.47,SSE,153,0.0,5.0,88,0.00,,SKC,0.13,VWS V14.01,2013-01-11 23:43:00,
2013-01-11 18:44:00,59.0,55.8,19.47,SSE,153,2.0,4.0,89,0.00,,SKC,0.13,VWS V14.01,2013-01-11 23:44:00,
2013-01-11 18:45:00,59.0,55.8,19.47,SSE,153,0.0,4.0,89,0.00,,SKC,0.13,VWS V14.01,2013-01-11 23:45:00,
2013-01-11 18:46:00,59.0,55.8,19.47,SSE,153,1.0,1.0,89,0.00,,SKC,0.13,VWS V14.01,2013-01-11 23:46:00,
2013-01-11 18:47:00,59.0,55.8,19.47,SSE,154,2.0,4.0,89,0.00,,SKC,0.13,VWS V14.01,2013-01-11 23:47:00,
2013-01-11 18:48:00,59.0,55.5,19.47,SSE,154,1.0,4.0,88,0.00,,SKC,0.13,VWS V14.01,2013-01-11 23:48:00,
2013-01-11 18:49:00,59.0,55.5,19.47,SSE,154,0.0,1.0,88,0.00,,SKC,0.13,VWS V14.01,2013-01-11 23:49:00,
2013-01-11 18:50:00,59.0,55.5,19.47,SSE,153,0.0,0.0,88,0.00,,SKC,0.13,VWS V14.01,2013-01-11 23:50:00,
2013-01-11 18:51:00,59.0,55.5,19.47,SSE,154,0.0,1.0,88,0.00,,SKC,0.13,VWS V14.01,2013-01-11 23:51:00,
2013-01-11 18:52:00,59.0,55.5,19.47,SSE,154,1.0,4.0,88,0.00,,SKC,0.13,VWS V14.01,2013-01-11 23:52:00,
2013-01-11 18:53:00,59.0,55.8,19.47,SSE,153,4.0,4.0,89,0.00,,SKC,0.13,VWS V14.01,2013-01-11 23:53:00,
2013-01-11 18:54:00,59.0,55.8,19.47,SSE,153,2.0,4.0,89,0.00,,SKC,0.13,VWS V14.01,2013-01-11 23:54:00,
2013-01-11 18:55:00,59.0,55.8,19.47,SSE,154,0.0,2.0,89,0.00,,SKC,0.13,VWS V14.01,2013-01-11 23:55:00,
2013-01-11 18:56:00,59.0,55.8,19.47,SSE,154,2.0,4.0,89,0.00,,SKC,0.13,VWS V14.01,2013-01-11 23:56:00,
2013-01-11 18:57:00,59.0,55.8,19.47,SSE,148,0.0,5.0,89,0.00,,SKC,0.13,VWS V14.01,2013-01-11 23:57:00,
2013-01-11 18:58:00,59.0,55.8,19.47,SSE,148,1.0,4.0,89,0.00,,SKC,0.13,VWS V14.01,2013-01-11 23:58:00,
2013-01-11 18:59:00,59.0,55.8,19.47,SSE,148,2.0,2.0,89,0.00,,SKC,0.13,VWS V14.01,2013-01-11 23:59:00,
2013-01-11 19:00:00,59.0,55.5,19.47,SSE,149,5.0,5.0,88,0.00,,SKC,0.13,VWS V14.01,2013-01-12 00:00:00,
2013-01-11 19:01:00,59.0,55.8,19.47,SSE,148,0.0,1.0,89,0.00,,SKC,0.13,VWS V14.01,2013-01-12 00:01:00,
2013-01-11 19:02:00,59.0,55.5,19.47,South,173,1.0,2.0,88,0.00,,SKC,0.13,VWS V14.01,2013-01-12 00:02:00,
2013-01-11 19:03:00,59.0,55.5,19.47,ESE,103,0.0,4.0,88,0.00,,SKC,0.13,VWS V14.01,2013-01-12 00:03:00,
2013-01-11 19:04:00,59.1,55.6,19.47,ESE,103,1.0,2.0,88,0.00,,SKC,0.13,VWS V14.01,2013-01-12 00:04:00,
2013-01-11 19:05:00,59.1,55.6,19.47,ESE,115,5.0,5.0,88,0.00,,SKC,0.13,VWS V14.01,2013-01-12 00:05:00,
2013-01-11 19:06:00,59.0,55.5,19.47,ESE,103,0.0,0.0,88,0.00,,SKC,0.13,VWS V14.01,2013-01-12 00:06:00,
2013-01-11 19:07:00,59.1,55.6,19.47,ESE,116,0.0,1.0,88,0.00,,SKC,0.13,VWS V14.01,2013-01-12 00:07:00,
2013-01-11 19:08:00,59.1,55.6,19.47,ESE,116,1.0,1.0,88,0.00,,SKC,0.13,VWS V14.01,2013-01-12 00:08:00,
2013-01-11 19:09:00,59.1,55.6,19.47,ESE,116,1.0,1.0,88,0.00,,SKC,0.13,VWS V14.01,2013-01-12 00:09:00,
2013-01-11 19:10:00,59.1,55.6,19.47,ESE,116,2.0,4.0,88,0.00,,SKC,0.13,VWS V14.01,2013-01-12 00:10:00,
2013-01-11 19:11:00,59.1,55.5,19.47,ESE,116,0.0,1.0,88,0.00,,SKC,0.13,VWS V14.01,2013-01-12 00:11:00,
2013-01-11 19:12:00,59.0,55.5,19.47,ESE,115,0.0,2.0,88,0.00,,SKC,0.13,VWS V14.01,2013-01-12 00:12:00,
2013-01-11 19:13:00,59.0,55.5,19.47,ESE,116,4.0,4.0,88,0.00,,SKC,0.13,VWS V14.01,2013-01-12 00:13:00,
2013-01-11 19:14:00,59.0,55.5,19.47,ESE,116,0.0,4.0,88,0.00,,SKC,0.13,VWS V14.01,2013-01-12 00:14:00,
2013-01-11 19:15:00,59.0,55.5,19.47,ESE,116,0.0,0.0,88,0.00,,SKC,0.13,VWS V14.01,2013-01-12 00:15:00,
2013-01-11 19:16:00,59.0,55.5,19.47,ESE,116,0.0,4.0,88,0.00,,SKC,0.13,VWS V14.01,2013-01-12 00:16:00,
2013-01-11 19:17:00,59.0,55.5,19.47,ESE,116,4.0,4.0,88,0.00,,SKC,0.13,VWS V14.01,2013-01-12 00:17:00,
2013-01-11 19:18:00,59.0,55.5,19.47,ESE,115,4.0,5.0,88,0.00,,SKC,0.13,VWS V14.01,2013-01-12 00:18:00,
2013-01-11 19:19:00,59.0,55.5,19.47,ESE,115,0.0,4.0,88,0.00,,SKC,0.13,VWS V14.01,2013-01-12 00:19:00,
2013-01-11 19:20:00,59.0,55.5,19.47,ESE,116,1.0,1.0,88,0.00,,SKC,0.13,VWS V14.01,2013-01-12 00:20:00,
2013-01-11 19:21:00,59.0,55.5,19.47,ESE,116,1.0,4.0,88,0.00,,SKC,0.13,VWS V14.01,2013-01-12 00:21:00,
2013-01-11 19:22:00,59.0,55.8,19.47,ESE,115,0.0,1.0,89,0.00,,SKC,0.13,VWS V14.01,2013-01-12 00:22:00,
2013-01-11 19:23:00,59.0,55.8,19.47,ESE,116,0.0,1.0,89,0.00,,SKC,0.13,VWS V14.01,2013-01-12 00:23:00,
2013-01-11 19:24:00,58.9,55.7,19.47,ESE,115,4.0,4.0,89,0.00,,SKC,0.13,VWS V14.01,2013-01-12 00:24:00,
2013-01-11 19:25:00,58.8,55.6,19.47,ESE,115,2.0,5.0,89,0.00,,SKC,0.13,VWS V14.01,2013-01-12 00:25:00,
2013-01-11 19:26:00,58.9,55.7,19.47,ESE,115,2.0,2.0,89,0.00,,SKC,0.13,VWS V14.01,2013-01-12 00:26:00,
2013-01-11 19:27:00,58.6,55.4,19.47,ESE,115,0.0,2.0,89,0.00,,SKC,0.13,VWS V14.01,2013-01-12 00:27:00,
2013-01-11 19:28:00,58.6,55.4,19.47,ESE,115,0.0,2.0,89,0.00,,SKC,0.13,VWS V14.01,2013-01-12 00:28:00,
2013-01-11 19:29:00,58.5,55.3,19.47,ESE,116,0.0,1.0,89,0.00,,SKC,0.13,VWS V14.01,2013-01-12 00:29:00,
2013-01-11 19:30:00,58.4,55.2,19.47,ESE,116,1.0,2.0,89,0.00,,SKC,0.13,VWS V14.01,2013-01-12 00:30:00,
2013-01-11 19:31:00,58.5,55.3,19.47,ESE,115,0.0,1.0,89,0.00,,SKC,0.13,VWS V14.01,2013-01-12 00:31:00,
2013-01-11 19:32:00,58.4,55.5,19.47,ESE,115,2.0,2.0,90,0.00,,SKC,0.13,VWS V14.01,2013-01-12 00:32:00,
2013-01-11 19:33:00,58.3,55.4,19.47,ESE,117,4.0,4.0,90,0.00,,SKC,0.13,VWS V14.01,2013-01-12 00:33:00,
2013-01-11 19:34:00,58.3,56.0,19.47,ESE,118,1.0,4.0,92,0.00,,SKC,0.13,VWS V14.01,2013-01-12 00:34:00,
2013-01-11 19:35:00,58.3,55.4,19.47,ESE,118,0.0,4.0,90,0.00,,SKC,0.13,VWS V14.01,2013-01-12 00:35:00,
2013-01-11 19:36:00,58.3,55.4,19.47,ESE,118,2.0,4.0,90,0.00,,SKC,0.13,VWS V14.01,2013-01-12 00:36:00,
2013-01-11 19:37:00,58.2,55.3,19.47,ESE,118,0.0,0.0,90,0.00,,SKC,0.13,VWS V14.01,2013-01-12 00:37:00,
2013-01-11 19:38:00,58.2,55.3,19.47,ESE,118,0.0,0.0,90,0.00,,SKC,0.13,VWS V14.01,2013-01-12 00:38:00,
2013-01-11 19:39:00,58.1,55.2,19.47,ESE,118,0.0,1.0,90,0.00,,SKC,0.13,VWS V14.01,2013-01-12 00:39:00,
2013-01-11 19:40:00,58.1,55.2,19.47,ESE,118,0.0,0.0,90,0.00,,SKC,0.13,VWS V14.01,2013-01-12 00:40:00,
2013-01-11 19:41:00,58.2,55.3,19.47,ESE,118,0.0,0.0,90,0.00,,SKC,0.13,VWS V14.01,2013-01-12 00:41:00,
2013-01-11 19:42:00,58.1,55.2,19.47,ESE,118,0.0,1.0,90,0.00,,SKC,0.13,VWS V14.01,2013-01-12 00:42:00,
2013-01-11 19:43:00,58.0,55.1,19.47,ESE,118,2.0,2.0,90,0.00,,SKC,0.13,VWS V14.01,2013-01-12 00:43:00,
2013-01-11 19:44:00,58.0,55.1,19.47,ESE,118,0.0,2.0,90,0.00,,SKC,0.13,VWS V14.01,2013-01-12 00:44:00,
2013-01-11 19:45:00,58.0,55.1,19.47,ESE,118,4.0,4.0,90,0.00,,SKC,0.13,VWS V14.01,2013-01-12 00:45:00,
2013-01-11 19:46:00,58.0,55.1,19.47,ESE,118,2.0,2.0,90,0.00,,SKC,0.13,VWS V14.01,2013-01-12 00:46:00,
2013-01-11 19:47:00,58.0,55.4,19.47,ESE,118,0.0,1.0,91,0.00,,SKC,0.13,VWS V14.01,2013-01-12 00:47:00,
2013-01-11 19:48:00,58.0,55.4,19.47,ESE,118,0.0,1.0,91,0.00,,SKC,0.13,VWS V14.01,2013-01-12 00:48:00,
2013-01-11 19:49:00,58.0,55.4,19.47,ESE,118,0.0,0.0,91,0.00,,SKC,0.13,VWS V14.01,2013-01-12 00:49:00,
2013-01-11 19:50:00,58.1,55.5,19.47,ESE,118,0.0,0.0,91,0.00,,SKC,0.13,VWS V14.01,2013-01-12 00:50:00,
2013-01-11 19:51:00,58.0,55.4,19.47,ESE,118,0.0,0.0,91,0.00,,SKC,0.13,VWS V14.01,2013-01-12 00:51:00,
2013-01-11 19:52:00,58.2,55.6,19.47,ESE,118,4.0,5.0,91,0.00,,SKC,0.13,VWS V14.01,2013-01-12 00:52:00,
2013-01-11 19:53:00,58.2,55.6,19.47,ESE,118,2.0,4.0,91,0.00,,SKC,0.13,VWS V14.01,2013-01-12 00:53:00,
2013-01-11 19:54:00,58.2,55.6,19.47,ESE,118,2.0,4.0,91,0.00,,SKC,0.13,VWS V14.01,2013-01-12 00:54:00,
2013-01-11 19:55:00,58.3,55.7,19.47,SSE,148,2.0,6.0,91,0.00,,SKC,0.13,VWS V14.01,2013-01-12 00:55:00,
2013-01-11 19:56:00,58.2,55.6,19.47,ESE,118,4.0,4.0,91,0.00,,SKC,0.13,VWS V14.01,2013-01-12 00:56:00,
2013-01-11 19:57:00,58.4,55.5,19.47,SSE,156,0.0,1.0,90,0.00,,SKC,0.13,VWS V14.01,2013-01-12 00:57:00,
2013-01-11 19:58:00,58.5,55.6,19.47,SSE,156,0.0,4.0,90,0.00,,SKC,0.13,VWS V14.01,2013-01-12 00:58:00,
2013-01-11 19:59:00,58.5,55.6,19.47,SSE,156,0.0,1.0,90,0.00,,SKC,0.13,VWS V14.01,2013-01-12 00:59:00,
2013-01-11 20:00:00,58.6,55.7,19.47,SSE,156,2.0,5.0,90,0.00,,SKC,0.13,VWS V14.01,2013-01-12 01:00:00,
2013-01-11 20:01:00,58.5,55.6,19.47,SSE,156,0.0,1.0,90,0.00,,SKC,0.13,VWS V14.01,2013-01-12 01:01:00,
2013-01-11 20:02:00,58.7,55.8,19.47,SSE,156,2.0,4.0,90,0.00,,SKC,0.13,VWS V14.01,2013-01-12 01:02:00,
2013-01-11 20:03:00,58.7,55.8,19.47,SSE,156,0.0,2.0,90,0.00,,SKC,0.13,VWS V14.01,2013-01-12 01:03:00,
2013-01-11 20:04:00,58.8,55.9,19.47,SSE,157,1.0,1.0,90,0.00,,SKC,0.13,VWS V14.01,2013-01-12 01:04:00,
2013-01-11 20:05:00,58.7,55.5,19.47,SSE,156,0.0,1.0,89,0.00,,SKC,0.13,VWS V14.01,2013-01-12 01:05:00,
2013-01-11 20:06:00,58.7,55.8,19.47,SSE,156,0.0,0.0,90,0.00,,SKC,0.13,VWS V14.01,2013-01-12 01:06:00,
2013-01-11 20:07:00,58.7,55.5,19.47,SSE,156,0.0,1.0,89,0.00,,SKC,0.13,VWS V14.01,2013-01-12 01:07:00,
2013-01-11 20:08:00,58.7,55.5,19.47,SSE,156,0.0,0.0,89,0.00,,SKC,0.13,VWS V14.01,2013-01-12 01:08:00,
2013-01-11 20:09:00,58.7,55.5,19.47,SSE,156,2.0,2.0,89,0.00,,SKC,0.13,VWS V14.01,2013-01-12 01:09:00,
2013-01-11 20:10:00,58.7,55.5,19.47,SSE,156,1.0,1.0,89,0.00,,SKC,0.13,VWS V14.01,2013-01-12 01:10:00,
2013-01-11 20:11:00,58.6,55.7,19.47,SSE,155,5.0,5.0,90,0.00,,SKC,0.13,VWS V14.01,2013-01-12 01:11:00,
2013-01-11 20:12:00,58.6,55.7,19.47,SSE,155,1.0,5.0,90,0.00,,SKC,0.13,VWS V14.01,2013-01-12 01:12:00,
2013-01-11 20:13:00,58.6,55.7,19.47,SSE,155,2.0,2.0,90,0.00,,SKC,0.13,VWS V14.01,2013-01-12 01:13:00,
2013-01-11 20:14:00,58.6,55.7,19.47,SSE,155,1.0,4.0,90,0.00,,SKC,0.13,VWS V14.01,2013-01-12 01:14:00,
2013-01-11 20:15:00,58.6,55.7,19.47,SSE,155,4.0,4.0,90,0.00,,SKC,0.13,VWS V14.01,2013-01-12 01:15:00,
2013-01-11 20:16:00,58.5,55.6,19.47,SSE,155,0.0,2.0,90,0.00,,SKC,0.13,VWS V14.01,2013-01-12 01:16:00,
2013-01-11 20:17:00,58.5,55.6,19.47,SSE,155,0.0,0.0,90,0.00,,SKC,0.13,VWS V14.01,2013-01-12 01:17:00,
2013-01-11 20:18:00,58.4,55.5,19.47,SSE,155,2.0,2.0,90,0.00,,SKC,0.13,VWS V14.01,2013-01-12 01:18:00,
2013-01-11 20:19:00,58.4,55.5,19.47,SSE,155,1.0,4.0,90,0.00,,SKC,0.13,VWS V14.01,2013-01-12 01:19:00,
2013-01-11 20:20:00,58.4,55.5,19.47,SSE,155,0.0,4.0,90,0.00,,SKC,0.13,VWS V14.01,2013-01-12 01:20:00,
2013-01-11 20:21:00,58.4,55.5,19.47,SSE,155,0.0,0.0,90,0.00,,SKC,0.13,VWS V14.01,2013-01-12 01:21:00,
2013-01-11 20:22:00,58.4,55.5,19.47,SSE,155,2.0,4.0,90,0.00,,SKC,0.13,VWS V14.01,2013-01-12 01:22:00,
2013-01-11 20:23:00,58.4,55.5,19.47,SSE,155,0.0,2.0,90,0.00,,SKC,0.13,VWS V14.01,2013-01-12 01:23:00,
2013-01-11 20:24:00,58.4,55.5,19.47,SSE,155,0.0,0.0,90,0.00,,SKC,0.13,VWS V14.01,2013-01-12 01:24:00,
2013-01-11 20:25:00,58.4,55.5,19.47,SSE,155,0.0,0.0,90,0.00,,SKC,0.13,VWS V14.01,2013-01-12 01:25:00,
2013-01-11 20:26:00,58.3,55.4,19.47,SSE,155,0.0,0.0,90,0.00,,SKC,0.13,VWS V14.01,2013-01-12 01:26:00,
2013-01-11 20:27:00,58.3,55.4,19.47,SSE,155,0.0,0.0,90,0.00,,SKC,0.13,VWS V14.01,2013-01-12 01:27:00,
2013-01-11 20:28:00,58.3,55.4,19.47,SSE,155,0.0,0.0,90,0.00,,SKC,0.13,VWS V14.01,2013-01-12 01:28:00,
2013-01-11 20:29:00,58.2,55.3,19.47,SSE,155,0.0,1.0,90,0.00,,SKC,0.13,VWS V14.01,2013-01-12 01:29:00,
2013-01-11 20:30:00,58.3,55.4,19.47,SSE,155,0.0,0.0,90,0.00,,SKC,0.13,VWS V14.01,2013-01-12 01:30:00,
2013-01-11 20:31:00,58.1,55.2,19.47,SSE,155,0.0,0.0,90,0.00,,SKC,0.13,VWS V14.01,2013-01-12 01:31:00,
2013-01-11 20:32:00,58.0,55.1,19.47,SSE,155,0.0,0.0,90,0.00,,SKC,0.13,VWS V14.01,2013-01-12 01:32:00,
2013-01-11 20:33:00,58.0,55.1,19.47,SSE,155,1.0,1.0,90,0.00,,SKC,0.13,VWS V14.01,2013-01-12 01:33:00,
2013-01-11 20:34:00,57.9,55.0,19.47,SSE,155,0.0,2.0,90,0.00,,SKC,0.13,VWS V14.01,2013-01-12 01:34:00,
2013-01-11 20:35:00,57.9,55.0,19.47,SSE,155,2.0,2.0,90,0.00,,SKC,0.13,VWS V14.01,2013-01-12 01:35:00,
2013-01-11 20:36:00,58.0,55.4,19.47,SSE,155,1.0,4.0,91,0.00,,SKC,0.13,VWS V14.01,2013-01-12 01:36:00,
2013-01-11 20:37:00,58.0,55.4,19.47,SSE,155,0.0,2.0,91,0.00,,SKC,0.13,VWS V14.01,2013-01-12 01:37:00,
2013-01-11 20:38:00,58.1,55.5,19.47,SSE,155,0.0,0.0,91,0.00,,SKC,0.13,VWS V14.01,2013-01-12 01:38:00,
2013-01-11 20:39:00,58.2,55.6,19.47,SSE,155,0.0,0.0,91,0.00,,SKC,0.13,VWS V14.01,2013-01-12 01:39:00,
2013-01-11 20:40:00,58.1,55.5,19.47,SSE,155,0.0,0.0,91,0.00,,SKC,0.13,VWS V14.01,2013-01-12 01:40:00,
2013-01-11 20:41:00,58.2,55.3,19.47,SSE,155,0.0,0.0,90,0.00,,SKC,0.13,VWS V14.01,2013-01-12 01:41:00,
2013-01-11 20:42:00,58.2,55.3,19.47,SSE,155,0.0,0.0,90,0.00,,SKC,0.13,VWS V14.01,2013-01-12 01:42:00,
2013-01-11 20:43:00,58.1,55.2,19.47,SSE,155,0.0,0.0,90,0.00,,SKC,0.13,VWS V14.01,2013-01-12 01:43:00,
2013-01-11 20:44:00,58.1,55.2,19.47,SSE,155,0.0,0.0,90,0.00,,SKC,0.13,VWS V14.01,2013-01-12 01:44:00,
2013-01-11 20:45:00,58.1,55.2,19.47,SSE,155,0.0,0.0,90,0.00,,SKC,0.13,VWS V14.01,2013-01-12 01:45:00,
2013-01-11 20:46:00,58.1,55.2,19.47,SSE,155,0.0,1.0,90,0.00,,SKC,0.13,VWS V14.01,2013-01-12 01:46:00,
2013-01-11 20:47:00,58.1,55.2,19.47,SSE,155,1.0,2.0,90,0.00,,SKC,0.13,VWS V14.01,2013-01-12 01:47:00,
2013-01-11 20:48:00,58.1,55.2,19.47,SSE,155,0.0,2.0,90,0.00,,SKC,0.13,VWS V14.01,2013-01-12 01:48:00,
2013-01-11 20:49:00,58.1,55.5,19.47,SSE,155,0.0,1.0,91,0.00,,SKC,0.13,VWS V14.01,2013-01-12 01:49:00,
2013-01-11 20:50:00,58.1,55.5,19.47,SSE,155,1.0,1.0,91,0.00,,SKC,0.13,VWS V14.01,2013-01-12 01:50:00,
2013-01-11 20:51:00,58.2,55.6,19.47,SSE,155,0.0,2.0,91,0.00,,SKC,0.13,VWS V14.01,2013-01-12 01:51:00,
2013-01-11 20:52:00,58.3,55.7,19.47,SSE,155,0.0,1.0,91,0.00,,SKC,0.13,VWS V14.01,2013-01-12 01:52:00,
2013-01-11 20:53:00,58.4,55.8,19.47,SSE,155,1.0,1.0,91,0.00,,SKC,0.13,VWS V14.01,2013-01-12 01:53:00,
2013-01-11 20:54:00,58.4,55.8,19.47,SSE,155,2.0,2.0,91,0.00,,SKC,0.13,VWS V14.01,2013-01-12 01:54:00,
2013-01-11 20:55:00,58.4,55.8,19.47,SSE,155,0.0,2.0,91,0.00,,SKC,0.13,VWS V14.01,2013-01-12 01:55:00,
2013-01-11 20:56:00,58.5,55.9,19.47,SSE,155,0.0,0.0,91,0.00,,SKC,0.13,VWS V14.01,2013-01-12 01:56:00,
2013-01-11 20:57:00,58.6,56.0,19.47,SSE,155,1.0,1.0,91,0.00,,SKC,0.13,VWS V14.01,2013-01-12 01:57:00,
2013-01-11 20:58:00,58.6,56.0,19.47,SSE,155,0.0,2.0,91,0.00,,SKC,0.13,VWS V14.01,2013-01-12 01:58:00,
2013-01-11 20:59:00,58.6,56.0,19.47,SSE,155,0.0,0.0,91,0.00,,SKC,0.13,VWS V14.01,2013-01-12 01:59:00,
2013-01-11 21:00:00,58.6,56.0,19.47,SSE,155,0.0,0.0,91,0.00,,SKC,0.13,VWS V14.01,2013-01-12 02:00:00,
2013-01-11 21:01:00,58.6,56.0,19.47,SSE,155,2.0,2.0,91,0.00,,SKC,0.13,VWS V14.01,2013-01-12 02:01:00,
2013-01-11 21:02:00,58.6,56.0,19.47,SSE,155,1.0,4.0,91,0.00,,SKC,0.13,VWS V14.01,2013-01-12 02:02:00,
2013-01-11 21:03:00,58.6,56.0,19.47,SSE,155,0.0,2.0,91,0.00,,SKC,0.13,VWS V14.01,2013-01-12 02:03:00,
2013-01-11 21:04:00,58.6,56.0,19.47,SSE,155,1.0,2.0,91,0.00,,SKC,0.13,VWS V14.01,2013-01-12 02:04:00,
2013-01-11 21:05:00,58.6,56.0,19.47,SSE,155,1.0,1.0,91,0.00,,SKC,0.13,VWS V14.01,2013-01-12 02:05:00,
2013-01-11 21:06:00,58.6,56.0,19.47,SSE,155,1.0,2.0,91,0.00,,SKC,0.13,VWS V14.01,2013-01-12 02:06:00,
2013-01-11 21:07:00,58.6,56.0,19.47,SSE,155,0.0,1.0,91,0.00,,SKC,0.13,VWS V14.01,2013-01-12 02:07:00,
2013-01-11 21:08:00,58.5,55.9,19.47,SSE,155,4.0,4.0,91,0.00,,SKC,0.13,VWS V14.01,2013-01-12 02:08:00,
2013-01-11 21:09:00,58.5,55.9,19.47,SSE,155,0.0,4.0,91,0.00,,SKC,0.13,VWS V14.01,2013-01-12 02:09:00,
2013-01-11 21:10:00,58.5,55.9,19.47,SSE,155,0.0,4.0,91,0.00,,SKC,0.13,VWS V14.01,2013-01-12 02:10:00,
2013-01-11 21:11:00,58.5,55.9,19.47,SSE,155,2.0,4.0,91,0.00,,SKC,0.13,VWS V14.01,2013-01-12 02:11:00,
2013-01-11 21:12:00,58.4,55.8,19.47,SSE,155,1.0,2.0,91,0.00,,SKC,0.13,VWS V14.01,2013-01-12 02:12:00,
2013-01-11 21:13:00,58.4,55.8,19.47,SSE,155,0.0,4.0,91,0.00,,SKC,0.13,VWS V14.01,2013-01-12 02:13:00,
2013-01-11 21:14:00,58.4,55.8,19.47,SSE,155,0.0,1.0,91,0.00,,SKC,0.13,VWS V14.01,2013-01-12 02:14:00,
2013-01-11 21:15:00,58.4,55.8,19.47,SSE,155,0.0,1.0,91,0.00,,SKC,0.13,VWS V14.01,2013-01-12 02:15:00,
2013-01-11 21:16:00,58.4,55.8,19.47,SSE,165,0.0,5.0,91,0.00,,SKC,0.13,VWS V14.01,2013-01-12 02:16:00,
2013-01-11 21:17:00,58.4,56.1,19.47,SSE,165,0.0,1.0,92,0.00,,SKC,0.13,VWS V14.01,2013-01-12 02:17:00,
2013-01-11 21:18:00,58.4,56.1,19.47,SSE,165,0.0,0.0,92,0.00,,SKC,0.13,VWS V14.01,2013-01-12 02:18:00,
2013-01-11 21:19:00,58.4,56.1,19.47,SSE,165,4.0,5.0,92,0.00,,SKC,0.13,VWS V14.01,2013-01-12 02:19:00,
2013-01-11 21:20:00,58.4,56.1,19.47,SSE,165,1.0,1.0,92,0.00,,SKC,0.13,VWS V14.01,2013-01-12 02:20:00,
2013-01-11 21:21:00,58.4,56.1,19.47,South,169,2.0,4.0,92,0.00,,SKC,0.13,VWS V14.01,2013-01-12 02:21:00,
2013-01-11 21:22:00,58.4,56.1,19.47,SSW,199,3.0,7.0,92,0.00,,SKC,0.13,VWS V14.01,2013-01-12 02:22:00,
2013-01-11 21:23:00,58.5,56.2,19.47,SSW,200,0.0,4.0,92,0.00,,SKC,0.13,VWS V14.01,2013-01-12 02:23:00,
2013-01-11 21:24:00,58.5,56.2,19.47,SSW,199,3.0,4.0,92,0.00,,SKC,0.13,VWS V14.01,2013-01-12 02:24:00,
2013-01-11 21:25:00,58.5,56.2,19.47,SSW,200,0.0,0.0,92,0.00,,SKC,0.13,VWS V14.01,2013-01-12 02:25:00,
2013-01-11 21:26:00,58.6,56.3,19.47,SSW,199,2.0,2.0,92,0.00,,SKC,0.13,VWS V14.01,2013-01-12 02:26:00,
2013-01-11 21:27:00,58.6,56.3,19.47,SSW,198,3.0,3.0,92,0.00,,SKC,0.13,VWS V14.01,2013-01-12 02:27:00,
2013-01-11 21:28:00,58.6,56.3,19.47,SSW,196,3.0,4.0,92,0.00,,SKC,0.13,VWS V14.01,2013-01-12 02:28:00,
2013-01-11 21:29:00,58.6,56.3,19.47,SSE,165,2.0,6.0,92,0.00,,SKC,0.13,VWS V14.01,2013-01-12 02:29:00,
2013-01-11 21:30:00,58.6,56.3,19.47,SSE,165,6.0,6.0,92,0.00,,SKC,0.13,VWS V14.01,2013-01-12 02:30:00,
2013-01-11 21:31:00,58.7,56.4,19.47,South,188,0.0,3.0,92,0.00,,SKC,0.13,VWS V14.01,2013-01-12 02:31:00,
2013-01-11 21:32:00,58.7,56.1,19.47,South,188,1.0,3.0,91,0.00,,SKC,0.13,VWS V14.01,2013-01-12 02:32:00,
2013-01-11 21:33:00,58.7,56.1,19.47,South,186,4.0,4.0,91,0.00,,SKC,0.13,VWS V14.01,2013-01-12 02:33:00,
2013-01-11 21:34:00,58.7,56.1,19.47,SE,145,1.0,6.0,91,0.00,,SKC,0.13,VWS V14.01,2013-01-12 02:34:00,
2013-01-11 21:35:00,58.7,56.1,19.47,South,184,2.0,5.0,91,0.00,,SKC,0.13,VWS V14.01,2013-01-12 02:35:00,
2013-01-11 21:36:00,58.7,56.1,19.47,SSE,153,2.0,6.0,91,0.00,,SKC,0.13,VWS V14.01,2013-01-12 02:36:00,
2013-01-11 21:37:00,58.7,56.1,19.47,SSE,154,2.0,5.0,91,0.00,,SKC,0.13,VWS V14.01,2013-01-12 02:37:00,
2013-01-11 21:38:00,58.7,56.1,19.47,SSE,155,2.0,4.0,91,0.00,,SKC,0.13,VWS V14.01,2013-01-12 02:38:00,
2013-01-11 21:39:00,58.7,56.4,19.47,South,172,2.0,5.0,92,0.00,,SKC,0.13,VWS V14.01,2013-01-12 02:39:00,
2013-01-11 21:40:00,58.7,56.1,19.47,SSE,155,2.0,2.0,91,0.00,,SKC,0.13,VWS V14.01,2013-01-12 02:40:00,
2013-01-11 21:41:00,58.7,56.1,19.47,South,172,1.0,1.0,91,0.00,,SKC,0.13,VWS V14.01,2013-01-12 02:41:00,
2013-01-11 21:42:00,58.7,56.1,19.47,South,172,0.0,1.0,91,0.01,,SKC,0.14,VWS V14.01,2013-01-12 02:42:00,
2013-01-11 21:43:00,58.7,56.1,19.47,South,172,2.0,2.0,91,0.01,,SKC,0.14,VWS V14.01,2013-01-12 02:43:00,
2013-01-11 21:44:00,58.7,56.1,19.47,South,171,2.0,4.0,91,0.01,,SKC,0.14,VWS V14.01,2013-01-12 02:44:00,
2013-01-11 21:45:00,58.7,56.1,19.47,South,172,2.0,2.0,91,0.01,,SKC,0.14,VWS V14.01,2013-01-12 02:45:00,
2013-01-11 21:46:00,58.6,56.3,19.47,South,171,2.0,4.0,92,0.01,,SKC,0.14,VWS V14.01,2013-01-12 02:46:00,
2013-01-11 21:47:00,58.6,56.3,19.47,South,171,0.0,4.0,92,0.01,,SKC,0.14,VWS V14.01,2013-01-12 02:47:00,
2013-01-11 21:48:00,58.6,56.3,19.47,South,171,0.0,0.0,92,0.01,,SKC,0.14,VWS V14.01,2013-01-12 02:48:00,
2013-01-11 21:49:00,58.6,56.3,19.47,South,169,4.0,4.0,92,0.01,,SKC,0.14,VWS V14.01,2013-01-12 02:49:00,
2013-01-11 21:50:00,58.6,56.3,19.47,South,171,2.0,2.0,92,0.01,,SKC,0.14,VWS V14.01,2013-01-12 02:50:00,
2013-01-11 21:51:00,58.5,56.2,19.47,SE,146,4.0,4.0,92,0.01,,SKC,0.14,VWS V14.01,2013-01-12 02:51:00,
2013-01-11 21:52:00,58.5,56.2,19.47,SE,146,0.0,4.0,92,0.01,,SKC,0.14,VWS V14.01,2013-01-12 02:52:00,
2013-01-11 21:53:00,58.5,56.2,19.47,SE,146,0.0,1.0,92,0.01,,SKC,0.14,VWS V14.01,2013-01-12 02:53:00,
2013-01-11 21:54:00,58.5,56.2,19.47,SE,146,0.0,1.0,92,0.01,,SKC,0.14,VWS V14.01,2013-01-12 02:54:00,
2013-01-11 21:55:00,58.5,56.2,19.47,SE,145,1.0,1.0,92,0.01,,SKC,0.14,VWS V14.01,2013-01-12 02:55:00,
2013-01-11 21:56:00,58.5,56.2,19.47,SE,145,0.0,1.0,92,0.01,,SKC,0.14,VWS V14.01,2013-01-12 02:56:00,
2013-01-11 21:57:00,58.4,56.1,19.47,SE,146,2.0,2.0,92,0.01,,SKC,0.14,VWS V14.01,2013-01-12 02:57:00,
2013-01-11 21:58:00,58.4,56.1,19.47,SE,146,2.0,4.0,92,0.01,,SKC,0.14,VWS V14.01,2013-01-12 02:58:00,
2013-01-11 21:59:00,58.4,56.1,19.47,SE,145,0.0,2.0,92,0.01,,SKC,0.14,VWS V14.01,2013-01-12 02:59:00,
2013-01-11 22:00:00,58.4,56.1,19.47,SE,146,2.0,2.0,92,0.01,,SKC,0.14,VWS V14.01,2013-01-12 03:00:00,
2013-01-11 22:01:00,58.4,56.1,19.47,SE,146,0.0,0.0,92,0.01,,SKC,0.14,VWS V14.01,2013-01-12 03:01:00,
2013-01-11 22:02:00,58.4,56.1,19.47,SE,145,0.0,0.0,92,0.01,,SKC,0.14,VWS V14.01,2013-01-12 03:02:00,
2013-01-11 22:03:00,58.4,56.1,19.47,SE,146,0.0,0.0,92,0.01,,SKC,0.14,VWS V14.01,2013-01-12 03:03:00,
2013-01-11 22:04:00,58.4,56.1,19.47,SE,146,0.0,1.0,92,0.01,,SKC,0.14,VWS V14.01,2013-01-12 03:04:00,
2013-01-11 22:05:00,58.4,56.1,19.47,SE,146,0.0,0.0,92,0.01,,SKC,0.14,VWS V14.01,2013-01-12 03:05:00,
2013-01-11 22:06:00,58.4,56.1,19.47,SE,146,0.0,0.0,92,0.01,,SKC,0.14,VWS V14.01,2013-01-12 03:06:00,
2013-01-11 22:07:00,58.4,56.1,19.47,SE,146,0.0,0.0,92,0.01,,SKC,0.14,VWS V14.01,2013-01-12 03:07:00,
2013-01-11 22:08:00,58.4,56.1,19.47,SE,146,0.0,0.0,92,0.01,,SKC,0.14,VWS V14.01,2013-01-12 03:08:00,
2013-01-11 22:09:00,58.4,56.1,19.47,SE,146,0.0,0.0,92,0.01,,SKC,0.14,VWS V14.01,2013-01-12 03:09:00,
2013-01-11 22:10:00,58.4,56.1,19.47,SE,146,0.0,0.0,92,0.01,,SKC,0.14,VWS V14.01,2013-01-12 03:10:00,
2013-01-11 22:11:00,58.3,56.0,19.47,SE,146,0.0,0.0,92,0.01,,SKC,0.14,VWS V14.01,2013-01-12 03:11:00,
2013-01-11 22:12:00,58.3,56.0,19.47,SE,145,0.0,0.0,92,0.01,,SKC,0.14,VWS V14.01,2013-01-12 03:12:00,
2013-01-11 22:13:00,58.3,56.0,19.47,SE,146,0.0,0.0,92,0.01,,SKC,0.14,VWS V14.01,2013-01-12 03:13:00,
2013-01-11 22:14:00,58.3,56.0,19.47,SE,146,0.0,0.0,92,0.01,,SKC,0.14,VWS V14.01,2013-01-12 03:14:00,
2013-01-11 22:15:00,58.3,56.0,19.47,SE,145,0.0,0.0,92,0.01,,SKC,0.14,VWS V14.01,2013-01-12 03:15:00,
2013-01-11 22:16:00,58.2,55.9,19.47,SE,145,0.0,0.0,92,0.01,,SKC,0.14,VWS V14.01,2013-01-12 03:16:00,
2013-01-11 22:17:00,58.2,55.9,19.47,SE,145,0.0,0.0,92,0.01,,SKC,0.14,VWS V14.01,2013-01-12 03:17:00,
2013-01-11 22:18:00,58.1,55.8,19.47,SE,146,0.0,0.0,92,0.01,,SKC,0.14,VWS V14.01,2013-01-12 03:18:00,
2013-01-11 22:19:00,58.1,55.8,19.47,SE,146,0.0,0.0,92,0.01,,SKC,0.14,VWS V14.01,2013-01-12 03:19:00,
2013-01-11 22:20:00,58.1,55.8,19.47,SE,145,0.0,0.0,92,0.01,,SKC,0.14,VWS V14.01,2013-01-12 03:20:00,
2013-01-11 22:21:00,58.0,55.7,19.47,SE,146,0.0,0.0,92,0.01,,SKC,0.14,VWS V14.01,2013-01-12 03:21:00,
2013-01-11 22:22:00,58.0,55.7,19.47,South,173,5.0,5.0,92,0.01,,SKC,0.14,VWS V14.01,2013-01-12 03:22:00,
2013-01-11 22:23:00,58.1,55.8,19.47,South,190,1.0,5.0,92,0.01,,SKC,0.14,VWS V14.01,2013-01-12 03:23:00,
2013-01-11 22:24:00,58.2,56.2,19.47,South,190,1.0,2.0,93,0.01,,SKC,0.14,VWS V14.01,2013-01-12 03:24:00,
2013-01-11 22:25:00,58.1,55.8,19.47,South,190,1.0,1.0,92,0.01,,SKC,0.14,VWS V14.01,2013-01-12 03:25:00,
2013-01-11 22:26:00,58.2,56.2,19.47,South,190,1.0,2.0,93,0.01,,SKC,0.14,VWS V14.01,2013-01-12 03:26:00,
2013-01-11 22:27:00,58.3,56.3,19.47,South,190,0.0,2.0,93,0.01,,SKC,0.14,VWS V14.01,2013-01-12 03:27:00,
2013-01-11 22:28:00,58.3,56.3,19.47,South,190,1.0,1.0,93,0.01,,SKC,0.14,VWS V14.01,2013-01-12 03:28:00,
2013-01-11 22:29:00,58.3,56.3,19.47,South,190,0.0,3.0,93,0.01,,SKC,0.14,VWS V14.01,2013-01-12 03:29:00,
2013-01-11 22:30:00,58.3,56.3,19.47,South,190,0.0,1.0,93,0.01,,SKC,0.14,VWS V14.01,2013-01-12 03:30:00,
2013-01-11 22:31:00,58.3,56.3,19.47,South,190,0.0,0.0,93,0.01,,SKC,0.14,VWS V14.01,2013-01-12 03:31:00,
2013-01-11 22:32:00,58.3,56.3,19.47,South,190,0.0,0.0,93,0.01,,SKC,0.14,VWS V14.01,2013-01-12 03:32:00,
2013-01-11 22:33:00,58.3,56.3,19.47,South,190,1.0,1.0,93,0.01,,SKC,0.14,VWS V14.01,2013-01-12 03:33:00,
2013-01-11 22:34:00,58.3,56.3,19.47,South,190,0.0,1.0,93,0.01,,SKC,0.14,VWS V14.01,2013-01-12 03:34:00,
2013-01-11 22:35:00,58.3,56.3,19.47,South,190,0.0,1.0,93,0.01,,SKC,0.14,VWS V14.01,2013-01-12 03:35:00,
2013-01-11 22:36:00,58.2,56.2,19.47,South,190,0.0,0.0,93,0.01,,SKC,0.14,VWS V14.01,2013-01-12 03:36:00,
2013-01-11 22:37:00,58.2,56.2,19.47,South,190,0.0,1.0,93,0.01,,SKC,0.14,VWS V14.01,2013-01-12 03:37:00,
2013-01-11 22:38:00,58.2,56.2,19.47,South,190,0.0,0.0,93,0.01,,SKC,0.14,VWS V14.01,2013-01-12 03:38:00,
2013-01-11 22:39:00,58.2,56.2,19.47,South,190,0.0,0.0,93,0.01,,SKC,0.14,VWS V14.01,2013-01-12 03:39:00,
2013-01-11 22:40:00,58.2,56.2,19.47,South,190,0.0,0.0,93,0.01,,SKC,0.14,VWS V14.01,2013-01-12 03:40:00,
2013-01-11 22:41:00,58.2,56.2,19.47,South,190,0.0,0.0,93,0.01,,SKC,0.14,VWS V14.01,2013-01-12 03:41:00,
2013-01-11 22:42:00,58.2,56.2,19.47,South,190,2.0,2.0,93,0.01,,SKC,0.14,VWS V14.01,2013-01-12 03:42:00,
2013-01-11 22:43:00,58.2,56.2,19.47,South,190,0.0,2.0,93,0.00,,SKC,0.14,VWS V14.01,2013-01-12 03:43:00,
2013-01-11 22:44:00,58.1,56.1,19.47,South,190,0.0,0.0,93,0.00,,SKC,0.14,VWS V14.01,2013-01-12 03:44:00,
2013-01-11 22:45:00,58.2,56.2,19.47,South,190,0.0,0.0,93,0.00,,SKC,0.14,VWS V14.01,2013-01-12 03:45:00,
2013-01-11 22:46:00,58.2,56.2,19.47,South,190,0.0,0.0,93,0.00,,SKC,0.14,VWS V14.01,2013-01-12 03:46:00,
2013-01-11 22:47:00,58.2,56.2,19.47,South,190,0.0,1.0,93,0.00,,SKC,0.14,VWS V14.01,2013-01-12 03:47:00,
2013-01-11 22:48:00,58.2,56.2,19.47,South,190,0.0,2.0,93,0.00,,SKC,0.14,VWS V14.01,2013-01-12 03:48:00,
2013-01-11 22:49:00,58.1,56.1,19.47,South,190,1.0,1.0,93,0.00,,SKC,0.14,VWS V14.01,2013-01-12 03:49:00,
2013-01-11 22:50:00,58.1,56.1,19.47,South,190,0.0,0.0,93,0.00,,SKC,0.14,VWS V14.01,2013-01-12 03:50:00,
2013-01-11 22:51:00,58.2,56.2,19.47,South,190,5.0,5.0,93,0.00,,SKC,0.14,VWS V14.01,2013-01-12 03:51:00,
2013-01-11 22:52:00,58.2,56.2,19.47,South,190,2.0,5.0,93,0.00,,SKC,0.14,VWS V14.01,2013-01-12 03:52:00,
2013-01-11 22:53:00,58.3,56.3,19.47,South,190,2.0,2.0,93,0.00,,SKC,0.14,VWS V14.01,2013-01-12 03:53:00,
2013-01-11 22:54:00,58.3,56.3,19.47,South,190,0.0,3.0,93,0.00,,SKC,0.14,VWS V14.01,2013-01-12 03:54:00,
2013-01-11 22:55:00,58.3,56.3,19.47,South,190,3.0,3.0,93,0.00,,SKC,0.14,VWS V14.01,2013-01-12 03:55:00,
2013-01-11 22:56:00,58.4,56.4,19.47,South,190,1.0,1.0,93,0.00,,SKC,0.14,VWS V14.01,2013-01-12 03:56:00,
2013-01-11 22:57:00,58.4,56.4,19.47,SSW,205,2.0,2.0,93,0.00,,SKC,0.14,VWS V14.01,2013-01-12 03:57:00,
2013-01-11 22:58:00,58.4,56.4,19.47,SW,216,0.0,3.0,93,0.00,,SKC,0.14,VWS V14.01,2013-01-12 03:58:00,
2013-01-11 22:59:00,58.4,56.4,19.47,SW,216,0.0,1.0,93,0.00,,SKC,0.14,VWS V14.01,2013-01-12 03:59:00,
2013-01-11 23:00:00,58.4,56.4,19.47,SW,215,0.0,0.0,93,0.00,,SKC,0.14,VWS V14.01,2013-01-12 04:00:00,
2013-01-11 23:01:00,58.5,56.5,19.47,SW,216,0.0,0.0,93,0.00,,SKC,0.14,VWS V14.01,2013-01-12 04:01:00,
2013-01-11 23:02:00,58.5,56.5,19.47,SW,216,0.0,0.0,93,0.00,,SKC,0.14,VWS V14.01,2013-01-12 04:02:00,
2013-01-11 23:03:00,58.5,56.5,19.47,SW,216,1.0,1.0,93,0.00,,SKC,0.14,VWS V14.01,2013-01-12 04:03:00,
2013-01-11 23:04:00,58.5,56.5,19.47,SW,215,0.0,1.0,93,0.00,,SKC,0.14,VWS V14.01,2013-01-12 04:04:00,
2013-01-11 23:05:00,58.5,56.5,19.47,SW,216,1.0,1.0,93,0.00,,SKC,0.14,VWS V14.01,2013-01-12 04:05:00,
2013-01-11 23:06:00,58.4,56.4,19.47,SW,215,0.0,2.0,93,0.00,,SKC,0.14,VWS V14.01,2013-01-12 04:06:00,
2013-01-11 23:07:00,58.4,56.4,19.47,SW,215,0.0,0.0,93,0.00,,SKC,0.14,VWS V14.01,2013-01-12 04:07:00,
2013-01-11 23:08:00,58.4,56.4,19.47,SW,216,0.0,0.0,93,0.00,,SKC,0.14,VWS V14.01,2013-01-12 04:08:00,
2013-01-11 23:09:00,58.4,56.4,19.47,SW,216,0.0,0.0,93,0.00,,SKC,0.14,VWS V14.01,2013-01-12 04:09:00,
2013-01-11 23:10:00,58.4,56.4,19.47,SW,216,0.0,0.0,93,0.00,,SKC,0.14,VWS V14.01,2013-01-12 04:10:00,
2013-01-11 23:11:00,58.2,55.9,19.47,SW,215,0.0,0.0,92,0.00,,SKC,0.14,VWS V14.01,2013-01-12 04:11:00,
2013-01-11 23:12:00,58.2,55.9,19.47,SW,215,0.0,0.0,92,0.00,,SKC,0.14,VWS V14.01,2013-01-12 04:12:00,
2013-01-11 23:13:00,58.1,55.8,19.47,SW,215,1.0,1.0,92,0.00,,SKC,0.14,VWS V14.01,2013-01-12 04:13:00,
2013-01-11 23:14:00,58.1,55.8,19.47,SW,216,0.0,1.0,92,0.00,,SKC,0.14,VWS V14.01,2013-01-12 04:14:00,
2013-01-11 23:15:00,58.1,55.8,19.47,SW,216,1.0,1.0,92,0.00,,SKC,0.14,VWS V14.01,2013-01-12 04:15:00,
2013-01-11 23:16:00,58.1,55.8,19.47,SW,216,0.0,0.0,92,0.00,,SKC,0.14,VWS V14.01,2013-01-12 04:16:00,
2013-01-11 23:17:00,58.0,55.7,19.47,SW,216,0.0,0.0,92,0.00,,SKC,0.14,VWS V14.01,2013-01-12 04:17:00,
2013-01-11 23:18:00,58.0,56.0,19.47,SW,215,0.0,0.0,93,0.00,,SKC,0.14,VWS V14.01,2013-01-12 04:18:00,
2013-01-11 23:19:00,58.0,56.0,19.47,SW,216,0.0,0.0,93,0.00,,SKC,0.14,VWS V14.01,2013-01-12 04:19:00,
2013-01-11 23:20:00,58.0,56.0,19.47,SW,216,0.0,0.0,93,0.00,,SKC,0.14,VWS V14.01,2013-01-12 04:20:00,
2013-01-11 23:21:00,57.9,55.9,19.47,SW,216,0.0,1.0,93,0.00,,SKC,0.14,VWS V14.01,2013-01-12 04:21:00,
2013-01-11 23:22:00,57.9,55.9,19.47,SW,216,2.0,2.0,93,0.00,,SKC,0.14,VWS V14.01,2013-01-12 04:22:00,
2013-01-11 23:23:00,57.9,55.9,19.47,SW,216,1.0,2.0,93,0.00,,SKC,0.14,VWS V14.01,2013-01-12 04:23:00,
2013-01-11 23:24:00,57.9,55.9,19.47,SW,216,0.0,3.0,93,0.00,,SKC,0.14,VWS V14.01,2013-01-12 04:24:00,
2013-01-11 23:25:00,57.9,55.9,19.47,SW,215,2.0,2.0,93,0.00,,SKC,0.14,VWS V14.01,2013-01-12 04:25:00,
2013-01-11 23:26:00,58.0,56.0,19.47,SSE,150,5.0,5.0,93,0.00,,SKC,0.14,VWS V14.01,2013-01-12 04:26:00,
2013-01-11 23:27:00,58.1,56.1,19.47,SSE,152,0.0,5.0,93,0.00,,SKC,0.14,VWS V14.01,2013-01-12 04:27:00,
2013-01-11 23:28:00,58.2,56.2,19.47,SSW,211,3.0,3.0,93,0.00,,SKC,0.14,VWS V14.01,2013-01-12 04:28:00,
2013-01-11 23:29:00,58.2,56.2,19.47,SSW,211,1.0,3.0,93,0.00,,SKC,0.14,VWS V14.01,2013-01-12 04:29:00,
2013-01-11 23:30:00,58.2,56.2,19.47,SSW,211,3.0,3.0,93,0.00,,SKC,0.14,VWS V14.01,2013-01-12 04:30:00,
2013-01-11 23:31:00,58.3,56.3,19.47,SSW,209,0.0,2.0,93,0.00,,SKC,0.14,VWS V14.01,2013-01-12 04:31:00,
2013-01-11 23:32:00,58.3,56.3,19.47,SSW,209,0.0,2.0,93,0.00,,SKC,0.14,VWS V14.01,2013-01-12 04:32:00,
2013-01-11 23:33:00,58.4,56.4,19.47,SSW,209,0.0,0.0,93,0.01,,SKC,0.15,VWS V14.01,2013-01-12 04:33:00,
2013-01-11 23:34:00,58.4,56.4,19.47,SSW,209,0.0,0.0,93,0.01,,SKC,0.15,VWS V14.01,2013-01-12 04:34:00,
2013-01-11 23:35:00,58.4,56.4,19.47,SSW,209,0.0,0.0,93,0.01,,SKC,0.15,VWS V14.01,2013-01-12 04:35:00,
2013-01-11 23:36:00,58.5,56.5,19.47,SSW,207,2.0,4.0,93,0.01,,SKC,0.15,VWS V14.01,2013-01-12 04:36:00,
2013-01-11 23:37:00,58.5,56.5,19.47,SSW,209,0.0,5.0,93,0.01,,SKC,0.15,VWS V14.01,2013-01-12 04:37:00,
2013-01-11 23:38:00,58.5,56.5,19.47,SSW,209,2.0,2.0,93,0.01,,SKC,0.15,VWS V14.01,2013-01-12 04:38:00,
2013-01-11 23:39:00,58.6,56.9,19.47,SSW,209,2.0,2.0,94,0.01,,SKC,0.15,VWS V14.01,2013-01-12 04:39:00,
2013-01-11 23:40:00,58.5,56.5,19.47,SSW,209,2.0,2.0,93,0.01,,SKC,0.15,VWS V14.01,2013-01-12 04:40:00,
2013-01-11 23:41:00,58.6,56.6,19.47,SSW,202,2.0,4.0,93,0.01,,SKC,0.15,VWS V14.01,2013-01-12 04:41:00,
2013-01-11 23:42:00,58.6,56.6,19.47,SSW,202,0.0,3.0,93,0.01,,SKC,0.15,VWS V14.01,2013-01-12 04:42:00,
2013-01-11 23:43:00,58.6,56.6,19.47,SSW,202,3.0,3.0,93,0.01,,SKC,0.15,VWS V14.01,2013-01-12 04:43:00,
2013-01-11 23:44:00,58.6,56.6,19.47,SSW,202,1.0,4.0,93,0.01,,SKC,0.15,VWS V14.01,2013-01-12 04:44:00,
2013-01-11 23:45:00,58.6,56.6,19.47,SSW,202,3.0,3.0,93,0.01,,SKC,0.15,VWS V14.01,2013-01-12 04:45:00,
2013-01-11 23:46:00,58.7,56.7,19.47,SSW,202,0.0,1.0,93,0.01,,SKC,0.15,VWS V14.01,2013-01-12 04:46:00,
2013-01-11 23:47:00,58.7,56.7,19.47,SSW,202,1.0,2.0,93,0.01,,SKC,0.15,VWS V14.01,2013-01-12 04:47:00,
2013-01-11 23:48:00,58.7,56.7,19.47,SSW,202,2.0,3.0,93,0.01,,SKC,0.15,VWS V14.01,2013-01-12 04:48:00,
2013-01-11 23:49:00,58.7,56.7,19.47,SSW,202,0.0,2.0,93,0.01,,SKC,0.15,VWS V14.01,2013-01-12 04:49:00,
2013-01-11 23:50:00,58.7,56.7,19.47,SSW,202,2.0,3.0,93,0.01,,SKC,0.15,VWS V14.01,2013-01-12 04:50:00,
2013-01-11 23:51:00,58.7,56.7,19.47,SSW,202,0.0,0.0,93,0.01,,SKC,0.15,VWS V14.01,2013-01-12 04:51:00,
2013-01-11 23:52:00,58.6,56.6,19.47,SSW,202,0.0,1.0,93,0.01,,SKC,0.15,VWS V14.01,2013-01-12 04:52:00,
2013-01-11 23:53:00,58.6,56.6,19.47,SSW,202,0.0,1.0,93,0.01,,SKC,0.15,VWS V14.01,2013-01-12 04:53:00,
2013-01-11 23:54:00,58.6,56.6,19.47,SSW,202,0.0,1.0,93,0.01,,SKC,0.15,VWS V14.01,2013-01-12 04:54:00,
2013-01-11 23:55:00,58.6,56.6,19.47,SSW,202,0.0,1.0,93,0.01,,SKC,0.15,VWS V14.01,2013-01-12 04:55:00,
2013-01-11 23:56:00,58.6,56.6,19.47,SSW,202,0.0,0.0,93,0.01,,SKC,0.15,VWS V14.01,2013-01-12 04:56:00,
2013-01-11 23:57:00,58.6,56.6,19.47,SSW,202,0.0,3.0,93,0.01,,SKC,0.15,VWS V14.01,2013-01-12 04:57:00,
2013-01-11 23:58:00,58.6,56.6,19.47,SSW,202,0.0,1.0,93,0.01,,SKC,0.15,VWS V14.01,2013-01-12 04:58:00,
2013-01-11 23:59:00,58.6,56.6,19.47,SSW,202,0.0,0.0,93,0.01,,SKC,0.15,VWS V14.01,2013-01-12 04:59:00,